NoveltyWeather Station
Hourly Leaf Wetness Data

Source: University of Missouri

To the bottom of the page

Year Month Day Hour Leaf Wetness Total
Precipitation
Avg. Temp Avg. Rel.
Humidity
Wind
Speed
CST mV in mm F C % mph
2018 04 08 1:00 267.5 0.0 0.00 25.6 -3.5 71.48 1.4
2018 04 08 2:00 267.6 0.0 0.00 25.8 -3.4 71.13 1.6
2018 04 08 3:00 267.3 0.0 0.00 26.9 -2.9 66.45 1.4
2018 04 08 4:00 266.6 0.0 0.00 26.7 -3.0 63.74 3.5
2018 04 08 5:00 266.6 0.0 0.00 26.3 -3.2 66.32 2.9
2018 04 08 6:00 266.6 0.0 0.00 25.8 -3.4 67.91 5.8
2018 04 08 7:00 266.5 0.0 0.00 26.9 -2.8 68.43 7.6
2018 04 08 8:00 266.4 0.0 0.00 28.2 -2.1 67.42 9.5
2018 04 08 9:00 265.8 0.0 0.00 29.3 -1.5 63.25 10.1
2018 04 08 10:00 265.6 0.0 0.00 31.0 -0.6 57.86 10.1
2018 04 08 11:00 265.0 0.0 0.00 32.7 0.4 52.44 9.4
2018 04 08 12:00 264.8 0.0 0.00 34.5 1.4 47.97 8.3
2018 04 08 13:00 264.3 0.0 0.00 36.0 2.2 43.87 7.7
2018 04 08 14:00 264.2 0.0 0.00 36.5 2.5 44.4 10.3
2018 04 08 15:00 265.2 0.0 0.00 34.1 1.1 66.24 11.4
2018 04 08 16:00 267.1 0.0 0.00 30.8 -0.6 94.5 6.1
2018 04 08 17:00 268.0 0.0 0.00 30.7 -0.7 97.4 5.7
2018 04 08 18:00 268.5 0.0 0.00 30.2 -1.0 98 5.9
2018 04 08 19:00 269.4 0.0 0.00 30.1 -1.0 98.4 4.3
2018 04 08 20:00 269.8 0.0 0.00 30.0 -1.1 98.9 4.7
2018 04 08 21:00 269.7 0.0 0.00 30.1 -1.0 99.2 6.8
2018 04 08 22:00 269.2 0.0 0.00 30.1 -1.1 99.1 7.5
2018 04 08 23:00 270.0 0.0 0.00 30.1 -1.1 99.2 6.5
2018 04 08 24:00 269.8 0.0 0.00 30.3 -1.0 99.2 4.9
2018 04 09 1:00 269.8 0.0 0.00 30.3 -1.0 99.4 5.3
2018 04 09 2:00 269.9 0.0 0.00 30.3 -1.0 99.4 4.7
2018 04 09 3:00 270.4 0.0 0.00 30.2 -1.0 99.5 6.1
2018 04 09 4:00 269.8 0.0 0.00 30.3 -1.0 99.5 4.7
2018 04 09 5:00 270.1 0.0 0.00 30.3 -0.9 99.3 4.1
2018 04 09 6:00 270.4 0.0 0.00 30.5 -0.9 99.1 4.6
2018 04 09 7:00 269.9 0.0 0.00 30.7 -0.7 98.9 5.8
2018 04 09 8:00 268.9 0.0 0.00 31.1 -0.5 98 6.3
2018 04 09 9:00 268.4 0.0 0.00 31.5 -0.3 96.3 6.3
2018 04 09 10:00 267.6 0.1 2.79 32.5 0.3 92.7 5.7
2018 04 09 11:00 267.6 0.0 0.00 33.1 0.6 91.1 6.6
2018 04 09 12:00 267.2 0.0 0.00 34.5 1.4 87.2 6.8
2018 04 09 13:00 266.2 0.0 0.00 37.5 3.1 80.4 6.2
2018 04 09 14:00 266.9 0.0 0.00 37.2 2.9 78.96 7.4
2018 04 09 15:00 267.3 0.0 0.00 36.3 2.4 81.9 7.4
2018 04 09 16:00 267.6 0.0 0.00 35.3 1.8 86.2 7.7
2018 04 09 17:00 267.6 0.0 0.00 35.2 1.8 86.7 6.8
2018 04 09 18:00 267.6 0.0 0.00 35.4 1.9 83.8 5.5
2018 04 09 19:00 267.8 0.0 0.00 34.9 1.6 85.4 5.0
2018 04 09 20:00 268.3 0.0 0.00 34.5 1.4 86 4.5
2018 04 09 21:00 268.3 0.0 0.00 34.1 1.2 87.5 3.3
2018 04 09 22:00 268.7 0.0 0.00 33.3 0.7 88.2 2.7
2018 04 09 23:00 269.1 0.0 0.00 32.5 0.3 91.4 3.4
2018 04 09 24:00 269.1 0.0 0.00 32.5 0.3 90.7 3.4
2018 04 10 1:00 269.0 0.0 0.00 32.6 0.3 90.6 3.5
2018 04 10 2:00 268.4 0.0 0.00 32.7 0.4 83.1 4.1
2018 04 10 3:00 268.4 0.0 0.00 32.1 0.1 81.7 2.4
2018 04 10 4:00 268.4 0.0 0.00 31.7 -0.1 80.5 1.9
2018 04 10 5:00 268.4 0.0 0.00 31.2 -0.4 83.3 2.6
2018 04 10 6:00 268.4 0.0 0.00 31.2 -0.5 80.2 2.2
2018 04 10 7:00 268.0 0.0 0.00 31.4 -0.3 79.23 1.5
2018 04 10 8:00 267.1 0.0 0.00 32.5 0.3 68.8 3.5
2018 04 10 9:00 266.2 0.0 0.00 33.7 1.0 63.21 2.6
2018 04 10 10:00 265.5 0.0 0.00 36.3 2.4 59.38 3.2
2018 04 10 11:00 265.2 0.0 0.00 38.2 3.4 57.42 5.3
2018 04 10 12:00 264.4 0.0 0.00 41.4 5.2 54.88 5.9
2018 04 10 13:00 264.1 0.0 0.00 44.1 6.7 53.26 6.9
2018 04 10 14:00 263.6 0.0 0.00 46.5 8.1 50.89 7.9
2018 04 10 15:00 263.3 0.0 0.00 48.7 9.3 50.49 8.8
2018 04 10 16:00 262.9 0.0 0.00 50.4 10.2 48.51 9.1
2018 04 10 17:00 263.0 0.0 0.00 51.4 10.8 47.84 8.4
2018 04 10 18:00 264.1 0.0 0.00 50.2 10.1 52.65 9.1
2018 04 10 19:00 264.9 0.0 0.00 48.4 9.1 58.2 5.6
2018 04 10 20:00 265.4 0.0 0.00 47.0 8.3 63.38 3.0
2018 04 10 21:00 266.0 0.0 0.00 45.4 7.5 66.67 3.6
2018 04 10 22:00 266.7 0.0 0.00 42.7 5.9 71.75 2.8
2018 04 10 23:00 267.5 0.0 0.00 40.7 4.8 77.01 3.7
2018 04 10 24:00 267.6 0.0 0.00 40.8 4.9 78.45 5.9
2018 04 11 1:00 267.6 0.0 0.00 40.2 4.5 79.23 6.1
2018 04 11 2:00 267.5 0.0 0.00 40.9 4.9 77.49 7.3
2018 04 11 3:00 267.1 0.0 0.00 41.6 5.4 75.57 7.2
2018 04 11 4:00 267.0 0.0 0.00 41.9 5.5 74.72 7.7
2018 04 11 5:00 267.4 0.0 0.00 41.1 5.0 76.7 6.8
2018 04 11 6:00 267.6 0.0 0.00 40.9 4.9 77.07 6.8
2018 04 11 7:00 266.9 0.0 0.00 44.6 7.0 70.83 8.0
2018 04 11 8:00 266.1 0.0 0.00 50.3 10.2 61.29 9.9
2018 04 11 9:00 265.3 0.0 0.00 55.5 13.1 51.3 12.0
2018 04 11 10:00 264.5 0.0 0.00 58.9 14.9 45.5 14.2
2018 04 11 11:00 263.7 0.0 0.00 62.0 16.7 43.08 12.5
2018 04 11 12:00 263.2 0.0 0.00 65.1 18.4 39.81 12.5
2018 04 11 13:00 262.2 0.0 0.00 67.4 19.7 37.4 13.9
2018 04 11 14:00 262.0 0.0 0.00 69.0 20.6 36.82 15.9
2018 04 11 15:00 262.2 0.0 0.00 69.2 20.7 37.02 14.4
2018 04 11 16:00 262.3 0.0 0.00 69.8 21.0 36.9 12.7
2018 04 11 17:00 262.7 0.0 0.00 70.3 21.3 37.97 10.7
2018 04 11 18:00 262.8 0.0 0.00 70.4 21.3 38.37 10.3
2018 04 11 19:00 263.1 0.0 0.00 68.0 20.0 41.26 9.0
2018 04 11 20:00 263.6 0.0 0.00 64.3 17.9 48.77 5.4
2018 04 11 21:00 263.7 0.0 0.00 63.1 17.3 50.4 8.2
2018 04 11 22:00 263.7 0.0 0.00 62.3 16.9 48.42 9.9
2018 04 11 23:00 263.7 0.0 0.00 63.4 17.4 43.31 13.1
2018 04 11 24:00 263.6 0.0 0.00 64.2 17.9 39.94 14.4
2018 04 12 1:00 263.5 0.0 0.00 63.6 17.5 40.8 15.7
2018 04 12 2:00 263.1 0.0 0.00 63.4 17.4 40.87 16.2
2018 04 12 3:00 263.1 0.0 0.00 63.8 17.7 41.48 16.4
2018 04 12 4:00 263.6 0.0 0.00 62.4 16.9 44.66 16.1
2018 04 12 5:00 263.7 0.0 0.00 60.1 15.6 49.21 14.1
2018 04 12 6:00 263.7 0.0 0.00 58.5 14.7 52.69 12.2
2018 04 12 7:00 263.8 0.0 0.00 58.7 14.8 53.62 10.6
2018 04 12 8:00 263.7 0.0 0.00 61.8 16.5 50.83 11.3
2018 04 12 9:00 263.6 0.0 0.00 65.6 18.7 47.67 12.5
2018 04 12 10:00 263.5 0.0 0.00 68.5 20.3 45.81 11.9
2018 04 12 11:00 262.4 0.0 0.00 71.2 21.8 43.75 6.7
2018 04 12 12:00 261.4 0.0 0.00 73.8 23.2 41.4 5.8
2018 04 12 13:00 261.0 0.0 0.00 75.4 24.1 40.47 6.3
2018 04 12 14:00 260.6 0.0 0.00 77.0 25.0 39.17 7.7
2018 04 12 15:00 260.6 0.0 0.00 78.7 25.9 38.27 9.6
2018 04 12 16:00 260.6 0.0 0.00 80.2 26.8 37.01 11.4
2018 04 12 17:00 261.1 0.0 0.00 80.1 26.7 37.63 9.6
2018 04 12 18:00 261.7 0.0 0.00 78.8 26.0 39.76 4.7
2018 04 12 19:00 263.0 0.0 0.00 74.9 23.8 46.1 4.2
2018 04 12 20:00 263.7 0.0 0.00 69.1 20.6 55.62 5.2
2018 04 12 21:00 264.2 0.0 0.00 67.2 19.6 57.14 3.4
2018 04 12 22:00 264.8 0.0 0.00 63.8 17.7 64.2 1.9
2018 04 12 23:00 265.0 0.0 0.00 64.9 18.3 64.35 6.7
2018 04 12 24:00 265.4 0.0 0.00 63.8 17.6 66 4.1
2018 04 13 1:00 266.4 0.0 0.00 60.7 15.9 69.39 4.6
2018 04 13 2:00 265.6 0.0 0.00 61.2 16.2 66.84 6.8
2018 04 13 3:00 265.0 0.0 0.00 61.9 16.6 63.28 7.8
2018 04 13 4:00 265.6 0.0 0.00 61.3 16.3 62.64 7.6
2018 04 13 5:00 265.6 0.0 0.00 59.8 15.4 62.36 8.8
2018 04 13 6:00 265.1 0.0 0.00 58.5 14.8 65.8 7.9
2018 04 13 7:00 265.6 0.0 0.00 58.7 14.9 68.68 8.4
2018 04 13 8:00 265.1 0.0 0.00 62.6 17.0 65.1 10.1
2018 04 13 9:00 265.0 0.0 0.00 65.0 18.3 63.14 9.2
2018 04 13 10:00 265.0 0.0 0.00 66.8 19.3 62.75 9.8
2018 04 13 11:00 264.9 0.0 0.00 68.8 20.4 61.93 8.4
2018 04 13 12:00 265.1 0.0 0.00 70.3 21.3 63.65 11.9
2018 04 13 13:00 266.5 0.0 0.00 70.2 21.2 61.69 16.6
2018 04 13 14:00 264.5 0.0 0.00 71.3 21.9 63.31 18.5
2018 04 13 15:00 264.8 0.0 0.00 70.0 21.1 65.08 17.4
2018 04 13 16:00 264.7 0.0 0.00 70.1 21.2 64.48 13.8
2018 04 13 17:00 264.9 0.0 0.00 71.1 21.7 63.91 11.5
2018 04 13 18:00 269.9 0.0 0.00 69.1 20.6 73.42 13.3
2018 04 13 19:00 266.7 0.0 0.00 67.8 19.9 79.07 13.3
2018 04 13 20:00 266.9 0.0 0.00 66.8 19.3 80.1 11.3
2018 04 13 21:00 267.0 0.0 0.00 65.9 18.9 80.2 10.3
2018 04 13 22:00 267.0 0.0 0.00 64.7 18.2 79.72 11.0
2018 04 13 23:00 267.5 0.0 0.00 63.0 17.2 82.6 8.5
2018 04 13 24:00 267.7 0.0 0.00 62.0 16.6 84 7.1
2018 04 14 1:00 268.0 0.0 0.00 60.7 15.9 86.7 6.4
2018 04 14 2:00 268.9 0.0 0.00 59.1 15.0 91.6 7.7
2018 04 14 3:00 268.9 0.0 0.00 59.8 15.4 90.3 10.7
2018 04 14 4:00 268.4 0.0 0.00 59.9 15.5 86.3 11.7
2018 04 14 5:00 268.4 0.0 0.00 59.0 15.0 87.4 10.0
2018 04 14 6:00 268.5 0.0 0.00 58.4 14.7 88.5 10.0
2018 04 14 7:00 273.0 0.0 0.00 57.7 14.3 88.3 11.4
2018 04 14 8:00 271.1 0.0 0.00 50.7 10.4 81.3 15.6
2018 04 14 9:00 267.5 0.0 0.00 48.7 9.3 77.2 14.0
2018 04 14 10:00 268.1 0.0 0.00 48.8 9.3 72.19 12.9
2018 04 14 11:00 265.9 0.0 0.00 51.8 11.0 61.31 10.8
2018 04 14 12:00 265.7 0.0 0.00 50.5 10.3 57.93 13.1
2018 04 14 13:00 265.2 0.0 0.00 48.8 9.3 56.01 11.9
2018 04 14 14:00 264.8 0.0 0.00 50.2 10.1 52.23 12.0
2018 04 14 15:00 263.5 0.0 0.00 52.5 11.4 46.96 12.4
2018 04 14 16:00 263.5 0.0 0.00 50.9 10.5 48.01 13.2
2018 04 14 17:00 263.8 0.0 0.00 48.3 9.1 52.84 15.5
2018 04 14 18:00 263.9 0.0 0.00 45.7 7.6 56.29 14.1
2018 04 14 19:00 265.0 0.0 0.00 43.0 6.1 59.5 11.0
2018 04 14 20:00 265.4 0.0 0.00 41.6 5.3 62.52 7.1
2018 04 14 21:00 266.2 0.0 0.00 40.4 4.7 66.28 4.4
2018 04 14 22:00 266.4 0.0 0.00 38.9 3.8 69.55 1.7
2018 04 14 23:00 266.9 0.0 0.00 38.6 3.6 78.3 1.5
2018 04 14 24:00 266.9 0.0 0.00 40.2 4.6 74.59 2.3
2018 04 15 1:00 266.9 0.0 0.00 40.9 5.0 72.37 4.1
2018 04 15 2:00 266.8 0.0 0.00 40.6 4.8 75.57 4.6
2018 04 15 3:00 267.2 0.0 0.00 40.5 4.7 77.35 6.2
2018 04 15 4:00 269.9 0.0 0.00 39.2 4.0 89.1 6.9
2018 04 15 5:00 Wet 322.1 0.0 0.25 37.5 3.0 94 5.7
2018 04 15 6:00 Wet 360.8 0.0 0.51 36.0 2.2 95.3 8.2
2018 04 15 7:00 Wet 338.4 0.0 0.25 34.7 1.5 95 11.2
2018 04 15 8:00 Wet 325.4 0.0 0.25 33.1 0.6 94.1 13.7
2018 04 15 9:00 Wet 308.0 0.0 0.00 31.9 -0.0 92.8 16.2
2018 04 15 10:00 Wet 289.7 0.0 0.00 31.9 -0.1 89.2 16.1
2018 04 15 11:00 270.7 0.0 0.00 31.2 -0.4 88.1 17.8
2018 04 15 12:00 268.0 0.0 0.00 31.2 -0.4 87.1 18.2
2018 04 15 13:00 267.4 0.0 0.00 32.4 0.2 84.7 18.3
2018 04 15 14:00 267.0 0.0 0.00 32.9 0.5 75.66 19.6
2018 04 15 15:00 266.8 0.0 0.00 32.6 0.3 71.54 18.9
2018 04 15 16:00 266.5 0.0 0.00 32.2 0.1 70.02 18.9
2018 04 15 17:00 266.4 0.0 0.00 31.9 -0.1 69.85 18.5
2018 04 15 18:00 266.9 0.0 0.00 30.8 -0.7 73.81 17.3
2018 04 15 19:00 266.7 0.0 0.00 30.2 -1.0 70.65 16.8
2018 04 15 20:00 267.3 0.0 0.00 29.1 -1.6 83.9 14.5
2018 04 15 21:00 267.7 0.0 0.00 28.3 -2.1 86.9 14.3
2018 04 15 22:00 267.3 0.0 0.00 28.0 -2.2 83.8 15.6
2018 04 15 23:00 267.4 0.0 0.00 27.8 -2.3 84 13.6
2018 04 15 24:00 267.2 0.0 0.00 27.9 -2.3 82.5 13.5
2018 04 16 1:00 267.2 0.0 0.00 28.0 -2.2 81 12.0
2018 04 16 2:00 267.6 0.0 0.00 28.4 -2.0 80.7 14.0
2018 04 16 3:00 267.1 0.0 0.00 28.2 -2.1 76.28 17.4
2018 04 16 4:00 267.1 0.0 0.00 27.5 -2.5 75.3 17.1
2018 04 16 5:00 267.2 0.0 0.00 26.8 -2.9 76.28 16.5
2018 04 16 6:00 267.2 0.0 0.00 26.7 -3.0 76.04 16.7
2018 04 16 7:00 267.2 0.0 0.00 26.5 -3.0 74.43 18.5
2018 04 16 8:00 266.9 0.0 0.00 26.9 -2.8 71.54 19.2
2018 04 16 9:00 266.5 0.0 0.00 28.9 -1.7 67.81 19.6
2018 04 16 10:00 266.1 0.0 0.00 32.3 0.2 60.78 20.1
2018 04 16 11:00 265.4 0.0 0.00 35.2 1.8 53.51 20.6
2018 04 16 12:00 264.7 0.0 0.00 36.8 2.7 50.83 18.6
2018 04 16 13:00 264.3 0.0 0.00 38.5 3.6 48.85 18.0
2018 04 16 14:00 263.9 0.0 0.00 40.9 5.0 46.94 16.5
2018 04 16 15:00 263.3 0.0 0.00 42.4 5.8 45.33 15.6
2018 04 16 16:00 262.8 0.0 0.00 43.9 6.6 43.5 14.1
2018 04 16 17:00 262.8 0.0 0.00 44.2 6.8 44.02 14.3
2018 04 16 18:00 263.4 0.0 0.00 43.4 6.3 46.4 12.7
2018 04 16 19:00 264.3 0.0 0.00 39.6 4.3 54.92 8.4
2018 04 16 20:00 265.6 0.0 0.00 35.0 1.7 65.59 6.5
2018 04 16 21:00 266.7 0.0 0.00 31.9 -0.1 73.19 4.8
2018 04 16 22:00 267.3 0.0 0.00 30.0 -1.1 77.74 4.1
2018 04 16 23:00 267.5 0.0 0.00 29.1 -1.6 79.69 5.2
2018 04 16 24:00 267.9 0.0 0.00 28.3 -2.1 81.7 5.3
2018 04 17 1:00 268.1 0.0 0.00 27.8 -2.3 82.7 5.1
2018 04 17 2:00 268.2 0.0 0.00 28.2 -2.1 82.9 5.4
2018 04 17 3:00 268.0 0.0 0.00 28.3 -2.1 82.9 4.6
2018 04 17 4:00 270.1 0.0 0.00 27.1 -2.7 86 1.1
2018 04 17 5:00 270.7 0.0 0.00 25.9 -3.4 89.6 1.7
2018 04 17 6:00 272.5 0.0 0.00 25.0 -3.9 90.9 3.5
2018 04 17 7:00 269.3 0.0 0.00 27.8 -2.3 84.7 5.1
2018 04 17 8:00 266.5 0.0 0.00 32.3 0.2 73.13 7.7
2018 04 17 9:00 265.9 0.0 0.00 36.3 2.4 59.76 7.4
2018 04 17 10:00 265.1 0.0 0.00 39.4 4.1 52.36 5.5
2018 04 17 11:00 264.4 0.0 0.00 42.6 5.9 48.72 5.7
2018 04 17 12:00 263.2 0.0 0.00 46.0 7.8 45.52 5.3
2018 04 17 13:00 262.5 0.0 0.00 49.0 9.5 41.97 6.4
2018 04 17 14:00 261.6 0.0 0.00 51.9 11.0 39.66 5.4
2018 04 17 15:00 261.8 0.0 0.00 53.8 12.1 38.12 6.9
2018 04 17 16:00 262.3 0.0 0.00 54.5 12.5 36.74 7.6
2018 04 17 17:00 261.7 0.0 0.00 55.7 13.2 36.2 8.4
2018 04 17 18:00 262.0 0.0 0.00 54.4 12.5 36.96 9.3
2018 04 17 19:00 263.2 0.0 0.00 50.5 10.3 45.93 6.8
2018 04 17 20:00 263.9 0.0 0.00 48.0 8.9 51.5 8.0
2018 04 17 21:00 264.3 0.0 0.00 47.0 8.3 55.92 9.5
2018 04 17 22:00 264.7 0.0 0.00 45.7 7.6 60.66 9.5
2018 04 17 23:00 265.0 0.0 0.00 44.1 6.7 65.2 10.4
2018 04 17 24:00 265.4 0.0 0.00 43.3 6.3 66.71 12.2
2018 04 18 1:00 265.4 0.0 0.00 42.2 5.7 68.8 14.1
2018 04 18 2:00 266.0 0.0 0.00 39.4 4.1 79.17 14.9
2018 04 18 3:00 266.2 0.0 0.00 37.8 3.2 78.92 16.8
2018 04 18 4:00 266.2 0.0 0.00 38.0 3.3 76.36 16.6
2018 04 18 5:00 266.2 0.0 0.00 38.5 3.6 73.93 16.1
2018 04 18 6:00 266.2 0.0 0.00 39.1 4.0 72.7 15.2
2018 04 18 7:00 266.2 0.0 0.00 39.9 4.4 72.02 9.8
2018 04 18 8:00 265.6 0.0 0.00 41.7 5.4 70.03 8.2
2018 04 18 9:00 266.1 0.0 0.00 42.1 5.6 72.78 9.4
2018 04 18 10:00 265.7 0.0 0.00 42.0 5.5 71.55 13.9
2018 04 18 11:00 265.8 0.0 0.00 41.4 5.2 74.71 12.7
2018 04 18 12:00 266.0 0.0 0.00 41.8 5.4 73 14.6
2018 04 18 13:00 265.4 0.0 0.00 41.0 5.0 65.63 21.3
2018 04 18 14:00 265.4 0.0 0.00 39.2 4.0 68.78 20.7
2018 04 18 15:00 265.5 0.0 0.00 37.8 3.2 71.79 18.7
2018 04 18 16:00 265.6 0.0 0.00 37.3 2.9 72.64 17.5
2018 04 18 17:00 266.0 0.0 0.00 36.8 2.7 71.22 17.0
2018 04 18 18:00 265.5 0.0 0.00 36.6 2.6 67.63 18.0
2018 04 18 19:00 265.6 0.0 0.00 36.1 2.3 65.87 17.0
2018 04 18 20:00 265.6 0.0 0.00 35.6 2.0 67.42 13.7
2018 04 18 21:00 265.8 0.0 0.00 35.0 1.7 69.73 15.2
2018 04 18 22:00 266.3 0.0 0.00 34.5 1.4 72.82 13.0
2018 04 18 23:00 266.3 0.0 0.00 34.0 1.1 74.02 11.6
2018 04 18 24:00 266.6 0.0 0.00 32.1 0.1 78.82 9.3
2018 04 19 1:00 266.8 0.0 0.00 31.5 -0.3 79.88 9.3
2018 04 19 2:00 267.1 0.0 0.00 30.5 -0.9 82.1 9.4
2018 04 19 3:00 267.5 0.0 0.00 29.9 -1.2 84.8 9.2
2018 04 19 4:00 268.6 0.0 0.00 28.8 -1.8 90.2 6.5
2018 04 19 5:00 267.8 0.0 0.00 30.1 -1.1 89.1 7.1
2018 04 19 6:00 269.1 0.0 0.00 29.0 -1.7 91.7 4.8
2018 04 19 7:00 267.4 0.0 0.00 31.5 -0.3 88.4 6.7
2018 04 19 8:00 266.9 0.0 0.00 35.9 2.1 79.96 8.5
2018 04 19 9:00 266.4 0.0 0.00 39.6 4.2 70.8 7.3
2018 04 19 10:00 265.5 0.0 0.00 43.0 6.1 58.23 7.5
2018 04 19 11:00 264.4 0.0 0.00 45.3 7.4 52.65 6.6
2018 04 19 12:00 263.5 0.0 0.00 48.3 9.0 48.72 7.0
2018 04 19 13:00 262.6 0.0 0.00 50.5 10.3 45.36 7.8
2018 04 19 14:00 261.7 0.0 0.00 51.9 11.1 42.93 7.3
2018 04 19 15:00 261.2 0.0 0.00 53.0 11.6 40.76 6.3
2018 04 19 16:00 260.6 0.0 0.00 54.4 12.4 38.1 6.1
2018 04 19 17:00 260.6 0.0 0.00 54.6 12.6 36.36 5.4
2018 04 19 18:00 260.9 0.0 0.00 54.1 12.3 35.77 4.7
2018 04 19 19:00 262.6 0.0 0.00 51.3 10.7 39.83 3.8
2018 04 19 20:00 264.0 0.0 0.00 47.6 8.7 44.35 2.7
2018 04 19 21:00 264.9 0.0 0.00 44.4 6.9 51.46 2.3
2018 04 19 22:00 265.8 0.0 0.00 40.7 4.8 58.8 2.7
2018 04 19 23:00 265.8 0.0 0.00 39.4 4.1 59.18 2.6
2018 04 19 24:00 266.4 0.0 0.00 37.4 3.0 62.37 1.8
2018 04 20 1:00 266.3 0.0 0.00 36.5 2.5 61.31 2.5
2018 04 20 2:00 266.8 0.0 0.00 35.0 1.7 65.99 2.8
2018 04 20 3:00 267.3 0.0 0.00 33.2 0.7 70.93 3.0
2018 04 20 4:00 267.1 0.0 0.00 33.3 0.7 67.51 2.8
2018 04 20 5:00 266.9 0.0 0.00 32.6 0.3 68.85 3.6
2018 04 20 6:00 267.0 0.0 0.00 32.1 0.1 70.35 3.0
2018 04 20 7:00 265.7 0.0 0.00 35.5 2.0 69.37 3.8
2018 04 20 8:00 265.2 0.0 0.00 42.7 6.0 59.65 7.6
2018 04 20 9:00 264.6 0.0 0.00 48.5 9.2 47.68 7.9
2018 04 20 10:00 263.8 0.0 0.00 52.3 11.3 36.8 7.1
2018 04 20 11:00 262.9 0.0 0.00 54.3 12.4 31.93 8.6
2018 04 20 12:00 261.8 0.0 0.00 56.1 13.4 28.93 10.0
2018 04 20 13:00 261.4 0.0 0.00 56.9 13.8 25 9.6
2018 04 20 14:00 261.2 0.0 0.00 57.4 14.1 23.53 8.9
2018 04 20 15:00 260.9 0.0 0.00 58.8 14.9 21.05 9.9
2018 04 20 16:00 260.0 0.0 0.00 59.8 15.5 18.9 11.0
2018 04 20 17:00 259.9 0.0 0.00 59.7 15.4 18.74 12.0
2018 04 20 18:00 260.6 0.0 0.00 57.6 14.2 20.79 9.3
2018 04 20 19:00 261.4 0.0 0.00 54.0 12.2 26.36 6.8
2018 04 20 20:00 262.5 0.0 0.00 49.2 9.6 35.65 6.1
2018 04 20 21:00 262.8 0.0 0.00 47.3 8.5 41.18 5.4
2018 04 20 22:00 263.6 0.0 0.00 45.2 7.3 44.86 6.1
2018 04 20 23:00 263.8 0.0 0.00 45.2 7.3 44.38 6.7
2018 04 20 24:00 263.5 0.0 0.00 45.9 7.7 40.76 5.0
2018 04 21 1:00 263.7 0.0 0.00 45.8 7.7 42.84 4.7
2018 04 21 2:00 263.8 0.0 0.00 44.6 7.0 44.17 3.7
2018 04 21 3:00 264.1 0.0 0.00 43.9 6.6 47.21 5.0
2018 04 21 4:00 264.1 0.0 0.00 42.6 5.9 51.17 4.4
2018 04 21 5:00 264.1 0.0 0.00 42.7 5.9 53.11 6.0
2018 04 21 6:00 264.1 0.0 0.00 44.2 6.8 48.9 4.7
2018 04 21 7:00 264.1 0.0 0.00 44.8 7.1 52 4.8
2018 04 21 8:00 263.9 0.0 0.00 47.5 8.6 46.34 7.9
2018 04 21 9:00 263.1 0.0 0.00 51.0 10.5 40.89 9.7
2018 04 21 10:00 262.7 0.0 0.00 53.2 11.8 38.28 11.0
2018 04 21 11:00 262.4 0.0 0.00 57.3 14.1 33.43 11.7
2018 04 21 12:00 262.2 0.0 0.00 57.9 14.4 31.3 11.5
2018 04 21 13:00 261.7 0.0 0.00 59.6 15.3 29.82 12.2
2018 04 21 14:00 261.4 0.0 0.00 60.0 15.5 28.1 13.4
2018 04 21 15:00 261.7 0.0 0.00 60.0 15.5 28.11 12.9
2018 04 21 16:00 261.7 0.0 0.00 59.1 15.1 29.58 13.1
2018 04 21 17:00 261.7 0.0 0.00 58.2 14.6 30.72 10.6
2018 04 21 18:00 262.0 0.0 0.00 57.0 13.9 32.09 8.9
2018 04 21 19:00 262.4 0.0 0.00 55.0 12.8 36.29 8.6
2018 04 21 20:00 262.5 0.0 0.00 54.1 12.3 36.47 8.2
2018 04 21 21:00 262.8 0.0 0.00 51.4 10.8 41.79 8.2
2018 04 21 22:00 262.5 0.0 0.00 52.4 11.3 40.1 12.2
2018 04 21 23:00 262.9 0.0 0.00 51.7 10.9 42.72 10.0
2018 04 21 24:00 263.2 0.0 0.00 51.2 10.7 43.56 10.9
2018 04 22 1:00 263.2 0.0 0.00 51.0 10.6 42.23 11.2
2018 04 22 2:00 263.2 0.0 0.00 50.0 10.0 44.84 10.4
2018 04 22 3:00 263.6 0.0 0.00 48.8 9.3 49.56 10.4
2018 04 22 4:00 264.0 0.0 0.00 48.0 8.9 51.59 10.7
2018 04 22 5:00 264.0 0.0 0.00 47.7 8.7 51.76 12.0
2018 04 22 6:00 264.0 0.0 0.00 47.4 8.5 52.04 10.6
2018 04 22 7:00 264.0 0.0 0.00 47.6 8.6 51.54 10.6
2018 04 22 8:00 264.0 0.0 0.00 48.2 9.0 50.74 11.0
2018 04 22 9:00 263.7 0.0 0.00 49.9 10.0 48.06 11.6
2018 04 22 10:00 263.1 0.0 0.00 55.0 12.8 43.91 11.9
2018 04 22 11:00 262.3 0.0 0.00 60.3 15.7 41.98 9.7
2018 04 22 12:00 261.8 0.0 0.00 64.1 17.8 42.41 10.7
2018 04 22 13:00 261.5 0.0 0.00 65.4 18.6 39.06 12.7
2018 04 22 14:00 261.8 0.0 0.00 65.4 18.6 39.16 14.6
2018 04 22 15:00 262.2 0.0 0.00 63.8 17.7 41.04 12.4
2018 04 22 16:00 262.8 0.0 0.00 62.6 17.0 41.95 10.4
2018 04 22 17:00 262.6 0.0 0.00 61.1 16.2 39.21 10.8
2018 04 22 18:00 262.3 0.0 0.00 59.7 15.4 36.23 7.5
2018 04 22 19:00 262.4 0.0 0.00 58.2 14.5 37.14 7.3
2018 04 22 20:00 262.4 0.0 0.00 57.2 14.0 33.32 8.6
2018 04 22 21:00 262.4 0.0 0.00 56.7 13.7 30.58 9.1
2018 04 22 22:00 262.4 0.0 0.00 56.0 13.3 32.09 8.0
2018 04 22 23:00 262.3 0.0 0.00 56.2 13.4 32.51 9.8
2018 04 22 24:00 262.4 0.0 0.00 55.4 13.0 35.93 9.4
2018 04 23 1:00 262.5 0.0 0.00 53.5 11.9 41.81 8.6
2018 04 23 2:00 263.2 0.0 0.00 51.1 10.6 47.68 7.4
2018 04 23 3:00 263.2 0.0 0.00 51.1 10.6 46.77 9.7
2018 04 23 4:00 263.2 0.0 0.00 50.5 10.3 46.66 9.7
2018 04 23 5:00 263.2 0.0 0.00 50.2 10.1 46.16 7.9
2018 04 23 6:00 263.3 0.0 0.00 49.3 9.6 48.6 6.7
2018 04 23 7:00 263.3 0.0 0.00 49.7 9.8 48.5 7.4
2018 04 23 8:00 263.0 0.0 0.00 51.3 10.7 46.8 10.0
2018 04 23 9:00 262.5 0.0 0.00 53.7 12.0 42.98 11.0
2018 04 23 10:00 262.4 0.0 0.00 56.3 13.5 40.68 9.7
2018 04 23 11:00 261.8 0.0 0.00 60.9 16.1 33.4 12.5
2018 04 23 12:00 261.6 0.0 0.00 62.9 17.2 31.09 12.8
2018 04 23 13:00 260.5 0.0 0.00 67.5 19.7 26.53 13.9
2018 04 23 14:00 259.8 0.0 0.00 69.5 20.8 24.63 13.5
2018 04 23 15:00 259.8 0.0 0.00 70.1 21.2 24.46 12.1
2018 04 23 16:00 259.9 0.0 0.00 70.6 21.4 24.87 12.8
2018 04 23 17:00 260.4 0.0 0.00 67.8 19.9 27.76 11.7
2018 04 23 18:00 260.9 0.0 0.00 64.7 18.2 31.22 8.9
2018 04 23 19:00 261.2 0.0 0.00 64.5 18.0 32.12 5.5
2018 04 23 20:00 262.0 0.0 0.00 60.8 16.0 34.67 4.9
2018 04 23 21:00 262.4 0.0 0.00 56.5 13.6 39.63 4.6
2018 04 23 22:00 262.5 0.0 0.00 56.7 13.7 37.48 5.7
2018 04 23 23:00 262.5 0.0 0.00 55.1 12.9 39.22 5.1
2018 04 23 24:00 263.0 0.0 0.00 52.8 11.5 42.71 4.4
2018 04 24 1:00 263.7 0.0 0.00 50.1 10.1 48.97 3.2
2018 04 24 2:00 264.3 0.0 0.00 45.7 7.6 60.39 2.4
2018 04 24 3:00 264.8 0.0 0.00 44.5 7.0 65.05 2.8
2018 04 24 4:00 264.8 0.0 0.00 46.1 7.8 62.14 4.4
2018 04 24 5:00 265.3 0.0 0.00 46.2 7.9 69.06 4.2
2018 04 24 6:00 265.5 0.0 0.00 45.4 7.4 76.38 4.4
2018 04 24 7:00 264.8 0.0 0.00 47.7 8.7 75.29 5.6
2018 04 24 8:00 264.6 0.0 0.00 54.3 12.4 71.35 5.7
2018 04 24 9:00 264.7 0.0 0.00 58.9 14.9 68.24 8.1
2018 04 24 10:00 264.2 0.0 0.00 63.0 17.2 59.57 6.7
2018 04 24 11:00 263.3 0.0 0.00 65.9 18.8 50.56 8.1
2018 04 24 12:00 261.6 0.0 0.00 68.4 20.2 40.1 8.0
2018 04 24 13:00 260.4 0.0 0.00 70.2 21.2 32.69 7.8
2018 04 24 14:00 259.7 0.0 0.00 71.4 21.9 27.45 9.3
2018 04 24 15:00 258.9 0.0 0.00 72.6 22.6 25.71 8.8
2018 04 24 16:00 258.9 0.0 0.00 72.7 22.6 23.27 10.1
2018 04 24 17:00 259.3 0.0 0.00 72.2 22.4 23.08 10.7
2018 04 24 18:00 260.1 0.0 0.00 70.1 21.2 25.79 9.8
2018 04 24 19:00 261.3 0.0 0.00 64.9 18.3 32.76 6.5
2018 04 24 20:00 262.4 0.0 0.00 59.2 15.1 40.72 4.9
2018 04 24 21:00 262.7 0.0 0.00 59.2 15.1 41.76 5.9
2018 04 24 22:00 262.4 0.0 0.00 61.2 16.2 39.72 7.4
2018 04 24 23:00 262.7 0.0 0.00 59.9 15.5 46.14 7.9
2018 04 24 24:00 263.6 0.0 0.00 57.6 14.2 57.31 8.1
2018 04 25 1:00 264.2 0.0 0.00 55.4 13.0 65.94 9.4
2018 04 25 2:00 264.5 0.0 0.00 55.0 12.8 65.05 10.8
2018 04 25 3:00 264.4 0.0 0.00 53.7 12.1 61.48 10.8
2018 04 25 4:00 263.9 0.0 0.00 53.3 11.8 55.68 11.2
2018 04 25 5:00 263.9 0.0 0.00 51.6 10.9 56.37 8.4
2018 04 25 6:00 263.9 0.0 0.00 50.7 10.4 58.3 8.7
2018 04 25 7:00 263.9 0.0 0.00 50.1 10.0 60.02 9.7
2018 04 25 8:00 263.9 0.0 0.00 50.1 10.1 61.43 10.2
2018 04 25 9:00 263.9 0.0 0.00 52.0 11.1 62.44 9.7
2018 04 25 10:00 263.9 0.0 0.00 53.3 11.8 63.11 8.3
2018 04 25 11:00 263.8 0.0 0.00 54.2 12.4 62.37 6.0
2018 04 25 12:00 263.8 0.0 0.00 55.5 13.1 59.92 6.0
2018 04 25 13:00 263.8 0.0 0.00 55.6 13.1 56.22 6.2
2018 04 25 14:00 263.8 0.0 0.00 56.2 13.4 58.3 5.8
2018 04 25 15:00 263.8 0.0 0.00 56.8 13.8 58.09 6.6
2018 04 25 16:00 263.7 0.0 0.00 57.5 14.1 55.38 4.6
2018 04 25 17:00 263.8 0.0 0.00 57.1 13.9 59.38 5.5
2018 04 25 18:00 264.7 0.0 0.00 54.9 12.7 72.65 7.2
2018 04 25 19:00 265.5 0.0 0.00 52.3 11.3 79.76 6.7
2018 04 25 20:00 265.8 0.0 0.00 49.3 9.6 87.8 3.9
2018 04 25 21:00 274.7 0.0 0.00 47.2 8.5 91.3 3.9
2018 04 25 22:00 Wet 297.1 0.0 0.00 46.2 7.9 92.6 3.7
2018 04 25 23:00 Wet 343.5 0.0 0.00 43.8 6.6 96.1 2.2
2018 04 25 24:00 Wet 384.8 0.0 0.00 42.6 5.9 97.8 2.2
2018 04 26 1:00 Wet 414.5 0.0 0.00 41.8 5.5 99 3.2
2018 04 26 2:00 Wet 411.0 0.0 0.00 40.2 4.5 99.9 3.5
2018 04 26 3:00 Wet 389.9 0.0 0.00 38.8 3.8 100 1.4
2018 04 26 4:00 Wet 358.4 0.0 0.00 36.5 2.5 100 1.5
2018 04 26 5:00 Wet 343.5 0.0 0.00 35.0 1.6 99.8 4.1
2018 04 26 6:00 Wet 313.0 0.0 0.00 36.6 2.6 91.7 3.2
2018 04 26 7:00 270.4 0.0 0.00 42.4 5.8 82.6 4.2
2018 04 26 8:00 265.7 0.0 0.00 49.9 9.9 65.38 3.5
2018 04 26 9:00 264.9 0.0 0.00 55.4 13.0 53.72 2.9
2018 04 26 10:00 263.8 0.0 0.00 60.2 15.6 41.72 2.5
2018 04 26 11:00 263.0 0.0 0.00 62.2 16.8 35.84 5.8
2018 04 26 12:00 261.5 0.0 0.00 64.0 17.8 34.18 5.4
2018 04 26 13:00 261.0 0.0 0.00 65.2 18.5 33.66 7.4
2018 04 26 14:00 260.5 0.0 0.00 66.5 19.2 32.74 8.1
2018 04 26 15:00 260.5 0.0 0.00 67.0 19.4 33.45 9.4
2018 04 26 16:00 260.7 0.0 0.00 66.8 19.3 34.04 9.1
2018 04 26 17:00 260.7 0.0 0.00 66.7 19.3 31.87 8.8
2018 04 26 18:00 260.7 0.0 0.00 66.0 18.9 32.08 8.4
2018 04 26 19:00 261.9 0.0 0.00 62.1 16.7 38.11 6.1
2018 04 26 20:00 263.7 0.0 0.00 57.3 14.0 47.07 5.3
2018 04 26 21:00 263.9 0.0 0.00 54.8 12.6 51.84 5.5
2018 04 26 22:00 264.5 0.0 0.00 53.4 11.9 52.24 5.9
2018 04 26 23:00 263.9 0.0 0.00 53.3 11.9 53.67 9.3
2018 04 26 24:00 263.9 0.0 0.00 53.3 11.8 54.12 12.0
2018 04 27 1:00 263.9 0.0 0.00 49.9 9.9 53.99 9.6
2018 04 27 2:00 264.0 0.0 0.00 47.1 8.4 55.8 9.2
2018 04 27 3:00 264.8 0.0 0.00 43.2 6.2 67.8 6.9
2018 04 27 4:00 265.7 0.0 0.00 39.8 4.3 73.11 5.9
2018 04 27 5:00 266.5 0.0 0.00 38.3 3.5 77.2 5.4
2018 04 27 6:00 266.1 0.0 0.00 39.9 4.4 75.04 7.1
2018 04 27 7:00 265.1 0.0 0.00 44.1 6.7 65.24 10.1
2018 04 27 8:00 264.4 0.0 0.00 48.8 9.4 56.01 10.4
2018 04 27 9:00 263.9 0.0 0.00 53.6 12.0 48.91 8.5
2018 04 27 10:00 263.6 0.0 0.00 57.5 14.2 40.01 9.1
2018 04 27 11:00 262.7 0.0 0.00 61.1 16.2 35.25 10.7
2018 04 27 12:00 261.6 0.0 0.00 64.4 18.0 32.84 11.0
2018 04 27 13:00 260.9 0.0 0.00 66.6 19.2 32.11 13.5
2018 04 27 14:00 260.5 0.0 0.00 69.0 20.5 29.2 16.8
2018 04 27 15:00 260.1 0.0 0.00 70.7 21.5 25.95 17.1
2018 04 27 16:00 259.8 0.0 0.00 71.6 22.0 25.14 18.2
2018 04 27 17:00 260.1 0.0 0.00 71.7 22.1 26.33 17.4
2018 04 27 18:00 260.7 0.0 0.00 71.1 21.7 26.79 15.7
2018 04 27 19:00 261.0 0.0 0.00 69.2 20.7 29.33 11.1
2018 04 27 20:00 261.5 0.0 0.00 65.9 18.8 30.39 14.0
2018 04 27 21:00 261.6 0.0 0.00 61.1 16.1 30.57 13.1
2018 04 27 22:00 261.8 0.0 0.00 56.9 13.8 37.9 11.1
2018 04 27 23:00 262.6 0.0 0.00 52.7 11.5 47.26 8.8
2018 04 27 24:00 263.7 0.0 0.00 48.5 9.2 56.11 5.9
2018 04 28 1:00 264.5 0.0 0.00 45.0 7.2 61.81 5.0
2018 04 28 2:00 264.5 0.0 0.00 46.2 7.9 59.46 6.1
2018 04 28 3:00 264.6 0.0 0.00 45.4 7.5 61.59 4.2
2018 04 28 4:00 265.2 0.0 0.00 43.8 6.6 66.07 3.3
2018 04 28 5:00 265.9 0.0 0.00 40.6 4.8 74.39 3.3
2018 04 28 6:00 266.2 0.0 0.00 40.0 4.4 76.55 3.2
2018 04 28 7:00 264.7 0.0 0.00 43.1 6.1 72.52 4.9
2018 04 28 8:00 264.7 0.0 0.00 46.6 8.1 66.88 8.2
2018 04 28 9:00 264.5 0.0 0.00 49.3 9.6 61.96 7.9
2018 04 28 10:00 264.0 0.0 0.00 51.8 11.0 56.88 7.8
2018 04 28 11:00 263.5 0.0 0.00 53.1 11.7 52.76 8.3
2018 04 28 12:00 262.4 0.0 0.00 54.8 12.7 48.54 7.8
2018 04 28 13:00 261.6 0.0 0.00 56.5 13.6 45.36 8.1
2018 04 28 14:00 260.5 0.0 0.00 58.0 14.4 40.98 6.7
2018 04 28 15:00 260.3 0.0 0.00 58.5 14.8 37.57 6.9
2018 04 28 16:00 259.8 0.0 0.00 59.6 15.4 33.73 7.4
2018 04 28 17:00 259.8 0.0 0.00 59.7 15.4 31.11 6.9
2018 04 28 18:00 260.0 0.0 0.00 59.0 15.0 29.44 6.4
2018 04 28 19:00 261.5 0.0 0.00 56.0 13.3 31.29 4.4
2018 04 28 20:00 262.5 0.0 0.00 53.0 11.7 32.42 2.9
2018 04 28 21:00 263.4 0.0 0.00 49.2 9.5 40.39 1.1
2018 04 28 22:00 264.1 0.0 0.00 44.3 6.9 51.91 0.5
2018 04 28 23:00 264.1 0.0 0.00 45.7 7.6 43.58 2.6
2018 04 28 24:00 264.2 0.0 0.00 44.2 6.8 48.12 3.3
2018 04 29 1:00 264.2 0.0 0.00 41.4 5.2 53.66 4.7
2018 04 29 2:00 264.2 0.0 0.00 39.6 4.3 55.53 4.5
2018 04 29 3:00 264.5 0.0 0.00 37.8 3.2 58.42 4.5
2018 04 29 4:00 264.5 0.0 0.00 38.8 3.8 54.63 5.3
2018 04 29 5:00 264.8 0.0 0.00 37.5 3.1 59.31 6.0
2018 04 29 6:00 264.7 0.0 0.00 36.6 2.6 62.65 5.3
2018 04 29 7:00 264.2 0.0 0.00 41.0 5.0 56.56 7.3
2018 04 29 8:00 263.7 0.0 0.00 46.9 8.3 45.09 11.4
2018 04 29 9:00 263.1 0.0 0.00 51.9 11.1 38.14 12.5
2018 04 29 10:00 262.5 0.0 0.00 55.6 13.1 32.91 13.1
2018 04 29 11:00 262.0 0.0 0.00 58.3 14.6 30.42 13.0
2018 04 29 12:00 261.1 0.0 0.00 60.3 15.7 27.9 13.3
2018 04 29 13:00 260.6 0.0 0.00 62.5 17.0 25.79 13.0
2018 04 29 14:00 260.1 0.0 0.00 64.0 17.8 23.99 13.2
2018 04 29 15:00 259.6 0.0 0.00 65.4 18.6 22.94 13.1
2018 04 29 16:00 259.5 0.0 0.00 66.1 18.9 21.2 13.8
2018 04 29 17:00 259.5 0.0 0.00 66.3 19.1 20.84 13.3
2018 04 29 18:00 259.6 0.0 0.00 65.3 18.5 21.65 11.7
2018 04 29 19:00 260.4 0.0 0.00 62.7 17.1 23.29 9.4
2018 04 29 20:00 261.0 0.0 0.00 59.3 15.2 25.39 8.4
2018 04 29 21:00 261.3 0.0 0.00 55.7 13.1 30.98 6.7
2018 04 29 22:00 261.8 0.0 0.00 53.6 12.0 34.57 7.5
2018 04 29 23:00 261.8 0.0 0.00 53.8 12.1 34.01 9.5
2018 04 29 24:00 261.8 0.0 0.00 53.0 11.7 34.63 9.6
2018 04 30 1:00 261.9 0.0 0.00 51.2 10.7 37.93 7.5
2018 04 30 2:00 262.2 0.0 0.00 50.7 10.4 40.3 7.1
2018 04 30 3:00 262.0 0.0 0.00 51.9 11.1 39.59 9.3
2018 04 30 4:00 262.5 0.0 0.00 50.9 10.5 42.54 9.0
2018 04 30 5:00 262.6 0.0 0.00 49.4 9.6 46.26 8.3
2018 04 30 6:00 262.6 0.0 0.00 48.2 9.0 50.2 8.2
2018 04 30 7:00 262.6 0.0 0.00 51.7 10.9 47.14 11.6
2018 04 30 8:00 262.5 0.0 0.00 57.3 14.1 42.71 13.6
2018 04 30 9:00 262.4 0.0 0.00 62.5 16.9 41.3 13.9
2018 04 30 10:00 262.2 0.0 0.00 67.7 19.8 40.71 12.9
2018 04 30 11:00 261.8 0.0 0.00 72.7 22.6 41.02 14.7
2018 04 30 12:00 261.2 0.0 0.00 76.1 24.5 40.99 15.5
2018 04 30 13:00 260.7 0.0 0.00 77.6 25.3 38.6 18.1
2018 04 30 14:00 260.2 0.0 0.00 78.8 26.0 34.37 18.3
2018 04 30 15:00 259.9 0.0 0.00 79.5 26.4 32.4 18.1
2018 04 30 16:00 259.9 0.0 0.00 79.8 26.6 31.89 17.4
2018 04 30 17:00 259.9 0.0 0.00 79.5 26.4 30.91 17.3
2018 04 30 18:00 259.9 0.0 0.00 78.2 25.7 31.2 16.4
2018 04 30 19:00 260.4 0.0 0.00 75.8 24.4 31.16 14.2
2018 04 30 20:00 261.1 0.0 0.00 71.7 22.1 35.69 10.3
2018 04 30 21:00 261.5 0.0 0.00 69.5 20.9 38.02 11.1
2018 04 30 22:00 261.5 0.0 0.00 68.1 20.1 39.91 10.8
2018 04 30 23:00 261.6 0.0 0.00 66.8 19.3 41.98 12.3
2018 04 30 24:00 262.2 0.0 0.00 65.9 18.8 45.08 13.0
2018 05 01 1:00 262.3 0.0 0.00 64.7 18.2 48.66 12.2
2018 05 01 2:00 262.5 0.0 0.00 63.0 17.2 52.51 11.7
2018 05 01 3:00 263.1 0.0 0.00 61.8 16.5 56.58 11.0
2018 05 01 4:00 263.7 0.0 0.00 61.2 16.2 59.35 11.1
2018 05 01 5:00 263.7 0.0 0.00 61.0 16.1 60.29 12.7
2018 05 01 6:00 263.7 0.0 0.00 61.2 16.2 60.79 14.0
2018 05 01 7:00 263.5 0.0 0.00 64.3 17.9 57.47 16.3
2018 05 01 8:00 263.1 0.0 0.00 67.4 19.6 54.72 15.6
2018 05 01 9:00 262.8 0.0 0.00 70.8 21.5 52.08 16.7
2018 05 01 10:00 262.2 0.0 0.00 74.2 23.4 49.4 18.1
2018 05 01 11:00 262.0 0.0 0.00 76.0 24.4 49.52 16.3
2018 05 01 12:00 262.0 0.0 0.00 76.6 24.8 48.69 14.4
2018 05 01 13:00 262.0 0.0 0.00 78.0 25.6 48.6 14.5
2018 05 01 14:00 262.0 0.0 0.00 77.8 25.4 49.89 15.1
2018 05 01 15:00 262.4 0.0 0.00 78.1 25.6 49.15 14.1
2018 05 01 16:00 262.7 0.0 0.00 77.5 25.3 50.66 12.5
2018 05 01 17:00 262.4 0.0 0.00 77.8 25.4 50.81 14.0
2018 05 01 18:00 262.4 0.0 0.00 77.4 25.2 51.38 16.1
2018 05 01 19:00 262.9 0.0 0.00 76.7 24.8 51.77 15.7
2018 05 01 20:00 263.3 0.0 0.00 75.2 24.0 54.76 12.6
2018 05 01 21:00 263.4 0.0 0.00 73.6 23.1 58.28 8.6
2018 05 01 22:00 263.5 0.0 0.00 72.9 22.7 60.01 8.2
2018 05 01 23:00 263.8 0.0 0.00 71.4 21.9 63.88 6.1
2018 05 01 24:00 264.2 0.0 0.00 70.5 21.4 65.73 8.8
2018 05 02 1:00 264.2 0.0 0.00 70.1 21.2 63.64 9.2
2018 05 02 2:00 264.1 0.0 0.00 69.1 20.6 58.22 8.0
2018 05 02 3:00 263.5 0.0 0.00 68.2 20.1 56.48 6.3
2018 05 02 4:00 Wet 372.4 0.3 6.86 64.0 17.8 78.21 8.2
2018 05 02 5:00 Wet 379.5 0.1 2.29 61.3 16.3 93.7 10.0
2018 05 02 6:00 270.8 0.0 0.00 61.3 16.3 90.8 9.5
2018 05 02 7:00 267.2 0.0 0.00 62.1 16.7 89.3 11.3
2018 05 02 8:00 267.0 0.0 0.00 64.2 17.9 87.2 11.4
2018 05 02 9:00 265.8 0.0 0.00 69.1 20.6 72.29 14.3
2018 05 02 10:00 265.5 0.0 0.00 72.6 22.5 70.67 15.7
2018 05 02 11:00 265.1 0.0 0.00 75.6 24.2 69.72 15.6
2018 05 02 12:00 264.6 0.0 0.00 76.9 24.9 68.71 16.1
2018 05 02 13:00 264.2 0.0 0.00 78.3 25.7 66.62 14.7
2018 05 02 14:00 263.9 0.0 0.00 79.1 26.1 64.55 14.6
2018 05 02 15:00 264.2 0.0 0.00 78.3 25.7 65.6 15.7
2018 05 02 16:00 283.8 0.0 0.00 74.4 23.6 77.64 9.8
2018 05 02 17:00 265.1 0.0 0.00 76.1 24.5 75.21 6.0
2018 05 02 18:00 265.9 0.0 0.00 75.5 24.2 80 5.3
2018 05 02 19:00 265.5 0.0 0.00 76.3 24.6 66.15 8.7
2018 05 02 20:00 265.4 0.0 0.00 74.9 23.8 66.59 7.3
2018 05 02 21:00 265.5 0.0 0.00 73.8 23.2 67.57 6.2
2018 05 02 22:00 265.8 0.0 0.00 71.9 22.1 72.07 4.3
2018 05 02 23:00 Wet 363.2 0.1 3.56 69.3 20.7 82.7 11.2
2018 05 02 24:00 Wet 358.5 0.1 1.78 64.9 18.3 92.9 7.5
2018 05 03 1:00 Wet 290.4 0.0 0.00 62.8 17.1 96.2 3.1
2018 05 03 2:00 Wet 304.5 0.0 0.00 61.7 16.5 99 2.9
2018 05 03 3:00 Wet 316.4 0.0 0.00 62.1 16.7 99.9 2.5
2018 05 03 4:00 Wet 313.4 0.0 0.00 62.7 17.1 99.1 5.0
2018 05 03 5:00 Wet 332.5 0.0 0.00 61.5 16.4 99 2.1
2018 05 03 6:00 Wet 344.6 0.0 0.25 60.5 15.8 99.9 3.1
2018 05 03 7:00 Wet 321.7 0.0 0.00 62.3 16.8 99.3 6.0
2018 05 03 8:00 272.5 0.0 0.00 64.6 18.1 94.6 7.9
2018 05 03 9:00 Wet 313.2 0.1 2.03 64.5 18.0 94.1 9.9
2018 05 03 10:00 Wet 298.9 0.0 0.00 64.4 18.0 93.4 8.9
2018 05 03 11:00 272.0 0.0 0.00 67.2 19.6 90.7 10.9
2018 05 03 12:00 268.0 0.0 0.00 68.8 20.5 87.5 14.2
2018 05 03 13:00 267.6 0.0 0.25 69.8 21.0 85.4 13.0
2018 05 03 14:00 267.5 0.0 0.00 71.4 21.9 81.8 14.2
2018 05 03 15:00 267.5 0.0 0.00 71.0 21.7 79.77 13.7
2018 05 03 16:00 267.5 0.0 0.00 71.0 21.7 81.5 12.8
2018 05 03 17:00 267.5 0.0 0.00 70.2 21.2 83.9 11.3
2018 05 03 18:00 267.2 0.0 0.00 70.8 21.5 82.6 12.5
2018 05 03 19:00 267.5 0.0 0.00 69.4 20.8 80.4 11.7
2018 05 03 20:00 268.0 0.0 0.00 67.3 19.6 83.3 6.7
2018 05 03 21:00 267.8 0.0 0.00 66.9 19.4 83.3 7.7
2018 05 03 22:00 267.6 0.0 0.00 66.9 19.4 80.3 11.9
2018 05 03 23:00 Wet 297.8 0.1 2.03 65.9 18.9 82 13.9
2018 05 03 24:00 Wet 285.3 0.0 0.00 62.0 16.7 90.4 8.8
2018 05 04 1:00 Wet 295.0 0.0 0.25 63.3 17.4 85.3 14.3
2018 05 04 2:00 268.8 0.0 0.00 62.3 16.9 82.7 8.9
2018 05 04 3:00 268.9 0.0 0.00 59.9 15.5 86.6 6.2
2018 05 04 4:00 269.0 0.0 0.00 59.0 15.0 89.1 8.1
2018 05 04 5:00 269.1 0.0 0.00 59.2 15.1 91.6 6.6
2018 05 04 6:00 268.6 0.0 0.00 59.3 15.2 89.8 12.1
2018 05 04 7:00 268.1 0.0 0.00 57.9 14.4 86 12.6
2018 05 04 8:00 267.7 0.0 0.00 58.5 14.8 82.6 10.3
2018 05 04 9:00 267.1 0.0 0.00 61.7 16.5 74.56 10.9
2018 05 04 10:00 266.7 0.0 0.00 64.5 18.0 67.56 10.5
2018 05 04 11:00 265.6 0.0 0.00 66.7 19.3 60.18 8.9
2018 05 04 12:00 263.8 0.0 0.00 69.2 20.6 49.46 7.7
2018 05 04 13:00 263.2 0.0 0.00 70.6 21.4 43.91 10.6
2018 05 04 14:00 262.2 0.0 0.00 72.4 22.4 41.65 10.5
2018 05 04 15:00 261.2 0.0 0.00 73.9 23.3 38 8.0
2018 05 04 16:00 260.8 0.0 0.00 74.6 23.6 38.3 7.2
2018 05 04 17:00 261.0 0.0 0.00 74.1 23.4 39.5 7.8
2018 05 04 18:00 261.6 0.0 0.00 73.1 22.8 41.64 6.9
2018 05 04 19:00 263.1 0.0 0.00 69.1 20.6 52.8 4.6
2018 05 04 20:00 264.9 0.0 0.00 67.3 19.6 54.36 4.1
2018 05 04 21:00 265.7 0.0 0.00 62.5 16.9 71.14 2.5
2018 05 04 22:00 266.1 0.0 0.00 61.6 16.4 65.25 2.9
2018 05 04 23:00 270.5 0.0 0.00 57.7 14.3 82 0.9
2018 05 04 24:00 Wet 286.1 0.0 0.00 55.0 12.8 89.1 0.5
2018 05 05 1:00 Wet 302.8 0.0 0.00 53.8 12.1 86.7 2.3
2018 05 05 2:00 282.3 0.0 0.00 53.2 11.8 81.4 2.9
2018 05 05 3:00 271.9 0.0 0.00 52.7 11.5 81.9 3.0
2018 05 05 4:00 268.9 0.0 0.00 52.6 11.5 80.2 2.2
2018 05 05 5:00 Wet 284.7 0.0 0.00 49.1 9.5 87.4 0.4
2018 05 05 6:00 Wet 294.2 0.0 0.00 49.5 9.7 88.9 1.4
2018 05 05 7:00 266.8 0.0 0.00 55.5 13.1 80.1 0.6
2018 05 05 8:00 265.3 0.0 0.00 64.7 18.2 59.42 2.6
2018 05 05 9:00 264.3 0.0 0.00 70.0 21.1 46.44 3.4
2018 05 05 10:00 263.5 0.0 0.00 73.3 22.9 36.98 2.6
2018 05 05 11:00 262.2 0.0 0.00 75.4 24.1 32.68 2.7
2018 05 05 12:00 260.8 0.0 0.00 76.4 24.7 33.14 4.1
2018 05 05 13:00 260.0 0.0 0.00 77.6 25.3 31.87 4.3
2018 05 05 14:00 259.0 0.0 0.00 78.5 25.9 29.71 4.6
2018 05 05 15:00 259.0 0.0 0.00 79.2 26.2 31.74 4.9
2018 05 05 16:00 258.8 0.0 0.00 79.5 26.4 28.92 4.3
2018 05 05 17:00 258.6 0.0 0.00 79.8 26.5 28.59 2.8
2018 05 05 18:00 259.4 0.0 0.00 79.1 26.2 31.37 3.2
2018 05 05 19:00 261.1 0.0 0.00 75.8 24.3 37.28 2.9
2018 05 05 20:00 262.5 0.0 0.00 70.1 21.1 43.99 3.1
2018 05 05 21:00 263.6 0.0 0.00 66.1 18.9 52.49 2.9
2018 05 05 22:00 263.7 0.0 0.00 65.5 18.6 51.06 4.5
2018 05 05 23:00 263.7 0.0 0.00 64.1 17.8 52.67 4.9
2018 05 05 24:00 263.7 0.0 0.00 64.4 18.0 53.18 5.9
2018 05 06 1:00 264.2 0.0 0.00 62.1 16.7 59.19 5.3
2018 05 06 2:00 264.4 0.0 0.00 62.5 17.0 59.78 4.9
2018 05 06 3:00 264.4 0.0 0.00 62.2 16.8 61.64 4.3
2018 05 06 4:00 265.5 0.0 0.00 58.6 14.8 71.61 2.3
2018 05 06 5:00 266.7 0.0 0.00 58.5 14.7 71.93 2.0
2018 05 06 6:00 273.5 0.0 0.00 58.5 14.7 79.32 2.0
2018 05 06 7:00 266.3 0.0 0.00 60.1 15.6 78.08 1.9
2018 05 06 8:00 265.1 0.0 0.00 64.5 18.1 66 4.5
2018 05 06 9:00 264.3 0.0 0.00 70.3 21.3 55.42 7.7
2018 05 06 10:00 263.7 0.0 0.00 74.4 23.6 47.2 9.7
2018 05 06 11:00 263.0 0.0 0.00 76.4 24.6 44.39 8.2
2018 05 06 12:00 261.8 0.0 0.00 77.6 25.3 42.5 8.2
2018 05 06 13:00 261.3 0.0 0.00 78.7 26.0 42.07 8.9
2018 05 06 14:00 260.6 0.0 0.00 80.0 26.6 38.5 9.2
2018 05 06 15:00 259.5 0.0 0.00 81.4 27.4 35.67 8.2
2018 05 06 16:00 259.9 0.0 0.00 80.4 26.9 33.02 9.6
2018 05 06 17:00 259.7 0.0 0.00 80.7 27.1 32.11 9.7
2018 05 06 18:00 260.2 0.0 0.00 78.2 25.6 34.01 10.2
2018 05 06 19:00 261.4 0.0 0.00 73.5 23.1 39.42 5.9
2018 05 06 20:00 262.4 0.0 0.00 70.9 21.6 41.44 4.6
2018 05 06 21:00 263.3 0.0 0.00 66.9 19.4 49.35 3.8
2018 05 06 22:00 263.6 0.0 0.00 64.8 18.2 51.79 3.4
2018 05 06 23:00 263.8 0.0 0.00 63.4 17.5 57.71 4.1
2018 05 06 24:00 264.4 0.0 0.00 62.4 16.9 61.94 4.1
2018 05 07 1:00 264.6 0.0 0.00 61.2 16.2 66.06 4.3
2018 05 07 2:00 265.2 0.0 0.00 58.9 14.9 71.8 5.6
2018 05 07 3:00 266.2 0.0 0.00 56.3 13.5 77.62 4.3
2018 05 07 4:00 266.5 0.0 0.00 55.6 13.1 77.88 4.7
2018 05 07 5:00 266.8 0.0 0.00 53.8 12.1 80.9 4.4
2018 05 07 6:00 266.5 0.0 0.00 54.0 12.2 78.28 3.7
2018 05 07 7:00 273.9 0.0 0.00 57.9 14.4 70.59 6.2
2018 05 07 8:00 264.4 0.0 0.00 61.7 16.5 59.06 6.8
2018 05 07 9:00 264.3 0.0 0.00 66.0 18.9 51.48 6.2
2018 05 07 10:00 263.6 0.0 0.00 70.1 21.2 44.6 7.7
2018 05 07 11:00 263.2 0.0 0.00 72.4 22.4 44.24 8.0
2018 05 07 12:00 262.1 0.0 0.00 74.1 23.4 42.48 7.2
2018 05 07 13:00 260.9 0.0 0.00 75.7 24.3 34.71 7.3
2018 05 07 14:00 260.3 0.0 0.00 76.3 24.6 32.21 8.0
2018 05 07 15:00 259.7 0.0 0.00 76.9 25.0 29.11 7.8
2018 05 07 16:00 259.4 0.0 0.00 77.1 25.1 28.73 7.5
2018 05 07 17:00 259.3 0.0 0.00 76.8 24.9 28.06 7.8
2018 05 07 18:00 259.7 0.0 0.00 75.6 24.2 27.29 7.4
2018 05 07 19:00 260.4 0.0 0.00 72.5 22.5 28.27 6.1
2018 05 07 20:00 261.9 0.0 0.00 68.0 20.0 34.02 5.2
2018 05 07 21:00 262.6 0.0 0.00 65.0 18.3 39.11 4.9
2018 05 07 22:00 263.0 0.0 0.00 63.1 17.3 42.87 6.5
2018 05 07 23:00 263.2 0.0 0.00 62.5 16.9 44.21 6.2
2018 05 07 24:00 263.7 0.0 0.00 61.4 16.3 45.52 6.6
2018 05 08 1:00 263.3 0.0 0.00 61.3 16.3 44.62 5.8
2018 05 08 2:00 263.8 0.0 0.00 58.4 14.7 51.27 5.2
2018 05 08 3:00 263.8 0.0 0.00 57.4 14.1 55.73 4.8
2018 05 08 4:00 264.2 0.0 0.00 56.2 13.4 59.21 4.2
2018 05 08 5:00 264.4 0.0 0.00 54.5 12.5 64.7 5.1
2018 05 08 6:00 264.5 0.0 0.00 56.3 13.5 61.93 6.9
2018 05 08 7:00 263.9 0.0 0.00 60.5 15.9 55.19 8.5
2018 05 08 8:00 263.7 0.0 0.00 65.4 18.6 47.66 11.2
2018 05 08 9:00 262.9 0.0 0.00 70.0 21.1 40.11 14.1
2018 05 08 10:00 262.1 0.0 0.00 72.9 22.7 35.67 15.0
2018 05 08 11:00 261.7 0.0 0.00 75.2 24.0 35.41 14.3
2018 05 08 12:00 261.3 0.0 0.00 76.3 24.6 36.08 13.8
2018 05 08 13:00 261.3 0.0 0.00 77.3 25.1 36.4 14.0
2018 05 08 14:00 260.9 0.0 0.00 78.5 25.9 35.86 13.6
2018 05 08 15:00 260.7 0.0 0.00 79.3 26.3 34.89 16.2
2018 05 08 16:00 260.9 0.0 0.00 79.4 26.3 35.71 15.4
2018 05 08 17:00 261.2 0.0 0.00 78.3 25.7 36.94 14.7
2018 05 08 18:00 261.3 0.0 0.00 77.4 25.2 38.23 13.6
2018 05 08 19:00 262.0 0.0 0.00 75.3 24.1 40.21 11.7
2018 05 08 20:00 262.1 0.0 0.00 73.8 23.2 42.61 10.4
2018 05 08 21:00 262.1 0.0 0.00 72.7 22.6 44.63 11.6
2018 05 08 22:00 262.5 0.0 0.00 72.3 22.4 46.64 13.0
2018 05 08 23:00 263.0 0.0 0.00 71.4 21.9 49.91 12.3
2018 05 08 24:00 Wet 305.5 0.0 1.02 70.0 21.1 60.08 14.8
2018 05 09 1:00 Wet 447.8 0.4 9.40 61.8 16.5 97 12.7
2018 05 09 2:00 Wet 466.6 0.7 16.76 61.7 16.5 95.4 9.6
2018 05 09 3:00 Wet 302.2 0.0 0.76 61.0 16.1 94.1 4.8
2018 05 09 4:00 Wet 284.8 0.0 0.00 60.2 15.7 92.9 6.0
2018 05 09 5:00 281.7 0.0 0.00 60.4 15.8 93.6 7.2
2018 05 09 6:00 275.5 0.0 0.00 61.1 16.1 92.5 8.6
2018 05 09 7:00 267.5 0.0 0.00 64.0 17.8 86.8 8.4
2018 05 09 8:00 266.5 0.0 0.00 68.2 20.1 80.8 10.1
2018 05 09 9:00 266.2 0.0 0.00 71.1 21.7 76.81 10.5
2018 05 09 10:00 Wet 299.2 0.0 0.00 74.1 23.4 71.81 10.3
2018 05 09 11:00 267.1 0.0 0.00 77.0 25.0 62.38 11.2
2018 05 09 12:00 265.1 0.0 0.00 77.6 25.3 55.76 14.0
2018 05 09 13:00 264.7 0.0 0.00 77.1 25.0 55.81 14.1
2018 05 09 14:00 263.9 0.0 0.00 77.5 25.3 53.01 14.7
2018 05 09 15:00 263.4 0.0 0.00 77.7 25.4 51.36 14.1
2018 05 09 16:00 263.4 0.0 0.00 77.6 25.3 50.44 13.3
2018 05 09 17:00 263.4 0.0 0.00 77.0 25.0 50.89 13.2
2018 05 09 18:00 263.4 0.0 0.00 76.0 24.4 52.6 11.0
2018 05 09 19:00 265.1 0.0 0.00 71.9 22.2 60.78 7.3
2018 05 09 20:00 265.7 0.0 0.00 67.4 19.7 67.84 5.8
2018 05 09 21:00 264.7 0.0 0.00 65.8 18.8 72.48 2.9
2018 05 09 22:00 265.7 0.0 0.00 63.3 17.4 74.99 2.1
2018 05 09 23:00 261.2 0.0 0.00 62.9 17.2 78.72 0.1
2018 05 09 24:00 258.5 0.0 0.00 61.6 16.4 80.5 0.7
2018 05 10 1:00 258.5 0.0 0.00 60.2 15.6 82.2 2.9
2018 05 10 2:00 Wet 302.4 0.0 0.00 57.7 14.3 90.9 0.4
2018 05 10 3:00 Wet 356.1 0.0 0.00 55.2 12.9 94.2 2.2
2018 05 10 4:00 Wet 361.7 0.0 0.00 55.9 13.3 91.1 2.0
2018 05 10 5:00 Wet 355.0 0.0 0.00 55.7 13.1 89.5 1.8
2018 05 10 6:00 Wet 327.6 0.0 0.00 56.3 13.5 89.1 2.3
2018 05 10 7:00 Wet 284.7 0.0 0.00 61.3 16.3 84.5 2.3
2018 05 10 8:00 267.7 0.0 0.00 66.4 19.1 75.22 4.0
2018 05 10 9:00 266.2 0.0 0.00 71.7 22.1 62.86 3.2
2018 05 10 10:00 266.0 0.0 0.00 75.4 24.1 53.04 1.7
2018 05 10 11:00 264.0 0.0 0.00 77.6 25.3 48.15 2.4
2018 05 10 12:00 262.5 0.0 0.00 79.3 26.3 46.28 2.6
2018 05 10 13:00 261.3 0.0 0.00 80.1 26.7 44.38 3.1
2018 05 10 14:00 260.7 0.0 0.00 81.0 27.2 43.05 3.5
2018 05 10 15:00 260.0 0.0 0.00 82.3 27.9 40.21 2.2
2018 05 10 16:00 259.6 0.0 0.00 83.6 28.6 39.32 1.8
2018 05 10 17:00 259.4 0.0 0.00 83.3 28.5 39.59 1.8
2018 05 10 18:00 261.0 0.0 0.00 81.1 27.3 45.77 4.3
2018 05 10 19:00 264.1 0.0 0.00 77.0 25.0 60.54 3.7
2018 05 10 20:00 265.5 0.0 0.00 74.0 23.4 60.42 3.2
2018 05 10 21:00 266.2 0.0 0.00 71.4 21.9 62.87 4.6
2018 05 10 22:00 266.2 0.0 0.00 69.8 21.0 64.78 4.8
2018 05 10 23:00 266.6 0.0 0.00 67.2 19.6 71.38 4.2
2018 05 10 24:00 267.0 0.0 0.00 66.8 19.3 70.86 4.6
2018 05 11 1:00 267.0 0.0 0.00 64.8 18.2 76.02 3.6
2018 05 11 2:00 267.4 0.0 0.00 63.1 17.3 80.7 2.9
2018 05 11 3:00 265.4 0.0 0.00 61.1 16.2 86.1 2.2
2018 05 11 4:00 267.1 0.0 0.00 60.9 16.1 88.3 4.1
2018 05 11 5:00 272.0 0.0 0.00 63.0 17.2 85.2 6.2
2018 05 11 6:00 270.4 0.0 0.00 62.5 16.9 86.1 5.3
2018 05 11 7:00 269.2 0.0 0.00 64.3 17.9 82 6.0
2018 05 11 8:00 268.0 0.0 0.00 67.1 19.5 75.95 8.2
2018 05 11 9:00 268.9 0.0 0.00 68.3 20.2 73.02 7.1
2018 05 11 10:00 283.7 0.0 0.00 67.2 19.6 77.43 13.0
2018 05 11 11:00 265.9 0.0 0.00 70.2 21.2 72.97 6.9
2018 05 11 12:00 265.3 0.0 0.00 72.9 22.7 68.41 9.5
2018 05 11 13:00 264.6 0.0 0.00 75.5 24.2 65.28 11.1
2018 05 11 14:00 264.1 0.0 0.00 77.4 25.2 62.56 9.5
2018 05 11 15:00 263.8 0.0 0.00 79.4 26.4 57.97 11.1
2018 05 11 16:00 263.1 0.0 0.00 81.4 27.4 50.23 12.5
2018 05 11 17:00 263.2 0.0 0.00 80.9 27.2 50.12 9.8
2018 05 11 18:00 263.1 0.0 0.00 81.2 27.4 49.84 6.4
2018 05 11 19:00 263.6 0.0 0.00 79.1 26.2 51.85 3.2
2018 05 11 20:00 265.1 0.0 0.00 73.3 23.0 65.47 4.0
2018 05 11 21:00 266.1 0.0 0.00 69.1 20.6 78.61 4.8
2018 05 11 22:00 266.2 0.0 0.00 68.0 20.0 78.16 5.3
2018 05 11 23:00 267.0 0.0 0.00 65.8 18.8 82.9 3.6
2018 05 11 24:00 267.7 0.0 0.00 64.3 18.0 82.1 3.6
2018 05 12 1:00 267.7 0.0 0.00 62.4 16.9 82.6 2.4
2018 05 12 2:00 268.7 0.0 0.00 60.1 15.6 86.9 2.9
2018 05 12 3:00 268.4 0.0 0.00 58.9 15.0 86.1 5.2
2018 05 12 4:00 268.5 0.0 0.00 57.4 14.1 86.7 5.0
2018 05 12 5:00 268.5 0.0 0.00 56.0 13.4 86.6 6.3
2018 05 12 6:00 268.4 0.0 0.00 54.7 12.6 88.4 6.2
2018 05 12 7:00 267.6 0.0 0.00 55.5 13.0 85.4 7.2
2018 05 12 8:00 267.8 0.0 0.00 56.6 13.7 83.5 5.6
2018 05 12 9:00 Wet 290.2 0.0 1.02 55.6 13.1 84.5 6.0
2018 05 12 10:00 Wet 302.7 0.1 1.52 54.0 12.2 93.1 8.5
2018 05 12 11:00 270.0 0.0 0.00 55.1 12.8 90.4 9.4
2018 05 12 12:00 266.9 0.0 0.00 58.5 14.7 88 11.0
2018 05 12 13:00 265.7 0.0 0.00 63.9 17.7 83.1 9.9
2018 05 12 14:00 265.0 0.0 0.00 70.1 21.2 76.84 9.7
2018 05 12 15:00 264.2 0.0 0.00 75.5 24.2 69.99 8.8
2018 05 12 16:00 264.0 0.0 0.00 78.2 25.6 65.81 7.1
2018 05 12 17:00 264.4 0.0 0.00 78.5 25.9 66.72 6.4
2018 05 12 18:00 265.4 0.0 0.00 76.1 24.5 71.67 8.7
2018 05 12 19:00 266.2 0.0 0.00 70.8 21.5 77.81 8.4
2018 05 12 20:00 267.0 0.0 0.00 64.2 17.9 85.5 9.6
2018 05 12 21:00 267.7 0.0 0.00 61.5 16.4 89.6 9.7
2018 05 12 22:00 268.1 0.0 0.00 60.4 15.8 90.7 7.6
2018 05 12 23:00 268.4 0.0 0.00 60.1 15.6 91.2 5.6
2018 05 12 24:00 268.9 0.0 0.00 59.6 15.3 92.5 3.9
2018 05 13 1:00 269.1 0.0 0.00 58.5 14.7 95.1 2.8
2018 05 13 2:00 275.6 0.0 0.00 57.8 14.3 97 2.9
2018 05 13 3:00 269.5 0.0 0.00 57.9 14.4 96.8 3.9
2018 05 13 4:00 271.4 0.0 0.00 57.1 14.0 97.5 3.4
2018 05 13 5:00 278.6 0.0 0.00 56.3 13.5 98.4 3.6
2018 05 13 6:00 Wet 288.2 0.0 0.00 56.2 13.4 98.8 2.3
2018 05 13 7:00 269.6 0.0 0.00 58.8 14.9 95.1 3.1
2018 05 13 8:00 267.7 0.0 0.00 66.2 19.0 85.7 3.5
2018 05 13 9:00 267.4 0.0 0.00 73.7 23.2 78.35 5.9
2018 05 13 10:00 266.4 0.0 0.00 77.6 25.4 71.16 9.0
2018 05 13 11:00 265.6 0.0 0.00 80.2 26.8 67.35 7.7
2018 05 13 12:00 264.5 0.0 0.00 82.7 28.1 63.45 6.7
2018 05 13 13:00 263.8 0.0 0.00 83.3 28.5 61.88 5.9
2018 05 13 14:00 264.3 0.0 0.00 81.3 27.4 64.45 7.0
2018 05 13 15:00 264.0 0.0 0.00 76.6 24.8 69.71 10.7
2018 05 13 16:00 263.8 0.0 0.00 77.5 25.3 67.12 10.6
2018 05 13 17:00 264.0 0.0 0.00 78.1 25.6 66.14 11.2
2018 05 13 18:00 264.1 0.0 0.00 78.2 25.6 66.66 8.7
2018 05 13 19:00 265.3 0.0 0.00 75.3 24.1 72.56 5.3
2018 05 13 20:00 266.9 0.0 0.00 71.9 22.1 79.5 4.2
2018 05 13 21:00 268.6 0.0 0.00 70.2 21.2 82.9 2.8
2018 05 13 22:00 268.9 0.0 0.00 69.4 20.8 85.9 1.2
2018 05 13 23:00 269.3 0.0 0.00 69.7 20.9 85.1 2.4
2018 05 13 24:00 268.4 0.0 0.00 71.0 21.7 80.1 5.0
2018 05 14 1:00 268.3 0.0 0.00 71.3 21.8 79.07 6.1
2018 05 14 2:00 267.6 0.0 0.00 72.2 22.4 76.19 7.9
2018 05 14 3:00 267.7 0.0 0.00 71.1 21.7 78.49 7.2
2018 05 14 4:00 268.3 0.0 0.00 69.2 20.6 82.8 6.0
2018 05 14 5:00 268.8 0.0 0.00 68.2 20.1 85.2 5.6
2018 05 14 6:00 268.8 0.0 0.00 68.1 20.0 86.3 5.3
2018 05 14 7:00 268.3 0.0 0.00 69.7 20.9 83.4 5.0
2018 05 14 8:00 267.2 0.0 0.00 73.3 23.0 76.75 6.3
2018 05 14 9:00 266.7 0.0 0.00 76.7 24.9 70.81 9.4
2018 05 14 10:00 266.1 0.0 0.00 75.9 24.4 72.68 9.0
2018 05 14 11:00 265.9 0.0 0.00 77.6 25.3 71.71 9.0
2018 05 14 12:00 265.1 0.0 0.00 80.6 27.0 65.94 8.5
2018 05 14 13:00 265.5 0.0 0.00 82.8 28.2 63.62 8.5
2018 05 14 14:00 Wet 299.5 0.0 0.00 83.5 28.6 62.1 6.5
2018 05 14 15:00 Wet 292.0 0.0 0.00 79.7 26.5 66.99 5.7
2018 05 14 16:00 Wet 378.2 0.0 0.51 71.1 21.7 83.8 12.0
2018 05 14 17:00 Wet 306.1 0.0 0.00 69.2 20.7 80.1 8.8
2018 05 14 18:00 277.5 0.0 0.00 68.0 20.0 82.7 10.5
2018 05 14 19:00 269.2 0.0 0.00 67.6 19.8 82.5 8.4
2018 05 14 20:00 269.0 0.0 0.00 67.7 19.8 81.4 7.0
2018 05 14 21:00 269.7 0.0 0.00 66.6 19.2 84.9 3.5
2018 05 14 22:00 271.4 0.0 0.00 64.8 18.2 90.6 3.0
2018 05 14 23:00 271.3 0.0 0.00 64.5 18.1 91.9 4.2
2018 05 14 24:00 272.8 0.0 0.00 64.7 18.2 92.4 4.4
2018 05 15 1:00 Wet 348.2 0.0 0.25 64.4 18.0 94.8 4.7
2018 05 15 2:00 Wet 295.4 0.0 0.00 65.7 18.7 91.6 6.8
2018 05 15 3:00 282.4 0.0 0.00 65.3 18.5 93.5 5.7
2018 05 15 4:00 278.4 0.0 0.00 65.3 18.5 93.5 5.9
2018 05 15 5:00 Wet 286.6 0.0 0.00 64.8 18.3 93.8 3.0
2018 05 15 6:00 279.2 0.0 0.00 65.1 18.4 92.9 3.8
2018 05 15 7:00 274.3 0.0 0.00 66.1 18.9 94.7 4.2
2018 05 15 8:00 271.0 0.0 0.00 67.1 19.5 92.4 4.5
2018 05 15 9:00 269.7 0.0 0.00 68.0 20.0 89.8 4.2
2018 05 15 10:00 268.0 0.0 0.00 70.1 21.1 83.4 3.6
2018 05 15 11:00 266.9 0.0 0.00 72.9 22.7 76.77 3.6
2018 05 15 12:00 265.5 0.0 0.00 75.1 24.0 67.93 1.7
2018 05 15 13:00 264.3 0.0 0.00 76.7 24.9 67.84 3.1
2018 05 15 14:00 265.3 0.0 0.00 76.2 24.6 66.3 5.5
2018 05 15 15:00 Wet 295.9 0.0 0.25 75.1 23.9 72.8 5.7
2018 05 15 16:00 Wet 307.4 0.0 0.25 70.3 21.3 86.9 8.3
2018 05 15 17:00 Wet 286.6 0.0 0.25 65.5 18.6 85.2 12.6
2018 05 15 18:00 270.8 0.0 0.00 67.3 19.6 92.8 4.7
2018 05 15 19:00 270.3 0.0 0.00 68.8 20.4 92.1 4.8
2018 05 15 20:00 271.2 0.0 0.00 67.5 19.7 93.7 2.8
2018 05 15 21:00 275.4 0.0 0.00 65.3 18.5 94.5 4.6
2018 05 15 22:00 Wet 300.9 0.0 0.00 63.4 17.4 97.6 3.4
2018 05 15 23:00 Wet 336.3 0.0 0.00 63.0 17.2 98.2 3.3
2018 05 15 24:00 Wet 358.8 0.0 0.00 62.3 16.8 99.6 2.7
2018 05 16 1:00 Wet 364.9 0.0 0.00 62.2 16.8 99.9 1.6
2018 05 16 2:00 Wet 350.2 0.0 0.00 61.0 16.1 99.9 3.4
2018 05 16 3:00 Wet 342.4 0.0 0.00 60.8 16.0 99.9 4.2
2018 05 16 4:00 Wet 323.6 0.0 0.00 61.1 16.2 99.6 3.7
2018 05 16 5:00 Wet 308.6 0.0 0.00 61.0 16.1 96.9 3.0
2018 05 16 6:00 Wet 309.2 0.0 0.00 60.6 15.9 96 2.6
2018 05 16 7:00 Wet 291.6 0.0 0.00 62.3 16.8 91.2 5.5
2018 05 16 8:00 271.8 0.0 0.00 64.0 17.8 86 7.4
2018 05 16 9:00 268.7 0.0 0.00 67.3 19.6 78.85 6.3
2018 05 16 10:00 268.2 0.0 0.00 69.8 21.0 75.73 6.9
2018 05 16 11:00 266.7 0.0 0.00 72.1 22.3 71.04 6.5
2018 05 16 12:00 265.5 0.0 0.00 74.4 23.6 63.18 7.1
2018 05 16 13:00 264.2 0.0 0.00 76.4 24.7 55.08 8.5
2018 05 16 14:00 263.3 0.0 0.00 77.8 25.4 50.87 7.4
2018 05 16 15:00 262.4 0.0 0.00 79.0 26.1 45.27 8.0
2018 05 16 16:00 261.9 0.0 0.00 79.8 26.5 41.96 7.5
2018 05 16 17:00 261.9 0.0 0.00 79.4 26.3 42.38 5.8
2018 05 16 18:00 263.2 0.0 0.00 77.8 25.4 46.91 4.5
2018 05 16 19:00 264.0 0.0 0.00 74.3 23.5 52.14 4.4
2018 05 16 20:00 265.1 0.0 0.00 70.5 21.4 56.67 3.9
2018 05 16 21:00 265.6 0.0 0.00 68.9 20.5 56.06 1.5
2018 05 16 22:00 266.4 0.0 0.00 66.2 19.0 61.82 0.3
2018 05 16 23:00 266.8 0.0 0.00 64.6 18.1 65.04 2.5
2018 05 16 24:00 267.0 0.0 0.00 63.4 17.5 68.61 2.5
2018 05 17 1:00 267.2 0.0 0.00 62.6 17.0 70.74 3.0
2018 05 17 2:00 267.8 0.0 0.00 61.1 16.2 74.07 3.2
2018 05 17 3:00 267.6 0.0 0.00 61.5 16.4 72.11 4.3
2018 05 17 4:00 267.5 0.0 0.00 60.8 16.0 73.25 4.3
2018 05 17 5:00 267.8 0.0 0.00 60.1 15.6 74.98 3.4
2018 05 17 6:00 267.8 0.0 0.00 60.2 15.7 77.53 3.2
2018 05 17 7:00 267.2 0.0 0.00 62.2 16.8 77.67 4.7
2018 05 17 8:00 266.7 0.0 0.00 66.8 19.3 72.77 7.5
2018 05 17 9:00 266.2 0.0 0.00 71.0 21.6 70.01 7.7
2018 05 17 10:00 266.1 0.0 0.00 75.0 23.9 67.73 8.9
2018 05 17 11:00 265.4 0.0 0.00 76.5 24.7 60.54 11.2
2018 05 17 12:00 263.6 0.0 0.00 78.1 25.6 46.56 10.7
2018 05 17 13:00 262.7 0.0 0.00 79.1 26.2 42.06 9.4
2018 05 17 14:00 261.5 0.0 0.25 79.9 26.6 30.63 10.3
2018 05 17 15:00 261.6 0.0 0.00 79.8 26.6 39.19 9.2
2018 05 17 16:00 262.1 0.0 0.00 79.8 26.6 42.52 7.8
2018 05 17 17:00 262.0 0.0 0.00 79.3 26.3 39.71 6.6
2018 05 17 18:00 263.1 0.0 0.00 77.3 25.2 46.92 5.3
2018 05 17 19:00 264.6 0.0 0.00 74.9 23.8 59.41 1.7
2018 05 17 20:00 265.8 0.0 0.00 71.8 22.1 63.35 2.0
2018 05 17 21:00 268.0 0.0 0.00 67.6 19.8 74.03 1.0
2018 05 17 22:00 268.0 0.0 0.00 66.3 19.1 72.04 3.7
2018 05 17 23:00 267.1 0.0 0.00 65.5 18.6 68.52 5.5
2018 05 17 24:00 266.4 0.0 0.00 66.8 19.3 61.55 7.0
2018 05 18 1:00 266.3 0.0 0.00 66.0 18.9 61.32 7.3
2018 05 18 2:00 266.2 0.0 0.00 65.1 18.4 62.13 6.8
2018 05 18 3:00 266.4 0.0 0.00 62.8 17.1 66.95 4.3
2018 05 18 4:00 266.4 0.0 0.00 61.8 16.6 69.35 4.8
2018 05 18 5:00 266.8 0.0 0.00 60.7 15.9 69.93 4.8
2018 05 18 6:00 267.1 0.0 0.00 59.3 15.2 74.14 4.7
2018 05 18 7:00 267.0 0.0 0.00 60.3 15.7 73.67 5.8
2018 05 18 8:00 266.4 0.0 0.00 63.4 17.4 68.96 7.1
2018 05 18 9:00 266.3 0.0 0.00 65.1 18.4 67.57 6.6
2018 05 18 10:00 265.7 0.0 0.00 66.8 19.4 66.63 6.9
2018 05 18 11:00 265.1 0.0 0.00 69.6 20.9 64.56 6.7
2018 05 18 12:00 264.4 0.0 0.00 72.3 22.4 62.88 4.0
2018 05 18 13:00 280.3 0.1 1.27 67.2 19.6 79.65 7.4
2018 05 18 14:00 278.5 0.0 0.00 66.0 18.9 86.3 4.7
2018 05 18 15:00 Wet 321.7 0.0 0.51 66.1 18.9 87.2 3.9
2018 05 18 16:00 Wet 291.1 0.0 0.25 66.7 19.3 87.3 8.4
2018 05 18 17:00 267.7 0.0 0.00 68.1 20.1 84 7.2
2018 05 18 18:00 268.2 0.0 0.00 67.1 19.5 85.4 6.8
2018 05 18 19:00 268.8 0.0 0.00 65.8 18.8 87 3.5
2018 05 18 20:00 276.2 0.0 0.00 63.8 17.7 92.6 1.0
2018 05 18 21:00 Wet 314.5 0.0 0.00 62.0 16.7 97.5 0.3
2018 05 18 22:00 Wet 354.0 0.0 0.00 60.5 15.9 98.7 0.0
2018 05 18 23:00 Wet 347.4 0.0 0.00 58.7 14.9 99.7 1.5
2018 05 18 24:00 Wet 348.0 0.0 0.00 58.9 14.9 99.9 1.1
2018 05 19 1:00 Wet 343.4 0.0 0.00 58.6 14.8 99.9 2.3
2018 05 19 2:00 Wet 342.9 0.0 0.00 58.0 14.5 99.9 2.1
2018 05 19 3:00 Wet 346.0 0.0 0.00 57.5 14.2 99.9 1.7
2018 05 19 4:00 Wet 343.7 0.0 0.00 56.2 13.4 99.9 0.6
2018 05 19 5:00 Wet 342.8 0.0 0.00 55.1 12.8 99.9 0.2
2018 05 19 6:00 Wet 326.1 0.0 0.00 56.6 13.7 99.9 0.6
2018 05 19 7:00 Wet 301.6 0.0 0.25 60.5 15.8 99.9 1.5
2018 05 19 8:00 275.8 0.0 0.00 64.9 18.3 99.9 1.5
2018 05 19 9:00 268.2 0.0 0.00 68.5 20.3 89.9 5.7
2018 05 19 10:00 268.3 0.0 0.00 68.9 20.5 88.1 6.5
2018 05 19 11:00 268.4 0.0 0.00 69.6 20.9 88.6 8.2
2018 05 19 12:00 267.7 0.0 0.00 71.7 22.1 84 7.5
2018 05 19 13:00 266.8 0.0 0.00 74.7 23.7 77.91 12.3
2018 05 19 14:00 Wet 296.8 0.0 0.00 75.8 24.3 72 9.2
2018 05 19 15:00 264.9 0.0 0.00 75.7 24.3 72.86 8.5
2018 05 19 16:00 265.8 0.0 0.00 76.2 24.6 72.63 6.6
2018 05 19 17:00 265.8 0.0 0.00 77.9 25.5 60.6 8.0
2018 05 19 18:00 265.4 0.0 0.00 77.2 25.1 55.92 8.4
2018 05 19 19:00 266.6 0.0 0.00 75.0 23.9 60.26 6.8
2018 05 19 20:00 266.5 0.0 0.00 72.4 22.4 65.63 5.0
2018 05 19 21:00 266.8 0.0 0.00 72.1 22.3 67.6 6.9
2018 05 19 22:00 263.2 0.0 0.00 69.3 20.7 76 4.0
2018 05 19 23:00 266.8 0.0 0.00 67.1 19.5 81.3 0.6
2018 05 19 24:00 Wet 306.9 0.0 0.00 63.1 17.3 91.8 3.1
2018 05 20 1:00 272.3 0.0 0.00 65.6 18.7 88.8 6.5
2018 05 20 2:00 253.3 0.0 0.00 64.2 17.9 91.5 5.2
2018 05 20 3:00 258.3 0.0 0.00 63.5 17.5 92.9 4.6
2018 05 20 4:00 268.0 0.0 0.00 64.4 18.0 90.3 7.0
2018 05 20 5:00 269.3 0.0 0.00 64.4 18.0 87.3 5.6
2018 05 20 6:00 265.1 0.0 0.00 63.6 17.5 90.4 4.2
2018 05 20 7:00 269.2 0.0 0.00 64.5 18.0 90.2 2.3
2018 05 20 8:00 270.4 0.0 0.00 66.7 19.3 85.9 3.2
2018 05 20 9:00 270.1 0.0 0.00 69.0 20.5 80 6.5
2018 05 20 10:00 275.4 0.0 0.00 68.7 20.4 79.83 8.7
2018 05 20 11:00 Wet 328.0 0.0 0.76 66.9 19.4 86 9.4
2018 05 20 12:00 280.7 0.0 0.00 67.5 19.7 85.8 6.9
2018 05 20 13:00 267.9 0.0 0.00 69.6 20.9 82 7.3
2018 05 20 14:00 266.8 0.0 0.00 71.9 22.1 76.52 5.7
2018 05 20 15:00 265.8 0.0 0.00 72.7 22.6 69.98 4.2
2018 05 20 16:00 264.7 0.0 0.00 73.7 23.1 63.69 4.8
2018 05 20 17:00 265.0 0.0 0.00 73.5 23.1 67.02 5.2
2018 05 20 18:00 265.4 0.0 0.00 73.1 22.8 69.08 6.0
2018 05 20 19:00 266.7 0.0 0.00 71.2 21.8 74.48 5.4
2018 05 20 20:00 268.1 0.0 0.00 68.9 20.5 81.1 3.5
2018 05 20 21:00 Wet 341.6 0.0 0.76 67.7 19.8 87.4 4.4
2018 05 20 22:00 Wet 334.9 0.1 1.52 66.2 19.0 95.3 7.1
2018 05 20 23:00 Wet 303.6 0.0 0.00 64.9 18.3 93.9 9.1
2018 05 20 24:00 Wet 293.5 0.0 0.00 63.8 17.6 97.6 4.9
2018 05 21 1:00 Wet 293.4 0.0 0.00 63.5 17.5 98.8 3.6
2018 05 21 2:00 Wet 303.3 0.0 0.00 63.4 17.5 99.1 0.9
2018 05 21 3:00 Wet 331.4 0.0 0.25 63.8 17.6 98.7 2.4
2018 05 21 4:00 Wet 316.9 0.0 0.00 63.9 17.7 98.1 3.4
2018 05 21 5:00 Wet 303.9 0.0 0.00 63.8 17.7 98.2 3.7
2018 05 21 6:00 Wet 295.6 0.0 0.00 63.8 17.6 97.7 5.8
2018 05 21 7:00 Wet 300.4 0.0 0.00 64.3 18.0 99.1 6.0
2018 05 21 8:00 272.5 0.0 0.00 65.7 18.7 95.4 6.2
2018 05 21 9:00 270.1 0.0 0.00 67.1 19.5 91.7 6.6
2018 05 21 10:00 268.5 0.0 0.00 70.6 21.4 82.3 7.5
2018 05 21 11:00 267.3 0.0 0.00 72.7 22.6 76.34 8.6
2018 05 21 12:00 266.7 0.0 0.00 72.6 22.6 73.8 10.1
2018 05 21 13:00 266.1 0.0 0.00 72.9 22.7 71.33 10.2
2018 05 21 14:00 265.5 0.0 0.00 74.2 23.4 68.43 9.0
2018 05 21 15:00 265.6 0.0 0.00 74.2 23.4 65.75 7.8
2018 05 21 16:00 264.8 0.0 0.00 74.7 23.7 64.92 8.0
2018 05 21 17:00 265.6 0.0 0.00 73.4 23.0 67.24 7.0
2018 05 21 18:00 265.6 0.0 0.00 72.7 22.6 67.96 5.4
2018 05 21 19:00 266.6 0.0 0.00 71.0 21.7 70.45 3.6
2018 05 21 20:00 268.3 0.0 0.00 68.6 20.4 74.29 2.4
2018 05 21 21:00 269.5 0.0 0.00 65.2 18.4 83 4.2
2018 05 21 22:00 272.1 0.0 0.00 63.1 17.3 89.8 3.0
2018 05 21 23:00 Wet 302.1 0.0 0.00 61.3 16.3 92.8 0.7
2018 05 21 24:00 Wet 345.3 0.0 0.00 61.0 16.1 93.7 0.1
2018 05 22 1:00 Wet 368.8 0.0 0.00 59.0 15.0 96.9 2.0
2018 05 22 2:00 Wet 371.7 0.0 0.00 58.7 14.8 98.1 1.5
2018 05 22 3:00 Wet 358.8 0.0 0.00 57.8 14.3 98.7 1.9
2018 05 22 4:00 Wet 353.6 0.0 0.00 57.3 14.1 99.3 1.6
2018 05 22 5:00 Wet 353.5 0.0 0.00 55.8 13.2 99.9 0.0
2018 05 22 6:00 Wet 328.2 0.0 0.00 56.3 13.5 99.9 1.4
2018 05 22 7:00 Wet 285.8 0.0 0.00 60.7 15.9 99 1.2
2018 05 22 8:00 268.8 0.0 0.00 66.2 19.0 87 2.1
2018 05 22 9:00 267.3 0.0 0.00 70.7 21.5 70.07 1.2
2018 05 22 10:00 266.5 0.0 0.00 73.9 23.3 64.57 2.0
2018 05 22 11:00 265.4 0.0 0.00 75.5 24.1 62.51 4.0
2018 05 22 12:00 263.8 0.0 0.00 77.6 25.4 56.71 3.2
2018 05 22 13:00 262.9 0.0 0.00 78.9 26.1 53.87 3.2
2018 05 22 14:00 262.0 0.0 0.00 80.3 26.8 52.83 4.7
2018 05 22 15:00 261.5 0.0 0.00 81.2 27.3 49.59 3.0
2018 05 22 16:00 261.1 0.0 0.00 82.0 27.8 49.07 4.0
2018 05 22 17:00 261.4 0.0 0.00 81.9 27.7 49.3 5.2
2018 05 22 18:00 262.0 0.0 0.00 80.6 27.0 50.69 5.5
2018 05 22 19:00 263.6 0.0 0.00 77.8 25.5 56.76 4.2
2018 05 22 20:00 265.6 0.0 0.00 73.8 23.2 64.39 3.6
2018 05 22 21:00 267.6 0.0 0.00 70.6 21.4 72.66 2.1
2018 05 22 22:00 268.9 0.0 0.00 68.9 20.5 77.1 2.3
2018 05 22 23:00 276.7 0.0 0.00 67.8 19.9 82.5 0.0
2018 05 22 24:00 Wet 306.1 0.0 0.00 66.5 19.2 88.7 0.0
2018 05 23 1:00 Wet 324.0 0.0 0.00 64.5 18.1 87.4 1.3
2018 05 23 2:00 Wet 332.3 0.0 0.00 64.1 17.8 87.7 1.8
2018 05 23 3:00 Wet 328.9 0.0 0.00 61.8 16.5 93.8 1.9
2018 05 23 4:00 Wet 341.4 0.0 0.00 62.1 16.7 94.1 3.2
2018 05 23 5:00 Wet 351.2 0.0 0.00 61.4 16.3 95.4 3.0
2018 05 23 6:00 Wet 333.6 0.0 0.00 62.9 17.1 94.1 3.0
2018 05 23 7:00 278.2 0.0 0.00 66.5 19.2 85.7 6.0
2018 05 23 8:00 267.7 0.0 0.00 71.1 21.7 73.59 7.4
2018 05 23 9:00 266.9 0.0 0.00 74.7 23.7 67.81 7.1
2018 05 23 10:00 266.3 0.0 0.00 77.6 25.4 64.08 7.2
2018 05 23 11:00 265.4 0.0 0.00 79.9 26.6 61.27 7.0
2018 05 23 12:00 264.2 0.0 0.00 81.5 27.5 58.58 6.3
2018 05 23 13:00 283.4 0.0 0.00 82.3 27.9 56.83 6.6
2018 05 23 14:00 263.3 0.0 0.00 83.3 28.5 53.66 7.3
2018 05 23 15:00 262.5 0.0 0.00 84.1 28.9 51.15 7.0
2018 05 23 16:00 262.0 0.0 0.00 84.2 29.0 50.77 7.8
2018 05 23 17:00 262.6 0.0 0.00 83.6 28.6 51.35 7.6
2018 05 23 18:00 263.2 0.0 0.00 82.3 27.9 53.71 8.0
2018 05 23 19:00 264.2 0.0 0.00 79.8 26.6 58.73 7.5
2018 05 23 20:00 265.8 0.0 0.00 75.7 24.3 65.4 4.8
2018 05 23 21:00 266.6 0.0 0.00 72.6 22.5 72 4.2
2018 05 23 22:00 266.9 0.0 0.00 71.1 21.7 76.63 4.3
2018 05 23 23:00 266.8 0.0 0.00 70.1 21.2 79.67 3.9
2018 05 23 24:00 266.2 0.0 0.00 69.6 20.9 80.3 1.4
2018 05 24 1:00 Wet 285.7 0.0 0.00 67.3 19.6 87.8 0.4
2018 05 24 2:00 Wet 307.7 0.0 0.00 66.8 19.4 87.6 1.3
2018 05 24 3:00 Wet 312.5 0.0 0.00 66.4 19.1 89.3 1.6
2018 05 24 4:00 Wet 323.7 0.0 0.00 64.8 18.2 92.2 1.9
2018 05 24 5:00 Wet 352.2 0.0 0.00 63.1 17.3 96.7 2.1
2018 05 24 6:00 Wet 343.8 0.0 0.00 63.9 17.7 96.2 0.6
2018 05 24 7:00 Wet 296.0 0.0 0.00 68.5 20.3 91 1.2
2018 05 24 8:00 268.9 0.0 0.00 74.1 23.4 77.79 2.6
2018 05 24 9:00 267.2 0.0 0.00 78.4 25.8 64.58 5.7
2018 05 24 10:00 266.7 0.0 0.00 80.9 27.2 63.86 7.1
2018 05 24 11:00 266.0 0.0 0.00 82.0 27.8 62.38 8.7
2018 05 24 12:00 265.0 0.0 0.00 83.1 28.4 58.44 8.5
2018 05 24 13:00 264.1 0.0 0.00 84.4 29.1 54.5 8.4
2018 05 24 14:00 263.4 0.0 0.00 84.8 29.3 53.05 8.1
2018 05 24 15:00 263.2 0.0 0.00 85.4 29.7 52.4 7.9
2018 05 24 16:00 263.0 0.0 0.00 85.3 29.6 50.93 7.9
2018 05 24 17:00 263.1 0.0 0.00 84.4 29.1 51 8.0
2018 05 24 18:00 263.2 0.0 0.00 83.8 28.8 51.76 8.0
2018 05 24 19:00 264.0 0.0 0.00 81.5 27.5 54.81 6.6
2018 05 24 20:00 266.0 0.0 0.00 76.9 24.9 63.19 4.0
2018 05 24 21:00 268.3 0.0 0.00 73.2 22.9 72.13 2.6
2018 05 24 22:00 269.7 0.0 0.00 70.6 21.5 78.98 2.8
2018 05 24 23:00 269.4 0.0 0.00 70.5 21.4 79.48 2.2
2018 05 24 24:00 268.0 0.0 0.00 68.8 20.4 84.6 1.0
2018 05 25 1:00 269.9 0.0 0.00 68.3 20.2 87.4 0.8
2018 05 25 2:00 271.6 0.0 0.00 69.1 20.6 86.6 3.3
2018 05 25 3:00 270.5 0.0 0.00 69.8 21.0 84.7 5.5
2018 05 25 4:00 270.7 0.0 0.00 68.2 20.1 88 2.0
2018 05 25 5:00 271.4 0.0 0.00 66.2 19.0 92.7 2.2
2018 05 25 6:00 273.6 0.0 0.00 67.3 19.6 92.6 3.0
2018 05 25 7:00 270.5 0.0 0.00 70.4 21.3 84 4.8
2018 05 25 8:00 269.1 0.0 0.00 72.3 22.4 77.08 5.9
2018 05 25 9:00 267.6 0.0 0.00 74.6 23.6 74.28 8.1
2018 05 25 10:00 270.7 0.0 0.00 73.6 23.1 78.67 8.1
2018 05 25 11:00 Wet 302.0 0.0 0.00 71.9 22.2 86.9 6.3
2018 05 25 12:00 267.7 0.0 0.00 74.8 23.8 78.97 6.2
2018 05 25 13:00 266.7 0.0 0.00 76.3 24.6 72.58 7.3
2018 05 25 14:00 265.5 0.0 0.00 78.3 25.7 66.47 7.3
2018 05 25 15:00 263.8 0.0 0.00 80.4 26.9 60.74 6.8
2018 05 25 16:00 264.7 0.0 0.00 79.5 26.4 62.19 5.6
2018 05 25 17:00 263.3 0.0 0.00 81.3 27.4 59.2 4.5
2018 05 25 18:00 263.6 0.0 0.00 80.8 27.1 59.35 4.9
2018 05 25 19:00 264.9 0.0 0.00 79.0 26.1 64.58 2.3
2018 05 25 20:00 267.4 0.0 0.00 74.6 23.6 75.32 2.6
2018 05 25 21:00 267.4 0.0 0.00 71.2 21.8 82.5 2.1
2018 05 25 22:00 270.0 0.0 0.00 70.3 21.3 85 3.3
2018 05 25 23:00 270.3 0.0 0.00 69.4 20.8 86.5 3.9
2018 05 25 24:00 269.0 0.0 0.00 68.3 20.1 90.8 3.7
2018 05 26 1:00 267.2 0.0 0.00 68.0 20.0 92.8 3.7
2018 05 26 2:00 270.0 0.0 0.00 68.8 20.5 92.9 6.3
2018 05 26 3:00 271.2 0.0 0.00 68.1 20.0 93.8 3.3
2018 05 26 4:00 274.4 0.0 0.00 67.7 19.9 94.2 3.8
2018 05 26 5:00 Wet 290.8 0.0 0.00 66.7 19.3 96.3 5.1
2018 05 26 6:00 281.4 0.0 0.00 67.3 19.6 96.3 5.8
2018 05 26 7:00 270.1 0.0 0.00 70.1 21.2 91.3 8.4
2018 05 26 8:00 269.1 0.0 0.00 74.1 23.4 82.8 8.1
2018 05 26 9:00 268.3 0.0 0.00 77.1 25.0 76.4 9.5
2018 05 26 10:00 267.6 0.0 0.00 80.3 26.8 71.93 7.2
2018 05 26 11:00 266.7 0.0 0.00 83.1 28.4 68.14 6.2
2018 05 26 12:00 265.0 0.0 0.00 86.6 30.3 61.61 6.9
2018 05 26 13:00 263.9 0.0 0.00 88.3 31.3 58.15 7.1
2018 05 26 14:00 263.3 0.0 0.00 89.5 31.9 55.34 7.8
2018 05 26 15:00 262.6 0.0 0.00 90.8 32.7 51.82 6.7
2018 05 26 16:00 261.8 0.0 0.00 91.3 32.9 50.4 6.3
2018 05 26 17:00 262.3 0.0 0.00 90.0 32.2 50.69 5.9
2018 05 26 18:00 263.6 0.0 0.00 87.2 30.6 56.15 7.4
2018 05 26 19:00 263.9 0.0 0.00 86.0 30.0 59.44 6.2
2018 05 26 20:00 Wet 285.1 0.0 0.00 81.6 27.6 66.46 4.2
2018 05 26 21:00 279.6 0.0 0.00 76.8 24.9 74.95 3.4
2018 05 26 22:00 Wet 286.9 0.0 0.00 74.2 23.4 79.19 1.6
2018 05 26 23:00 Wet 288.2 0.0 0.00 72.9 22.7 85.6 2.6
2018 05 26 24:00 Wet 284.4 0.0 0.00 72.4 22.4 87.8 3.4
2018 05 27 1:00 282.8 0.0 0.00 72.1 22.3 90.2 3.6
2018 05 27 2:00 Wet 284.0 0.0 0.00 73.6 23.1 87.1 3.7
2018 05 27 3:00 Wet 290.7 0.0 0.00 70.8 21.6 93 3.2
2018 05 27 4:00 Wet 320.3 0.0 0.00 70.0 21.1 95 2.9
2018 05 27 5:00 Wet 348.8 0.0 0.00 69.0 20.5 96.3 3.4
2018 05 27 6:00 Wet 316.8 0.0 0.00 70.7 21.5 94 4.6
2018 05 27 7:00 270.5 0.0 0.00 74.8 23.8 86.9 5.9
2018 05 27 8:00 268.9 0.0 0.00 78.9 26.1 75.87 6.3
2018 05 27 9:00 268.0 0.0 0.00 82.6 28.1 67.05 6.6
2018 05 27 10:00 266.9 0.0 0.00 86.2 30.1 58.88 6.3
2018 05 27 11:00 265.7 0.0 0.00 88.4 31.3 54.84 6.7
2018 05 27 12:00 264.3 0.0 0.00 90.3 32.4 52.56 6.4
2018 05 27 13:00 263.2 0.0 0.00 91.4 33.0 48.86 5.7
2018 05 27 14:00 262.2 0.0 0.00 92.6 33.6 46.74 5.8
2018 05 27 15:00 261.6 0.0 0.00 93.2 34.0 46.15 5.7
2018 05 27 16:00 261.2 0.0 0.00 93.8 34.3 46.06 5.0
2018 05 27 17:00 263.0 0.0 0.00 90.8 32.6 50.53 3.9
2018 05 27 18:00 Wet 294.5 0.2 3.81 82.5 28.0 66.29 6.2
2018 05 27 19:00 Wet 294.7 0.0 0.25 75.4 24.1 90.4 2.7
2018 05 27 20:00 272.4 0.0 0.00 75.7 24.3 89.7 1.5
2018 05 27 21:00 270.5 0.0 0.00 74.8 23.8 89.6 0.9
2018 05 27 22:00 271.6 0.0 0.00 73.9 23.3 92.3 0.6
2018 05 27 23:00 Wet 286.8 0.0 0.00 73.6 23.1 95.2 0.3
2018 05 27 24:00 Wet 314.0 0.0 0.00 72.0 22.2 96.6 0.4
2018 05 28 1:00 Wet 323.4 0.0 0.00 71.8 22.1 94.9 0.3
2018 05 28 2:00 Wet 329.9 0.0 0.00 71.5 21.9 93.6 0.0
2018 05 28 3:00 Wet 331.3 0.0 0.00 70.9 21.6 93.9 0.1
2018 05 28 4:00 Wet 335.7 0.0 0.00 69.6 20.9 95.7 0.0
2018 05 28 5:00 Wet 338.1 0.0 0.00 69.8 21.0 94.9 0.0
2018 05 28 6:00 Wet 308.9 0.0 0.00 72.5 22.5 88.9 1.0
2018 05 28 7:00 269.2 0.0 0.00 77.3 25.1 81.9 2.8
2018 05 28 8:00 267.4 0.0 0.00 82.4 28.0 70.23 3.8
2018 05 28 9:00 266.6 0.0 0.00 85.5 29.7 62.61 4.9
2018 05 28 10:00 266.2 0.0 0.00 86.7 30.4 61.69 5.1
2018 05 28 11:00 265.3 0.0 0.00 89.1 31.7 57.74 6.5
2018 05 28 12:00 263.6 0.0 0.00 90.9 32.7 49.52 7.2
2018 05 28 13:00 262.6 0.0 0.00 92.1 33.4 40.38 8.7
2018 05 28 14:00 261.5 0.0 0.00 92.2 33.4 42.38 8.8
2018 05 28 15:00 261.6 0.0 0.00 91.8 33.2 43.9 10.0
2018 05 28 16:00 260.8 0.0 0.00 91.9 33.3 38.93 9.6
2018 05 28 17:00 260.8 0.0 0.00 91.0 32.8 38.32 9.1
2018 05 28 18:00 261.0 0.0 0.00 89.7 32.0 42.29 6.7
2018 05 28 19:00 263.1 0.0 0.00 84.6 29.2 51.64 5.3
2018 05 28 20:00 264.8 0.0 0.00 80.4 26.9 58.17 4.1
2018 05 28 21:00 267.9 0.0 0.00 76.8 24.9 66.23 0.3
2018 05 28 22:00 276.0 0.0 0.00 72.4 22.4 82.2 0.0
2018 05 28 23:00 278.5 0.0 0.00 70.7 21.5 83 0.9
2018 05 28 24:00 270.1 0.0 0.00 70.3 21.3 82.1 0.6
2018 05 29 1:00 273.8 0.0 0.00 68.9 20.5 84.7 1.4
2018 05 29 2:00 272.0 0.0 0.00 69.2 20.6 83.5 0.7
2018 05 29 3:00 270.0 0.0 0.00 68.3 20.2 84 0.4
2018 05 29 4:00 269.9 0.0 0.00 67.8 19.9 84.8 0.3
2018 05 29 5:00 271.9 0.0 0.00 66.7 19.3 88.5 0.7
2018 05 29 6:00 271.5 0.0 0.00 67.6 19.8 89.7 0.5
2018 05 29 7:00 268.1 0.0 0.00 73.7 23.1 76.66 2.1
2018 05 29 8:00 266.6 0.0 0.00 79.4 26.3 63.44 5.5
2018 05 29 9:00 265.6 0.0 0.00 83.0 28.4 57.55 5.5
2018 05 29 10:00 264.7 0.0 0.00 86.3 30.2 51.04 7.2
2018 05 29 11:00 263.9 0.0 0.00 88.5 31.4 47.11 9.5
2018 05 29 12:00 263.1 0.0 0.00 88.9 31.6 47.85 9.7
2018 05 29 13:00 262.1 0.0 0.00 89.6 32.0 44.66 9.7
2018 05 29 14:00 261.7 0.0 0.00 89.5 31.9 44.7 10.0
2018 05 29 15:00 261.6 0.0 0.00 88.4 31.3 45.56 11.7
2018 05 29 16:00 261.2 0.0 0.00 87.6 30.9 41.6 12.8
2018 05 29 17:00 261.1 0.0 0.00 86.3 30.2 42.52 11.3
2018 05 29 18:00 261.8 0.0 0.00 83.8 28.8 51.8 9.3
2018 05 29 19:00 263.2 0.0 0.00 80.9 27.1 55.71 8.6
2018 05 29 20:00 264.8 0.0 0.00 77.9 25.5 62.14 3.0
2018 05 29 21:00 265.6 0.0 0.00 77.4 25.2 64.51 0.3
2018 05 29 22:00 266.5 0.0 0.00 75.7 24.3 71.84 1.7
2018 05 29 23:00 268.3 0.0 0.00 74.4 23.5 75.98 0.4
2018 05 29 24:00 269.2 0.0 0.00 71.9 22.2 82.6 3.0
2018 05 30 1:00 269.8 0.0 0.00 69.8 21.0 87.3 4.8
2018 05 30 2:00 269.7 0.0 0.00 68.2 20.1 92.9 2.9
2018 05 30 3:00 270.9 0.0 0.00 67.9 20.0 95.4 2.9
2018 05 30 4:00 269.7 0.0 0.00 67.6 19.8 96 2.0
2018 05 30 5:00 Wet 297.8 0.0 0.00 66.7 19.3 96.7 0.5
2018 05 30 6:00 Wet 320.7 0.0 0.00 66.2 19.0 98.3 2.3
2018 05 30 7:00 272.4 0.0 0.00 69.8 21.0 91 2.7
2018 05 30 8:00 267.7 0.0 0.00 74.3 23.5 79.29 2.3
2018 05 30 9:00 266.9 0.0 0.00 77.8 25.4 71.09 3.2
2018 05 30 10:00 266.2 0.0 0.00 79.9 26.6 65.6 7.2
2018 05 30 11:00 265.2 0.0 0.00 80.9 27.2 61.22 9.6
2018 05 30 12:00 265.3 0.0 0.00 78.8 26.0 64.03 9.4
2018 05 30 13:00 264.0 0.0 0.00 81.6 27.6 58.1 8.7
2018 05 30 14:00 263.2 0.0 0.00 82.9 28.3 54.64 10.9
2018 05 30 15:00 263.3 0.0 0.00 83.0 28.4 53.85 12.0
2018 05 30 16:00 263.0 0.0 0.00 83.3 28.5 50.05 12.0
2018 05 30 17:00 262.9 0.0 0.00 83.2 28.5 49.12 10.9
2018 05 30 18:00 263.1 0.0 0.00 82.7 28.2 49.71 8.9
2018 05 30 19:00 263.4 0.0 0.00 81.1 27.3 52.14 7.4
2018 05 30 20:00 264.8 0.0 0.00 78.0 25.5 58.93 3.8
2018 05 30 21:00 266.8 0.0 0.00 74.0 23.3 67.82 2.0
2018 05 30 22:00 267.8 0.0 0.00 71.6 22.0 75.28 2.7
2018 05 30 23:00 268.1 0.0 0.00 71.2 21.8 76.59 3.7
2018 05 30 24:00 268.3 0.0 0.00 71.2 21.8 79.18 4.6
2018 05 31 1:00 268.9 0.0 0.00 70.5 21.4 83.1 4.4
2018 05 31 2:00 270.0 0.0 0.00 68.9 20.5 87.9 4.0
2018 05 31 3:00 269.3 0.0 0.00 68.4 20.2 90.7 5.0
2018 05 31 4:00 270.9 0.0 0.00 69.5 20.8 87.1 5.6
2018 05 31 5:00 270.5 0.0 0.00 67.9 20.0 90.7 4.1
2018 05 31 6:00 270.2 0.0 0.00 68.6 20.3 90 4.3
2018 05 31 7:00 269.6 0.0 0.00 71.1 21.7 85.2 6.2
2018 05 31 8:00 268.3 0.0 0.00 74.8 23.8 77.21 11.0
2018 05 31 9:00 267.5 0.0 0.00 76.5 24.7 71.82 13.7
2018 05 31 10:00 266.2 0.0 0.00 77.1 25.1 64.12 10.5
2018 05 31 11:00 266.0 0.0 0.00 76.7 24.8 62.79 11.5
2018 05 31 12:00 265.6 0.0 0.00 77.2 25.1 61.67 8.2
2018 05 31 13:00 266.0 0.0 0.00 76.0 24.4 65.47 5.3
2018 05 31 14:00 264.8 0.0 0.00 78.8 26.0 63.45 4.7
2018 05 31 15:00 263.2 0.0 0.00 83.9 28.8 56.11 6.0
2018 05 31 16:00 262.9 0.0 0.00 85.2 29.5 55.39 6.4
2018 05 31 17:00 263.1 0.0 0.00 85.7 29.8 54.8 7.2
2018 05 31 18:00 263.2 0.0 0.00 84.8 29.3 56.22 7.7
2018 05 31 19:00 Wet 295.5 0.0 0.00 82.3 27.9 59.73 6.0
2018 05 31 20:00 278.4 0.0 0.00 79.0 26.1 66.69 4.6
2018 05 31 21:00 270.5 0.0 0.00 74.8 23.8 76.53 3.3
2018 05 31 22:00 271.7 0.0 0.00 73.3 22.9 81.2 4.2
2018 05 31 23:00 271.6 0.0 0.00 72.9 22.7 82.1 4.3
2018 05 31 24:00 272.2 0.0 0.00 72.2 22.4 84.8 5.2
2018 06 01 1:00 273.9 0.0 0.00 71.6 22.0 87.7 6.1
2018 06 01 2:00 276.6 0.0 0.00 70.4 21.3 90.6 4.3
2018 06 01 3:00 Wet 287.0 0.0 0.00 69.8 21.0 92.1 4.3
2018 06 01 4:00 Wet 303.5 0.0 0.00 69.3 20.7 93.2 4.0
2018 06 01 5:00 Wet 336.9 0.0 0.00 68.6 20.4 94.9 4.3
2018 06 01 6:00 Wet 326.9 0.0 0.00 69.1 20.6 94.3 4.0
2018 06 01 7:00 276.2 0.0 0.00 72.9 22.7 86.4 5.2
2018 06 01 8:00 269.0 0.0 0.00 77.8 25.4 73.82 4.9
2018 06 01 9:00 267.5 0.0 0.00 83.1 28.4 61.96 4.0
2018 06 01 10:00 265.9 0.0 0.00 87.8 31.0 48.65 4.0
2018 06 01 11:00 264.0 0.0 0.00 90.5 32.5 37.65 5.6
2018 06 01 12:00 262.1 0.0 0.00 91.9 33.3 32.52 5.6
2018 06 01 13:00 260.8 0.0 0.00 92.7 33.7 31.58 6.0
2018 06 01 14:00 260.0 0.0 0.00 93.5 34.1 30.84 4.3
2018 06 01 15:00 259.5 0.0 0.00 93.8 34.3 31.03 4.3
2018 06 01 16:00 259.0 0.0 0.00 94.1 34.5 31.06 3.3
2018 06 01 17:00 259.0 0.0 0.00 93.1 33.9 33.64 3.8
2018 06 01 18:00 259.4 0.0 0.00 93.1 33.9 33.32 2.2
2018 06 01 19:00 261.0 0.0 0.00 89.4 31.9 42.4 2.2
2018 06 01 20:00 265.6 0.0 0.00 82.0 27.8 58.35 1.8
2018 06 01 21:00 266.8 0.0 0.00 77.6 25.4 60.19 2.4
2018 06 01 22:00 267.8 0.0 0.00 75.2 24.0 63.22 2.0
2018 06 01 23:00 268.3 0.0 0.00 74.2 23.4 64.65 2.3
2018 06 01 24:00 269.1 0.0 0.00 72.2 22.3 70.11 2.5
2018 06 02 1:00 271.4 0.0 0.00 70.1 21.2 75.96 2.6
2018 06 02 2:00 271.7 0.0 0.00 68.5 20.3 82.3 4.7
2018 06 02 3:00 270.4 0.0 0.00 70.7 21.5 78.62 6.0
2018 06 02 4:00 271.0 0.0 0.00 70.4 21.4 83.2 5.8
2018 06 02 5:00 272.2 0.0 0.00 69.6 20.9 88 4.7
2018 06 02 6:00 Wet 294.2 0.1 1.78 69.7 21.0 90.3 8.3
2018 06 02 7:00 Wet 441.8 0.5 13.46 68.5 20.3 97.3 10.5
2018 06 02 8:00 Wet 416.0 0.5 13.46 67.4 19.6 98 16.0
2018 06 02 9:00 Wet 309.8 0.0 0.25 65.3 18.5 95.7 13.5
2018 06 02 10:00 270.0 0.0 0.00 68.5 20.3 95.1 8.5
2018 06 02 11:00 267.8 0.0 0.00 73.2 22.9 84.6 6.6
2018 06 02 12:00 266.0 0.0 0.00 76.3 24.6 74.75 8.3
2018 06 02 13:00 265.0 0.0 0.00 78.3 25.7 73.14 8.8
2018 06 02 14:00 264.8 0.0 0.00 79.6 26.5 71.91 9.7
2018 06 02 15:00 264.8 0.0 0.00 80.2 26.8 71.12 11.4
2018 06 02 16:00 265.1 0.0 0.00 79.1 26.2 69.87 12.4
2018 06 02 17:00 264.4 0.0 0.00 77.9 25.5 67.3 13.5
2018 06 02 18:00 264.2 0.0 0.00 77.3 25.2 65.52 11.4
2018 06 02 19:00 264.8 0.0 0.00 75.5 24.2 67.05 8.7
2018 06 02 20:00 265.9 0.0 0.00 73.0 22.8 69 9.8
2018 06 02 21:00 265.6 0.0 0.00 69.8 21.0 61.99 11.1
2018 06 02 22:00 267.4 0.0 0.00 64.5 18.1 75.79 4.6
2018 06 02 23:00 274.4 0.0 0.00 62.2 16.8 84.5 3.3
2018 06 02 24:00 269.0 0.0 0.00 62.5 16.9 83.7 5.0
2018 06 03 1:00 268.6 0.0 0.00 62.2 16.8 83.7 6.4
2018 06 03 2:00 269.1 0.0 0.00 60.8 16.0 85.2 5.4
2018 06 03 3:00 269.2 0.0 0.00 60.0 15.5 85.6 5.8
2018 06 03 4:00 268.9 0.0 0.00 60.1 15.6 83 6.9
2018 06 03 5:00 269.0 0.0 0.00 59.3 15.2 83.8 7.0
2018 06 03 6:00 268.0 0.0 0.00 60.4 15.8 78.39 8.5
2018 06 03 7:00 266.7 0.0 0.00 63.4 17.4 70.97 8.6
2018 06 03 8:00 266.1 0.0 0.00 67.4 19.7 64.42 7.1
2018 06 03 9:00 265.4 0.0 0.00 71.6 22.0 56.02 7.7
2018 06 03 10:00 264.7 0.0 0.00 74.3 23.5 47.67 10.0
2018 06 03 11:00 263.8 0.0 0.00 75.8 24.3 44.05 13.7
2018 06 03 12:00 263.0 0.0 0.00 77.3 25.2 38.83 15.8
2018 06 03 13:00 262.0 0.0 0.00 78.4 25.8 37.17 15.4
2018 06 03 14:00 261.4 0.0 0.00 78.8 26.0 36.01 16.8
2018 06 03 15:00 261.2 0.0 0.00 78.7 26.0 36.88 16.5
2018 06 03 16:00 260.8 0.0 0.00 78.1 25.6 36.66 16.0
2018 06 03 17:00 260.7 0.0 0.00 77.6 25.3 36.2 14.8
2018 06 03 18:00 260.7 0.0 0.00 76.4 24.6 35.77 12.6
2018 06 03 19:00 261.5 0.0 0.00 73.8 23.2 41.46 7.4
2018 06 03 20:00 264.2 0.0 0.00 65.9 18.8 60.49 3.3
2018 06 03 21:00 266.1 0.0 0.00 62.8 17.1 62.13 2.9
2018 06 03 22:00 267.2 0.0 0.00 61.2 16.2 67.14 2.3
2018 06 03 23:00 266.9 0.0 0.00 60.0 15.6 69.72 4.2
2018 06 03 24:00 266.6 0.0 0.00 58.2 14.6 69.74 4.7
2018 06 04 1:00 266.5 0.0 0.00 58.0 14.5 66.35 5.5
2018 06 04 2:00 266.2 0.0 0.00 59.1 15.1 60.79 4.8
2018 06 04 3:00 266.7 0.0 0.00 57.6 14.2 65.33 2.7
2018 06 04 4:00 271.1 0.0 0.00 54.8 12.7 77.63 2.3
2018 06 04 5:00 275.2 0.0 0.00 53.2 11.8 81.5 3.3
2018 06 04 6:00 267.3 0.0 0.00 54.6 12.5 80.3 2.4
2018 06 04 7:00 265.4 0.0 0.00 61.4 16.3 70.13 1.4
2018 06 04 8:00 264.4 0.0 0.00 67.3 19.6 52.74 4.6
2018 06 04 9:00 263.6 0.0 0.00 69.8 21.0 43.45 5.4
2018 06 04 10:00 263.3 0.0 0.00 72.4 22.5 39.98 3.3
2018 06 04 11:00 261.9 0.0 0.00 74.2 23.4 39.2 3.0
2018 06 04 12:00 260.7 0.0 0.00 75.2 24.0 37.22 3.0
2018 06 04 13:00 260.4 0.0 0.00 76.3 24.6 38.49 4.7
2018 06 04 14:00 259.9 0.0 0.00 77.6 25.3 38.64 4.9
2018 06 04 15:00 259.7 0.0 0.00 78.7 25.9 35.99 5.3
2018 06 04 16:00 260.3 0.0 0.00 78.0 25.6 38.06 6.2
2018 06 04 17:00 261.4 0.0 0.00 75.6 24.2 43.94 7.1
2018 06 04 18:00 262.0 0.0 0.00 73.1 22.8 48.44 6.8
2018 06 04 19:00 263.0 0.0 0.00 71.0 21.7 51.46 5.3
2018 06 04 20:00 264.0 0.0 0.00 68.1 20.0 61.89 5.8
2018 06 04 21:00 264.8 0.0 0.00 65.8 18.8 68.91 5.8
2018 06 04 22:00 266.2 0.0 0.00 63.1 17.3 75.96 2.9
2018 06 04 23:00 271.3 0.0 0.00 60.7 16.0 84.5 2.5
2018 06 04 24:00 283.4 0.0 0.00 59.1 15.1 87.7 2.8
2018 06 05 1:00 280.9 0.0 0.00 59.4 15.2 83.9 3.1
2018 06 05 2:00 269.4 0.0 0.00 58.8 14.9 81.5 3.1
2018 06 05 3:00 281.8 0.0 0.00 55.9 13.3 89.6 1.9
2018 06 05 4:00 Wet 301.9 0.0 0.00 55.1 12.9 91.3 2.4
2018 06 05 5:00 Wet 319.0 0.0 0.00 55.0 12.8 91.5 2.6
2018 06 05 6:00 Wet 287.1 0.0 0.00 57.1 13.9 90.5 4.7
2018 06 05 7:00 267.4 0.0 0.00 63.4 17.4 80.8 7.5
2018 06 05 8:00 266.5 0.0 0.00 68.5 20.3 69.77 7.8
2018 06 05 9:00 265.2 0.0 0.00 73.7 23.2 56.97 9.0
2018 06 05 10:00 263.9 0.0 0.00 77.1 25.1 45.13 9.7
2018 06 05 11:00 263.1 0.0 0.00 79.6 26.4 41.53 7.9
2018 06 05 12:00 261.8 0.0 0.00 81.2 27.4 42.5 6.4
2018 06 05 13:00 261.0 0.0 0.00 82.8 28.2 41.23 6.2
2018 06 05 14:00 260.5 0.0 0.00 84.1 28.9 40.86 6.1
2018 06 05 15:00 260.4 0.0 0.00 85.1 29.5 40.92 6.6
2018 06 05 16:00 259.8 0.0 0.00 85.4 29.7 39.55 6.0
2018 06 05 17:00 259.9 0.0 0.00 85.4 29.6 40.43 5.7
2018 06 05 18:00 260.5 0.0 0.00 84.5 29.2 40.87 5.6
2018 06 05 19:00 260.8 0.0 0.00 83.0 28.3 45.2 2.7
2018 06 05 20:00 264.0 0.0 0.00 77.1 25.0 61.8 1.6
2018 06 05 21:00 267.5 0.0 0.00 71.1 21.7 79.3 0.2
2018 06 05 22:00 Wet 284.0 0.0 0.00 67.9 19.9 89.5 0.3
2018 06 05 23:00 Wet 295.5 0.0 0.00 66.3 19.0 86.6 2.2
2018 06 05 24:00 270.2 0.0 0.00 66.4 19.1 83.7 1.9
2018 06 06 1:00 275.1 0.0 0.00 63.9 17.7 90.1 2.6
2018 06 06 2:00 Wet 290.0 0.0 0.00 63.1 17.3 88.9 2.6
2018 06 06 3:00 270.6 0.0 0.00 62.8 17.1 87.3 2.9
2018 06 06 4:00 282.8 0.0 0.00 62.3 16.8 91.4 0.5
2018 06 06 5:00 Wet 317.9 0.0 0.00 60.4 15.8 95.1 1.8
2018 06 06 6:00 Wet 310.3 0.0 0.00 60.8 16.0 94.4 2.5
2018 06 06 7:00 268.8 0.0 0.00 65.2 18.4 88.3 4.7
2018 06 06 8:00 266.9 0.0 0.00 70.9 21.6 76.91 3.2
2018 06 06 9:00 265.7 0.0 0.00 75.6 24.2 66.49 2.4
2018 06 06 10:00 264.9 0.0 0.00 79.5 26.4 61.21 3.0
2018 06 06 11:00 264.2 0.0 0.00 82.2 27.9 57.05 5.2
2018 06 06 12:00 262.8 0.0 0.00 84.4 29.1 49.13 3.8
2018 06 06 13:00 262.0 0.0 0.00 85.7 29.8 48.11 5.6
2018 06 06 14:00 261.8 0.0 0.00 85.4 29.7 47.97 8.0
2018 06 06 15:00 261.6 0.0 0.00 86.2 30.1 45.6 10.2
2018 06 06 16:00 261.1 0.0 0.00 87.0 30.6 43.42 10.9
2018 06 06 17:00 261.2 0.0 0.00 86.3 30.2 42.63 10.0
2018 06 06 18:00 261.4 0.0 0.00 84.6 29.2 43.05 7.6
2018 06 06 19:00 262.8 0.0 0.00 82.0 27.8 49.72 1.6
2018 06 06 20:00 265.0 0.0 0.00 77.3 25.1 66.15 0.4
2018 06 06 21:00 265.8 0.0 0.00 74.1 23.4 69.68 3.0
2018 06 06 22:00 266.0 0.0 0.00 71.7 22.0 70.26 6.0
2018 06 06 23:00 266.2 0.0 0.00 69.1 20.6 76.06 5.2
2018 06 06 24:00 266.2 0.0 0.00 68.8 20.4 75.35 5.5
2018 06 07 1:00 266.3 0.0 0.00 68.7 20.4 74.92 6.9
2018 06 07 2:00 266.2 0.0 0.00 69.3 20.8 72.49 7.5
2018 06 07 3:00 266.1 0.0 0.00 69.3 20.7 70.23 5.0
2018 06 07 4:00 266.6 0.0 0.00 67.4 19.7 77.23 3.5
2018 06 07 5:00 267.5 0.0 0.00 66.4 19.1 82.2 2.0
2018 06 07 6:00 268.2 0.0 0.00 65.9 18.9 83.8 0.9
2018 06 07 7:00 267.7 0.0 0.00 66.8 19.4 82.5 2.5
2018 06 07 8:00 265.8 0.0 0.00 72.6 22.6 68.4 2.3
2018 06 07 9:00 264.9 0.0 0.00 76.5 24.7 61.09 2.8
2018 06 07 10:00 264.4 0.0 0.00 80.0 26.7 55.66 2.9
2018 06 07 11:00 263.5 0.0 0.00 82.9 28.3 51.25 3.8
2018 06 07 12:00 262.6 0.0 0.00 85.7 29.8 48 6.7
2018 06 07 13:00 261.7 0.0 0.00 87.3 30.7 46.36 8.1
2018 06 07 14:00 261.3 0.0 0.00 87.1 30.6 46.65 6.0
2018 06 07 15:00 260.9 0.0 0.00 87.2 30.7 45.38 5.3
2018 06 07 16:00 261.2 0.0 0.00 87.2 30.7 47.55 3.8
2018 06 07 17:00 260.4 0.0 0.00 87.9 31.1 44.58 3.1
2018 06 07 18:00 261.6 0.0 0.00 86.1 30.1 47.8 2.9
2018 06 07 19:00 263.8 0.0 0.00 82.7 28.2 60.76 2.8
2018 06 07 20:00 264.9 0.0 0.00 79.0 26.1 69.69 2.9
2018 06 07 21:00 265.6 0.0 0.00 77.4 25.2 72.61 1.2
2018 06 07 22:00 266.6 0.0 0.00 76.2 24.6 75.31 2.2
2018 06 07 23:00 266.8 0.0 0.00 75.2 24.0 78.91 2.3
2018 06 07 24:00 267.6 0.0 0.00 74.2 23.5 83 1.9
2018 06 08 1:00 268.5 0.0 0.00 73.4 23.0 85.8 1.0
2018 06 08 2:00 267.7 0.0 0.00 71.9 22.2 90.5 0.1
2018 06 08 3:00 270.3 0.0 0.00 70.8 21.5 93.5 0.5
2018 06 08 4:00 281.8 0.0 0.00 70.8 21.6 93.7 0.2
2018 06 08 5:00 270.9 0.0 0.00 71.5 21.9 93 0.5
2018 06 08 6:00 269.4 0.0 0.00 73.1 22.8 84.1 3.1
2018 06 08 7:00 267.5 0.0 0.00 75.7 24.3 73.43 4.1
2018 06 08 8:00 272.6 0.0 0.00 77.3 25.2 74.36 6.3
2018 06 08 9:00 Wet 313.3 0.0 0.00 79.1 26.2 70 5.1
2018 06 08 10:00 264.7 0.0 0.00 82.3 27.9 64.1 6.1
2018 06 08 11:00 265.4 0.0 0.00 83.3 28.5 63.36 6.6
2018 06 08 12:00 265.4 0.0 0.00 85.3 29.6 59.53 8.1
2018 06 08 13:00 264.6 0.0 0.00 86.5 30.3 57.44 8.0
2018 06 08 14:00 264.3 0.0 0.00 87.1 30.6 54.12 8.5
2018 06 08 15:00 263.9 0.0 0.00 88.0 31.1 51.25 8.2
2018 06 08 16:00 263.6 0.0 0.00 88.1 31.1 50.18 8.8
2018 06 08 17:00 263.3 0.0 0.00 88.2 31.2 49.68 8.4
2018 06 08 18:00 263.9 0.0 0.00 87.2 30.7 52.34 7.1
2018 06 08 19:00 264.5 0.0 0.00 84.9 29.4 58.91 4.5
2018 06 08 20:00 262.4 0.0 0.00 81.1 27.3 68.71 3.1
2018 06 08 21:00 264.3 0.0 0.00 79.0 26.1 74.53 4.2
2018 06 08 22:00 Wet 383.7 0.0 1.02 76.7 24.8 83.6 5.3
2018 06 08 23:00 Wet 350.8 0.0 0.76 74.6 23.6 88 4.8
2018 06 08 24:00 Wet 295.2 0.0 0.00 73.3 22.9 91.7 3.0
2018 06 09 1:00 Wet 287.0 0.0 0.00 72.1 22.3 94.4 1.1
2018 06 09 2:00 Wet 316.1 0.0 0.00 70.9 21.6 96.8 0.9
2018 06 09 3:00 Wet 336.0 0.0 0.00 70.9 21.6 96.5 3.0
2018 06 09 4:00 Wet 328.3 0.0 0.00 70.6 21.4 94.9 3.3
2018 06 09 5:00 Wet 336.6 0.0 0.00 69.8 21.0 96.5 2.4
2018 06 09 6:00 Wet 319.3 0.0 0.00 71.0 21.6 95.9 3.6
2018 06 09 7:00 269.6 0.0 0.00 73.5 23.0 92.6 4.1
2018 06 09 8:00 269.5 0.0 0.00 75.9 24.4 88.9 6.4
2018 06 09 9:00 268.4 0.0 0.00 80.0 26.7 80.1 9.7
2018 06 09 10:00 266.5 0.0 0.00 83.1 28.4 67.91 4.1
2018 06 09 11:00 265.9 0.0 0.00 84.3 29.1 70.4 6.6
2018 06 09 12:00 265.1 0.0 0.00 86.4 30.2 64 9.2
2018 06 09 13:00 263.9 0.0 0.00 88.6 31.5 57.45 10.0
2018 06 09 14:00 263.4 0.0 0.00 89.2 31.8 54.85 10.4
2018 06 09 15:00 263.2 0.0 0.00 89.5 31.9 54.29 10.5
2018 06 09 16:00 263.1 0.0 0.00 89.7 32.1 52.55 9.5
2018 06 09 17:00 263.1 0.0 0.00 89.8 32.1 52.88 10.1
2018 06 09 18:00 263.7 0.0 0.00 87.5 30.8 57.89 8.9
2018 06 09 19:00 263.9 0.0 0.00 86.4 30.2 59.76 8.5
2018 06 09 20:00 264.9 0.0 0.00 83.2 28.4 64.35 5.9
2018 06 09 21:00 266.1 0.0 0.00 79.4 26.3 72.91 5.5
2018 06 09 22:00 266.7 0.0 0.00 78.3 25.7 74.45 7.2
2018 06 09 23:00 266.7 0.0 0.00 78.8 26.0 73.31 10.0
2018 06 09 24:00 266.9 0.0 0.00 77.8 25.5 77.35 9.1
2018 06 10 1:00 267.7 0.0 0.00 76.8 24.9 82 6.8
2018 06 10 2:00 268.2 0.0 0.00 76.3 24.6 84.3 4.9
2018 06 10 3:00 268.8 0.0 0.00 75.3 24.1 86.8 5.3
2018 06 10 4:00 268.7 0.0 0.00 75.1 23.9 85 7.5
2018 06 10 5:00 268.2 0.0 0.00 75.7 24.3 79.36 7.1
2018 06 10 6:00 267.8 0.0 0.00 75.8 24.3 78.14 7.8
2018 06 10 7:00 266.8 0.0 0.00 77.7 25.4 72.28 9.5
2018 06 10 8:00 266.1 0.0 0.00 79.4 26.3 68.37 9.5
2018 06 10 9:00 265.7 0.0 0.00 81.0 27.2 65.47 9.5
2018 06 10 10:00 278.2 0.0 0.00 80.9 27.2 67.06 9.2
2018 06 10 11:00 Wet 284.6 0.0 0.25 78.5 25.8 75.81 8.8
2018 06 10 12:00 265.2 0.0 0.00 83.1 28.4 67.11 7.4
2018 06 10 13:00 264.4 0.0 0.00 84.1 28.9 61.77 5.9
2018 06 10 14:00 264.1 0.0 0.00 84.6 29.2 61.48 4.8
2018 06 10 15:00 263.6 0.0 0.00 85.2 29.5 58.52 2.8
2018 06 10 16:00 263.8 0.0 0.00 84.6 29.2 61.71 5.0
2018 06 10 17:00 263.4 0.0 0.00 85.4 29.6 58.94 3.7
2018 06 10 18:00 264.8 0.0 0.00 83.2 28.4 69.6 3.4
2018 06 10 19:00 265.5 0.0 0.00 82.0 27.8 72.93 3.8
2018 06 10 20:00 266.7 0.0 0.00 79.3 26.3 77.62 5.9
2018 06 10 21:00 266.7 0.0 0.00 79.3 26.3 74.59 6.4
2018 06 10 22:00 267.0 0.0 0.00 76.9 24.9 79.58 8.0
2018 06 10 23:00 268.6 0.0 0.00 74.0 23.3 89.7 6.4
2018 06 10 24:00 269.5 0.0 0.00 72.0 22.2 91.9 6.0
2018 06 11 1:00 269.7 0.0 0.00 70.4 21.3 92.3 5.3
2018 06 11 2:00 269.6 0.0 0.00 70.0 21.1 92.3 5.7
2018 06 11 3:00 270.8 0.0 0.00 69.5 20.8 94.9 5.3
2018 06 11 4:00 271.6 0.0 0.00 69.1 20.6 96.5 3.9
2018 06 11 5:00 271.5 0.0 0.00 69.1 20.6 96.8 4.8
2018 06 11 6:00 270.8 0.0 0.00 69.5 20.8 95.7 5.9
2018 06 11 7:00 270.1 0.0 0.00 70.1 21.1 94.9 6.4
2018 06 11 8:00 269.5 0.0 0.00 71.1 21.7 91.8 6.5
2018 06 11 9:00 268.6 0.0 0.00 72.5 22.5 88.5 8.2
2018 06 11 10:00 267.6 0.0 0.00 75.0 23.9 83.7 8.9
2018 06 11 11:00 266.7 0.0 0.00 77.3 25.1 79.35 4.6
2018 06 11 12:00 266.0 0.0 0.00 81.4 27.5 73.05 8.7
2018 06 11 13:00 264.6 0.0 0.00 84.5 29.1 67.58 5.6
2018 06 11 14:00 263.2 0.0 0.00 86.8 30.5 63.44 4.8
2018 06 11 15:00 263.9 0.0 0.00 87.0 30.5 64.65 6.0
2018 06 11 16:00 264.7 0.0 0.00 81.0 27.2 68.36 10.7
2018 06 11 17:00 265.1 0.0 0.00 80.5 26.9 79.23 7.9
2018 06 11 18:00 266.1 0.0 0.00 80.0 26.7 82.3 8.5
2018 06 11 19:00 267.2 0.0 0.00 77.3 25.2 87.5 9.7
2018 06 11 20:00 269.7 0.0 0.00 74.7 23.7 92.8 6.0
2018 06 11 21:00 270.8 0.0 0.00 73.8 23.2 94.6 6.5
2018 06 11 22:00 270.6 0.0 0.00 73.4 23.0 94.6 8.8
2018 06 11 23:00 270.8 0.0 0.00 73.1 22.8 94.3 6.5
2018 06 11 24:00 279.1 0.0 0.00 72.8 22.7 92.2 10.9
2018 06 12 1:00 Wet 397.6 0.2 4.32 70.3 21.3 93.4 13.1
2018 06 12 2:00 Wet 293.8 0.0 0.00 69.4 20.8 91.4 7.0
2018 06 12 3:00 270.0 0.0 0.00 68.3 20.2 90.1 7.5
2018 06 12 4:00 270.5 0.0 0.00 67.8 19.9 91.9 7.2
2018 06 12 5:00 270.9 0.0 0.00 67.5 19.7 93.3 4.4
2018 06 12 6:00 270.5 0.0 0.00 67.7 19.8 94.3 3.5
2018 06 12 7:00 269.4 0.0 0.00 69.8 21.0 87.7 5.5
2018 06 12 8:00 268.3 0.0 0.00 72.7 22.6 79.93 7.8
2018 06 12 9:00 267.3 0.0 0.00 74.6 23.6 74.19 9.9
2018 06 12 10:00 266.7 0.0 0.00 76.6 24.8 69.96 10.1
2018 06 12 11:00 265.7 0.0 0.00 80.3 26.9 62.37 8.3
2018 06 12 12:00 264.7 0.0 0.00 82.0 27.8 60.97 9.9
2018 06 12 13:00 264.0 0.0 0.00 83.6 28.7 59.99 8.1
2018 06 12 14:00 263.2 0.0 0.00 85.0 29.5 53.9 7.8
2018 06 12 15:00 262.9 0.0 0.00 85.8 29.9 53.76 7.6
2018 06 12 16:00 261.8 0.0 0.00 86.8 30.4 49.35 6.4
2018 06 12 17:00 261.8 0.0 0.00 86.5 30.3 49.71 6.7
2018 06 12 18:00 262.6 0.0 0.00 85.1 29.5 54.07 6.2
2018 06 12 19:00 263.7 0.0 0.00 83.1 28.4 63.78 3.9
2018 06 12 20:00 266.1 0.0 0.00 79.4 26.4 74.57 3.4
2018 06 12 21:00 268.0 0.0 0.00 75.6 24.2 82.4 3.0
2018 06 12 22:00 267.9 0.0 0.00 76.1 24.5 82.2 5.2
2018 06 12 23:00 268.7 0.0 0.00 74.7 23.7 87.2 5.9
2018 06 12 24:00 269.4 0.0 0.00 73.8 23.2 90.1 6.4
2018 06 13 1:00 269.8 0.0 0.00 73.2 22.9 90.9 6.5
2018 06 13 2:00 270.1 0.0 0.00 72.7 22.6 91.5 6.1
2018 06 13 3:00 271.5 0.0 0.00 71.8 22.1 93.3 5.1
2018 06 13 4:00 271.6 0.0 0.00 71.1 21.7 95.2 5.5
2018 06 13 5:00 271.6 0.0 0.00 71.2 21.8 95.6 6.2
2018 06 13 6:00 270.2 0.0 0.00 72.1 22.3 91.6 10.5
2018 06 13 7:00 268.5 0.0 0.00 72.2 22.3 79.9 11.9
2018 06 13 8:00 267.2 0.0 0.00 72.7 22.6 72.71 9.8
2018 06 13 9:00 265.4 0.0 0.00 74.3 23.5 54.47 10.2
2018 06 13 10:00 264.0 0.0 0.00 74.8 23.8 41.95 10.2
2018 06 13 11:00 262.9 0.0 0.00 76.8 24.9 35.66 9.4
2018 06 13 12:00 261.5 0.0 0.00 78.4 25.8 33.28 8.1
2018 06 13 13:00 260.5 0.0 0.00 80.1 26.7 32.67 7.5
2018 06 13 14:00 260.1 0.0 0.00 79.4 26.3 33.15 6.1
2018 06 13 15:00 259.0 0.0 0.00 80.2 26.8 32.96 4.9
2018 06 13 16:00 258.9 0.0 0.00 80.9 27.1 33.65 4.2
2018 06 13 17:00 259.2 0.0 0.00 80.7 27.1 35.04 3.3
2018 06 13 18:00 259.7 0.0 0.00 80.2 26.8 37.1 3.1
2018 06 13 19:00 262.0 0.0 0.00 77.8 25.5 47.71 1.4
2018 06 13 20:00 263.7 0.0 0.00 73.1 22.8 56.76 4.0
2018 06 13 21:00 264.3 0.0 0.00 70.1 21.2 58.51 3.4
2018 06 13 22:00 265.5 0.0 0.00 66.8 19.4 65.97 2.3
2018 06 13 23:00 266.4 0.0 0.00 64.5 18.1 72.23 2.6
2018 06 13 24:00 268.4 0.0 0.00 62.2 16.8 80.4 0.8
2018 06 14 1:00 269.1 0.0 0.00 60.4 15.8 83.5 2.3
2018 06 14 2:00 267.9 0.0 0.00 61.2 16.2 76.54 4.9
2018 06 14 3:00 267.8 0.0 0.00 60.8 16.0 77.19 4.5
2018 06 14 4:00 267.8 0.0 0.00 60.2 15.7 79.97 4.4
2018 06 14 5:00 267.7 0.0 0.00 61.4 16.3 75.94 5.0
2018 06 14 6:00 267.1 0.0 0.00 63.2 17.3 73.48 5.9
2018 06 14 7:00 267.0 0.0 0.00 63.4 17.4 76.25 5.0
2018 06 14 8:00 266.0 0.0 0.00 68.2 20.1 68.12 6.9
2018 06 14 9:00 265.5 0.0 0.00 72.4 22.5 65.1 7.4
2018 06 14 10:00 265.0 0.0 0.00 76.6 24.8 64.55 8.3
2018 06 14 11:00 264.7 0.0 0.00 79.8 26.5 65.09 7.8
2018 06 14 12:00 264.5 0.0 0.00 83.0 28.3 64.09 7.8
2018 06 14 13:00 279.6 0.0 0.25 72.0 22.2 71.8 13.6
2018 06 14 14:00 268.4 0.0 0.00 67.9 19.9 86.6 9.8
2018 06 14 15:00 266.3 0.0 0.00 69.3 20.7 83.8 11.7
2018 06 14 16:00 265.0 0.0 0.00 73.0 22.8 72.88 11.5
2018 06 14 17:00 264.1 0.0 0.00 76.4 24.7 65.42 9.6
2018 06 14 18:00 264.3 0.0 0.00 77.3 25.2 64.46 9.5
2018 06 14 19:00 265.2 0.0 0.00 75.8 24.3 68.92 11.1
2018 06 14 20:00 266.4 0.0 0.00 73.2 22.9 76.53 7.3
2018 06 14 21:00 267.8 0.0 0.00 70.5 21.4 85 4.1
2018 06 14 22:00 269.1 0.0 0.00 68.9 20.5 90.2 4.3
2018 06 14 23:00 269.2 0.0 0.00 68.9 20.5 88.6 6.2
2018 06 14 24:00 268.3 0.0 0.00 70.3 21.3 80.9 7.5
2018 06 15 1:00 268.4 0.0 0.00 69.3 20.7 83 4.7
2018 06 15 2:00 269.0 0.0 0.00 68.3 20.2 85.8 4.2
2018 06 15 3:00 269.1 0.0 0.00 69.8 21.0 84.7 3.7
2018 06 15 4:00 270.2 0.0 0.00 69.4 20.8 89.4 3.2
2018 06 15 5:00 269.9 0.0 0.00 70.0 21.1 89.2 4.3
2018 06 15 6:00 269.7 0.0 0.00 68.6 20.3 92.7 3.7
2018 06 15 7:00 269.3 0.0 0.00 70.1 21.1 91.3 5.0
2018 06 15 8:00 267.8 0.0 0.00 76.1 24.5 80.1 8.4
2018 06 15 9:00 266.9 0.0 0.00 81.1 27.3 70.31 8.9
2018 06 15 10:00 265.6 0.0 0.00 85.7 29.8 59.61 8.3
2018 06 15 11:00 264.7 0.0 0.00 88.2 31.2 54.66 10.4
2018 06 15 12:00 263.5 0.0 0.00 90.3 32.4 50.47 10.5
2018 06 15 13:00 262.9 0.0 0.00 91.7 33.2 46.27 11.2
2018 06 15 14:00 261.8 0.0 0.00 92.9 33.8 43.41 10.9
2018 06 15 15:00 261.4 0.0 0.00 93.1 34.0 42.89 11.0
2018 06 15 16:00 261.2 0.0 0.00 93.2 34.0 42.64 11.3
2018 06 15 17:00 261.0 0.0 0.00 92.7 33.7 42.83 11.5
2018 06 15 18:00 261.6 0.0 0.00 91.0 32.8 46.9 9.6
2018 06 15 19:00 262.7 0.0 0.00 87.8 31.0 51.97 7.4
2018 06 15 20:00 264.0 0.0 0.00 83.1 28.4 61.69 4.3
2018 06 15 21:00 265.1 0.0 0.00 79.9 26.6 66.54 3.5
2018 06 15 22:00 265.8 0.0 0.00 78.3 25.7 73.3 3.6
2018 06 15 23:00 266.6 0.0 0.00 77.6 25.3 77.88 4.6
2018 06 15 24:00 266.9 0.0 0.00 76.7 24.8 79.53 4.4
2018 06 16 1:00 267.6 0.0 0.00 75.0 23.9 82.9 3.9
2018 06 16 2:00 268.3 0.0 0.00 74.1 23.4 86.1 4.1
2018 06 16 3:00 268.9 0.0 0.00 73.7 23.2 88.8 5.1
2018 06 16 4:00 269.5 0.0 0.00 73.4 23.0 89.9 4.7
2018 06 16 5:00 269.6 0.0 0.00 73.1 22.8 90.3 5.0
2018 06 16 6:00 269.1 0.0 0.00 73.3 22.9 90.9 5.6
2018 06 16 7:00 268.0 0.0 0.00 76.2 24.5 84.4 7.6
2018 06 16 8:00 266.9 0.0 0.00 80.2 26.8 74.12 9.4
2018 06 16 9:00 266.0 0.0 0.00 83.6 28.7 66.97 9.3
2018 06 16 10:00 265.3 0.0 0.00 86.6 30.3 60.33 9.2
2018 06 16 11:00 264.3 0.0 0.00 88.5 31.4 56.03 9.4
2018 06 16 12:00 263.3 0.0 0.00 89.9 32.2 52.05 10.2
2018 06 16 13:00 262.9 0.0 0.00 90.7 32.6 49.67 11.3
2018 06 16 14:00 262.4 0.0 0.00 91.1 32.8 48.21 10.6
2018 06 16 15:00 262.1 0.0 0.00 91.3 33.0 46.05 10.7
2018 06 16 16:00 261.4 0.0 0.00 92.3 33.5 44.5 9.7
2018 06 16 17:00 261.6 0.0 0.00 91.6 33.1 45.13 9.3
2018 06 16 18:00 261.7 0.0 0.00 90.6 32.5 46.8 8.5
2018 06 16 19:00 262.8 0.0 0.00 88.1 31.2 53.72 5.7
2018 06 16 20:00 264.1 0.0 0.00 83.9 28.9 62.87 5.8
2018 06 16 21:00 264.7 0.0 0.00 81.5 27.5 66.87 6.5
2018 06 16 22:00 265.3 0.0 0.00 79.3 26.3 72.17 6.0
2018 06 16 23:00 265.4 0.0 0.00 79.2 26.2 71.78 7.6
2018 06 16 24:00 265.9 0.0 0.00 79.1 26.1 72.99 8.6
2018 06 17 1:00 266.0 0.0 0.00 78.4 25.8 74.27 7.6
2018 06 17 2:00 266.1 0.0 0.00 77.9 25.5 75.63 7.3
2018 06 17 3:00 266.8 0.0 0.00 76.3 24.6 79.66 5.4
2018 06 17 4:00 267.6 0.0 0.00 74.5 23.6 84.6 4.3
2018 06 17 5:00 268.6 0.0 0.00 73.2 22.9 88.1 4.0
2018 06 17 6:00 268.3 0.0 0.00 73.6 23.1 88.3 4.5
2018 06 17 7:00 267.2 0.0 0.00 77.4 25.2 79.83 8.0
2018 06 17 8:00 266.2 0.0 0.00 80.9 27.1 71.65 9.1
2018 06 17 9:00 265.5 0.0 0.00 84.3 29.1 64.73 10.1
2018 06 17 10:00 264.9 0.0 0.00 87.1 30.6 59.24 10.0
2018 06 17 11:00 264.1 0.0 0.00 88.9 31.6 54.8 10.7
2018 06 17 12:00 263.2 0.0 0.00 90.4 32.5 52.48 10.3
2018 06 17 13:00 262.8 0.0 0.00 91.6 33.1 48.98 11.2
2018 06 17 14:00 262.1 0.0 0.00 92.0 33.3 48.51 11.0
2018 06 17 15:00 261.9 0.0 0.00 92.2 33.4 47.37 10.9
2018 06 17 16:00 261.7 0.0 0.00 92.2 33.5 46.3 11.5
2018 06 17 17:00 261.9 0.0 0.00 91.6 33.1 46.72 11.2
2018 06 17 18:00 262.3 0.0 0.00 90.1 32.3 51.2 8.2
2018 06 17 19:00 262.8 0.0 0.00 89.2 31.8 54.66 6.0
2018 06 17 20:00 264.1 0.0 0.00 85.0 29.5 64.58 3.4
2018 06 17 21:00 265.2 0.0 0.00 81.8 27.6 67.62 4.4
2018 06 17 22:00 265.5 0.0 0.00 79.8 26.6 72.01 4.4
2018 06 17 23:00 266.4 0.0 0.00 78.2 25.7 77.16 3.9
2018 06 17 24:00 266.8 0.0 0.00 77.2 25.1 79.96 4.3
2018 06 18 1:00 267.2 0.0 0.00 76.4 24.7 81.9 4.4
2018 06 18 2:00 267.8 0.0 0.00 75.3 24.1 85.2 3.7
2018 06 18 3:00 268.2 0.0 0.00 74.8 23.8 86.8 4.6
2018 06 18 4:00 268.9 0.0 0.00 74.4 23.6 87.6 4.7
2018 06 18 5:00 268.9 0.0 0.00 73.7 23.2 89.1 4.9
2018 06 18 6:00 268.2 0.0 0.00 75.1 24.0 86.1 6.4
2018 06 18 7:00 267.0 0.0 0.00 78.6 25.9 78.1 9.3
2018 06 18 8:00 266.1 0.0 0.00 82.0 27.8 69.71 10.5
2018 06 18 9:00 265.3 0.0 0.00 84.7 29.3 64.04 11.9
2018 06 18 10:00 265.1 0.0 0.00 86.6 30.3 61.54 11.0
2018 06 18 11:00 264.2 0.0 0.00 88.5 31.4 57.52 10.5
2018 06 18 12:00 263.4 0.0 0.00 89.7 32.0 54.91 9.6
2018 06 18 13:00 262.9 0.0 0.00 91.0 32.8 52.76 8.7
2018 06 18 14:00 262.0 0.0 0.00 92.0 33.4 49.81 8.6
2018 06 18 15:00 261.8 0.0 0.00 92.2 33.4 49.89 8.7
2018 06 18 16:00 261.5 0.0 0.00 92.9 33.8 47.42 9.3
2018 06 18 17:00 261.4 0.0 0.00 92.5 33.6 46.58 10.5
2018 06 18 18:00 261.7 0.0 0.00 91.2 32.9 48.43 10.8
2018 06 18 19:00 262.6 0.0 0.00 89.4 31.9 52.61 7.2
2018 06 18 20:00 263.8 0.0 0.00 85.7 29.9 60.81 4.9
2018 06 18 21:00 264.9 0.0 0.00 83.6 28.7 65.38 4.1
2018 06 18 22:00 265.6 0.0 0.00 80.4 26.9 71.94 3.0
2018 06 18 23:00 266.7 0.0 0.00 77.5 25.3 78.76 3.5
2018 06 18 24:00 267.0 0.0 0.00 76.9 25.0 80.8 4.4
2018 06 19 1:00 267.5 0.0 0.00 76.0 24.4 83.3 4.3
2018 06 19 2:00 267.9 0.0 0.00 75.8 24.3 84.6 6.1
2018 06 19 3:00 267.6 0.0 0.00 76.6 24.8 82.4 6.4
2018 06 19 4:00 268.6 0.0 0.00 74.5 23.6 87.5 5.2
2018 06 19 5:00 269.8 0.0 0.00 73.0 22.8 90.8 4.5
2018 06 19 6:00 268.5 0.0 0.00 74.0 23.3 89.7 5.3
2018 06 19 7:00 267.4 0.0 0.00 77.3 25.1 81.8 6.6
2018 06 19 8:00 266.1 0.0 0.00 80.5 26.9 72.22 8.3
2018 06 19 9:00 265.5 0.0 0.00 82.7 28.1 66.75 10.2
2018 06 19 10:00 265.3 0.0 0.00 82.3 27.9 68.14 10.3
2018 06 19 11:00 264.9 0.0 0.00 85.0 29.4 64.83 10.5
2018 06 19 12:00 264.0 0.0 0.00 87.3 30.8 60.13 11.4
2018 06 19 13:00 269.0 0.0 0.51 85.2 29.5 60.48 15.6
2018 06 19 14:00 Wet 287.6 0.0 0.00 73.7 23.2 84.2 12.1
2018 06 19 15:00 Wet 285.3 0.0 0.00 73.8 23.3 82 8.5
2018 06 19 16:00 266.8 0.0 0.00 75.0 23.9 78.51 10.1
2018 06 19 17:00 271.2 0.0 0.00 73.5 23.1 83.5 8.5
2018 06 19 18:00 270.0 0.0 0.00 72.0 22.2 84.3 7.8
2018 06 19 19:00 266.1 0.0 0.00 73.0 22.8 80.3 3.6
2018 06 19 20:00 268.6 0.0 0.00 70.9 21.6 87 1.8
2018 06 19 21:00 273.4 0.0 0.00 68.5 20.3 92.8 1.4
2018 06 19 22:00 272.6 0.0 0.00 68.0 20.0 95.7 4.0
2018 06 19 23:00 271.4 0.0 0.00 68.6 20.3 94.8 3.2
2018 06 19 24:00 Wet 290.2 0.0 0.00 67.4 19.6 96 3.1
2018 06 20 1:00 Wet 333.8 0.0 0.00 66.0 18.9 98.2 1.2
2018 06 20 2:00 Wet 368.9 0.0 0.00 66.2 19.0 98.4 3.2
2018 06 20 3:00 Wet 361.1 0.0 0.00 66.9 19.4 97.8 3.6
2018 06 20 4:00 Wet 335.1 0.0 0.00 67.8 19.9 95.7 4.9
2018 06 20 5:00 Wet 290.1 0.0 0.00 68.6 20.4 95.2 5.5
2018 06 20 6:00 270.7 0.0 0.00 69.8 21.0 94.5 4.6
2018 06 20 7:00 268.8 0.0 0.00 72.8 22.6 90.6 6.8
2018 06 20 8:00 267.8 0.0 0.00 77.0 25.0 82.1 6.4
2018 06 20 9:00 266.8 0.0 0.00 80.2 26.8 73.99 7.7
2018 06 20 10:00 266.2 0.0 0.00 82.2 27.9 69.38 8.8
2018 06 20 11:00 265.6 0.0 0.00 84.2 29.0 63.93 9.8
2018 06 20 12:00 264.4 0.0 0.00 86.4 30.2 59.38 11.1
2018 06 20 13:00 Wet 299.0 0.0 0.51 82.7 28.1 69.81 8.5
2018 06 20 14:00 277.2 0.0 0.00 82.1 27.8 71.13 8.8
2018 06 20 15:00 Wet 300.2 0.0 0.51 77.0 25.0 81.2 7.1
2018 06 20 16:00 279.1 0.0 0.00 74.5 23.6 86.8 6.0
2018 06 20 17:00 265.6 0.0 0.00 79.4 26.3 80.6 7.0
2018 06 20 18:00 Wet 300.3 0.0 0.51 76.0 24.4 88.4 9.4
2018 06 20 19:00 Wet 290.9 0.0 0.00 72.2 22.3 89.9 11.3
2018 06 20 20:00 277.4 0.0 0.00 71.0 21.7 95.1 8.0
2018 06 20 21:00 270.7 0.0 0.00 70.5 21.4 95.1 8.9
2018 06 20 22:00 271.6 0.0 0.00 68.6 20.3 95.7 7.1
2018 06 20 23:00 276.9 0.0 0.00 67.4 19.7 97.7 5.5
2018 06 20 24:00 275.8 0.0 0.00 67.5 19.7 98.4 5.5
2018 06 21 1:00 278.3 0.0 0.00 67.7 19.9 99 7.7
2018 06 21 2:00 272.5 0.0 0.00 68.2 20.1 98.2 5.7
2018 06 21 3:00 271.2 0.0 0.00 68.5 20.3 96.4 6.3
2018 06 21 4:00 271.9 0.0 0.00 68.1 20.0 94.9 3.6
2018 06 21 5:00 270.6 0.0 0.00 67.6 19.8 91.8 5.1
2018 06 21 6:00 269.5 0.0 0.00 66.4 19.1 87.1 5.8
2018 06 21 7:00 Wet 310.9 0.0 1.02 66.2 19.0 86.7 9.3
2018 06 21 8:00 268.1 0.0 0.00 67.4 19.6 79.9 10.9
2018 06 21 9:00 267.1 0.0 0.00 68.9 20.5 75.27 9.5
2018 06 21 10:00 266.6 0.0 0.00 69.4 20.8 73.58 9.4
2018 06 21 11:00 266.6 0.0 0.00 68.5 20.3 75.6 10.7
2018 06 21 12:00 268.3 0.0 0.00 66.7 19.3 82 10.9
2018 06 21 13:00 Wet 291.9 0.0 0.00 66.5 19.2 83.6 9.6
2018 06 21 14:00 Wet 287.8 0.0 0.00 66.5 19.2 82.3 8.1
2018 06 21 15:00 Wet 314.4 0.0 0.00 66.7 19.3 82.5 4.7
2018 06 21 16:00 Wet 305.7 0.0 1.02 67.6 19.8 79.87 4.1
2018 06 21 17:00 Wet 287.4 0.0 0.00 67.7 19.9 79.82 4.5
2018 06 21 18:00 266.3 0.0 0.00 68.6 20.4 76.19 4.8
2018 06 21 19:00 266.2 0.0 0.00 68.5 20.3 77.14 4.4
2018 06 21 20:00 268.2 0.0 0.00 66.7 19.3 85.1 3.1
2018 06 21 21:00 271.8 0.0 0.00 65.1 18.4 92.3 3.1
2018 06 21 22:00 283.2 0.0 0.00 63.5 17.5 95.1 3.3
2018 06 21 23:00 276.6 0.0 0.00 63.6 17.6 95.6 5.1
2018 06 21 24:00 276.9 0.0 0.00 62.8 17.1 95.9 5.4
2018 06 22 1:00 271.7 0.0 0.00 64.1 17.8 97.2 7.4
2018 06 22 2:00 274.8 0.0 0.00 64.7 18.2 96.2 7.3
2018 06 22 3:00 271.6 0.0 0.00 64.5 18.1 96.4 6.3
2018 06 22 4:00 271.1 0.0 0.00 64.0 17.8 97.2 8.2
2018 06 22 5:00 273.2 0.0 0.00 63.2 17.3 98.3 7.4
2018 06 22 6:00 273.7 0.0 0.00 62.9 17.2 98.5 8.4
2018 06 22 7:00 275.5 0.0 0.00 62.8 17.1 98 7.8
2018 06 22 8:00 Wet 308.2 0.0 0.00 63.1 17.3 98.7 7.5
2018 06 22 9:00 278.2 0.0 0.00 63.3 17.4 97.3 8.9
2018 06 22 10:00 271.3 0.0 0.00 63.7 17.6 95.9 8.2
2018 06 22 11:00 269.3 0.0 0.00 64.7 18.2 91 8.8
2018 06 22 12:00 269.3 0.0 0.00 64.7 18.2 89.7 8.1
2018 06 22 13:00 268.9 0.0 0.00 65.3 18.5 87.8 9.4
2018 06 22 14:00 268.6 0.0 0.00 66.0 18.9 85.2 8.1
2018 06 22 15:00 268.8 0.0 0.00 65.9 18.8 85.8 8.2
2018 06 22 16:00 268.5 0.0 0.00 66.4 19.1 85.1 8.1
2018 06 22 17:00 267.8 0.0 0.00 67.2 19.6 81.7 8.6
2018 06 22 18:00 268.2 0.0 0.00 66.9 19.4 82.1 7.5
2018 06 22 19:00 268.3 0.0 0.00 66.6 19.2 83 6.4
2018 06 22 20:00 268.7 0.0 0.00 65.7 18.7 86.1 3.5
2018 06 22 21:00 269.4 0.0 0.00 64.8 18.3 89.8 2.5
2018 06 22 22:00 270.7 0.0 0.00 64.4 18.0 92 1.4
2018 06 22 23:00 Wet 286.1 0.0 0.00 63.0 17.2 95.2 1.4
2018 06 22 24:00 273.5 0.0 0.00 63.8 17.7 93.6 5.2
2018 06 23 1:00 270.4 0.0 0.00 64.1 17.8 92.8 4.8
2018 06 23 2:00 270.5 0.0 0.00 63.8 17.6 93.5 2.1
2018 06 23 3:00 271.3 0.0 0.00 63.7 17.6 94.6 2.8
2018 06 23 4:00 Wet 314.5 0.0 0.00 62.8 17.1 95.8 2.0
2018 06 23 5:00 Wet 346.8 0.0 0.00 60.7 15.9 98.6 2.3
2018 06 23 6:00 Wet 320.0 0.0 0.00 62.4 16.9 98.3 3.0
2018 06 23 7:00 283.3 0.0 0.00 63.2 17.3 96.3 3.1
2018 06 23 8:00 270.2 0.0 0.00 64.3 17.9 94.3 4.1
2018 06 23 9:00 268.3 0.0 0.00 67.1 19.5 87.3 3.1
2018 06 23 10:00 267.9 0.0 0.00 68.1 20.1 82.8 3.6
2018 06 23 11:00 266.2 0.0 0.00 71.6 22.0 72.17 3.4
2018 06 23 12:00 265.3 0.0 0.00 73.1 22.8 67.36 5.4
2018 06 23 13:00 265.5 0.0 0.00 73.7 23.2 65.17 5.5
2018 06 23 14:00 265.0 0.0 0.00 74.5 23.6 63.77 7.2
2018 06 23 15:00 263.6 0.0 0.00 76.6 24.8 59.6 5.1
2018 06 23 16:00 263.6 0.0 0.00 77.0 25.0 59.73 5.6
2018 06 23 17:00 263.3 0.0 0.00 77.3 25.1 58.82 5.9
2018 06 23 18:00 263.2 0.0 0.00 76.9 24.9 59.49 4.3
2018 06 23 19:00 264.5 0.0 0.00 74.9 23.8 65.4 3.6
2018 06 23 20:00 265.6 0.0 0.00 73.5 23.1 68.36 2.3
2018 06 23 21:00 268.4 0.0 0.00 68.7 20.4 81.4 1.0
2018 06 23 22:00 282.4 0.0 0.00 65.7 18.7 92 0.5
2018 06 23 23:00 Wet 324.6 0.0 0.00 64.1 17.8 95.8 0.7
2018 06 23 24:00 Wet 349.3 0.0 0.00 63.6 17.6 94.5 0.9
2018 06 24 1:00 Wet 371.0 0.0 0.00 63.0 17.2 95.8 0.4
2018 06 24 2:00 Wet 374.5 0.0 0.00 61.6 16.4 97.4 1.2
2018 06 24 3:00 Wet 379.4 0.0 0.00 62.5 17.0 97.4 1.7
2018 06 24 4:00 Wet 370.2 0.0 0.00 62.9 17.1 96.5 3.1
2018 06 24 5:00 Wet 365.8 0.0 0.00 62.8 17.1 96.7 0.9
2018 06 24 6:00 Wet 333.7 0.0 0.00 64.6 18.1 95.3 2.2
2018 06 24 7:00 273.4 0.0 0.00 68.2 20.1 89.9 3.3
2018 06 24 8:00 267.8 0.0 0.00 72.9 22.7 78.99 5.4
2018 06 24 9:00 266.8 0.0 0.00 77.0 25.0 69.88 6.5
2018 06 24 10:00 266.1 0.0 0.00 79.7 26.5 66.19 7.6
2018 06 24 11:00 265.2 0.0 0.00 81.5 27.5 62.06 8.2
2018 06 24 12:00 264.5 0.0 0.00 82.6 28.1 60.74 7.9
2018 06 24 13:00 263.6 0.0 0.00 83.9 28.8 58.87 8.2
2018 06 24 14:00 264.1 0.0 0.00 83.3 28.5 61.21 8.5
2018 06 24 15:00 264.1 0.0 0.00 83.3 28.5 62.51 8.9
2018 06 24 16:00 264.2 0.0 0.00 82.9 28.3 62.55 7.8
2018 06 24 17:00 269.2 0.0 0.00 81.4 27.4 67.3 8.1
2018 06 24 18:00 Wet 321.5 0.0 0.51 73.4 23.0 87.4 4.6
2018 06 24 19:00 275.8 0.0 0.00 74.1 23.4 78.81 3.8
2018 06 24 20:00 268.5 0.0 0.00 72.2 22.3 84.8 3.3
2018 06 24 21:00 272.6 0.0 0.00 69.9 21.0 91.7 2.0
2018 06 24 22:00 272.6 0.0 0.00 68.9 20.5 93.9 3.3
2018 06 24 23:00 271.1 0.0 0.00 68.3 20.2 91.2 2.9
2018 06 24 24:00 276.8 0.0 0.00 67.3 19.6 93.4 2.3
2018 06 25 1:00 272.7 0.0 0.00 67.4 19.7 95.3 5.1
2018 06 25 2:00 273.6 0.0 0.00 67.5 19.7 95.6 4.4
2018 06 25 3:00 274.1 0.0 0.00 67.1 19.5 95.9 5.1
2018 06 25 4:00 Wet 286.7 0.0 0.00 65.8 18.8 96.6 3.6
2018 06 25 5:00 Wet 301.1 0.0 0.00 65.7 18.7 97.6 5.9
2018 06 25 6:00 281.0 0.0 0.00 66.3 19.1 96.5 6.9
2018 06 25 7:00 270.1 0.0 0.00 67.7 19.9 94 6.9
2018 06 25 8:00 269.0 0.0 0.00 70.1 21.2 89 7.0
2018 06 25 9:00 268.5 0.0 0.00 71.7 22.1 85 8.6
2018 06 25 10:00 267.6 0.0 0.00 73.1 22.9 81.6 10.3
2018 06 25 11:00 267.2 0.0 0.00 75.2 24.0 77.06 11.5
2018 06 25 12:00 266.8 0.0 0.00 76.2 24.6 74.99 11.4
2018 06 25 13:00 266.6 0.0 0.00 76.5 24.7 74.5 11.6
2018 06 25 14:00 265.7 0.0 0.00 78.6 25.9 70.84 12.8
2018 06 25 15:00 265.8 0.0 0.00 79.0 26.1 69.93 11.9
2018 06 25 16:00 265.4 0.0 0.00 79.7 26.5 70.12 11.7
2018 06 25 17:00 265.3 0.0 0.00 80.4 26.9 69.63 11.0
2018 06 25 18:00 265.9 0.0 0.00 80.0 26.7 71.51 10.1
2018 06 25 19:00 Wet 294.5 0.0 0.00 74.7 23.7 89.5 7.4
2018 06 25 20:00 274.6 0.0 0.00 73.8 23.2 93.8 5.7
2018 06 25 21:00 270.1 0.0 0.00 73.9 23.3 92.3 6.1
2018 06 25 22:00 271.4 0.0 0.00 72.5 22.5 94.9 4.9
2018 06 25 23:00 Wet 288.9 0.0 0.00 71.2 21.8 96.7 3.8
2018 06 25 24:00 Wet 332.6 0.0 0.00 70.2 21.2 98.1 4.2
2018 06 26 1:00 Wet 358.5 0.0 0.00 69.1 20.6 95.8 3.8
2018 06 26 2:00 Wet 350.4 0.0 0.00 68.2 20.1 93.4 5.0
2018 06 26 3:00 Wet 316.4 0.0 0.00 67.5 19.7 93.6 5.3
2018 06 26 4:00 279.6 0.0 0.00 67.3 19.6 93.3 6.0
2018 06 26 5:00 271.7 0.0 0.00 67.1 19.5 94.2 5.1
2018 06 26 6:00 Wet 296.9 0.0 0.25 67.7 19.9 93.3 6.0
2018 06 26 7:00 Wet 299.9 0.0 0.00 68.7 20.4 93 5.0
2018 06 26 8:00 Wet 307.1 0.0 0.25 69.6 20.9 93 6.8
2018 06 26 9:00 Wet 395.3 0.1 1.27 69.3 20.7 94.5 8.5
2018 06 26 10:00 Wet 442.7 0.1 2.54 68.2 20.1 96.1 8.8
2018 06 26 11:00 Wet 315.0 0.0 0.25 69.0 20.6 95.7 10.3
2018 06 26 12:00 269.0 0.0 0.00 72.0 22.2 84.7 12.2
2018 06 26 13:00 267.4 0.0 0.00 75.4 24.1 77.6 13.0
2018 06 26 14:00 267.5 0.0 0.00 74.7 23.7 81.5 12.7
2018 06 26 15:00 268.1 0.0 0.00 73.2 22.9 83.9 10.7
2018 06 26 16:00 Wet 298.6 0.0 0.00 72.0 22.2 85.8 9.0
2018 06 26 17:00 274.0 0.0 0.00 72.4 22.4 84.8 11.8
2018 06 26 18:00 263.4 0.0 0.00 73.1 22.8 84 9.3
2018 06 26 19:00 263.4 0.0 0.00 73.5 23.0 83.9 8.0
2018 06 26 20:00 261.2 0.0 0.00 71.5 21.9 88.3 6.7
2018 06 26 21:00 273.1 0.0 0.00 69.6 20.9 93 7.1
2018 06 26 22:00 282.5 0.0 0.00 68.7 20.4 95 6.8
2018 06 26 23:00 Wet 309.0 0.0 0.00 67.7 19.9 96.5 5.6
2018 06 26 24:00 Wet 325.7 0.0 0.00 67.1 19.5 98 6.9
2018 06 27 1:00 Wet 316.1 0.0 0.00 68.2 20.1 98 8.3
2018 06 27 2:00 Wet 334.8 0.0 0.00 67.7 19.9 97.8 5.6
2018 06 27 3:00 Wet 357.9 0.0 0.00 66.6 19.2 98.6 3.6
2018 06 27 4:00 Wet 356.9 0.0 0.00 65.9 18.8 99.4 2.8
2018 06 27 5:00 Wet 343.1 0.0 0.00 65.3 18.5 99.8 1.6
2018 06 27 6:00 Wet 306.8 0.0 0.00 65.6 18.7 99.9 2.0
2018 06 27 7:00 271.9 0.0 0.00 67.2 19.6 99.4 4.5
2018 06 27 8:00 269.3 0.0 0.00 71.5 21.9 89.8 4.0
2018 06 27 9:00 268.1 0.0 0.00 75.9 24.4 76.08 3.6
2018 06 27 10:00 267.3 0.0 0.00 78.6 25.9 67.64 4.3
2018 06 27 11:00 265.9 0.0 0.00 80.8 27.1 60.97 4.3
2018 06 27 12:00 264.3 0.0 0.00 82.4 28.0 58.35 4.4
2018 06 27 13:00 263.3 0.0 0.00 83.7 28.7 55.99 2.8
2018 06 27 14:00 262.4 0.0 0.00 84.7 29.3 53.55 4.1
2018 06 27 15:00 262.4 0.0 0.00 85.4 29.7 55.61 6.0
2018 06 27 16:00 262.1 0.0 0.00 85.6 29.8 53.88 5.6
2018 06 27 17:00 261.9 0.0 0.00 85.9 29.9 55.42 4.1
2018 06 27 18:00 263.1 0.0 0.00 85.1 29.5 59.34 4.1
2018 06 27 19:00 263.3 0.0 0.00 84.4 29.1 63.92 1.7
2018 06 27 20:00 265.9 0.0 0.00 80.7 27.1 72.72 2.6
2018 06 27 21:00 268.6 0.0 0.00 76.7 24.9 82.8 2.4
2018 06 27 22:00 Wet 286.0 0.0 0.00 73.7 23.2 92.3 0.2
2018 06 27 23:00 Wet 314.1 0.0 0.00 71.4 21.9 94.9 0.7
2018 06 27 24:00 Wet 341.8 0.0 0.00 70.9 21.6 97.5 0.1
2018 06 28 1:00 Wet 346.5 0.0 0.00 69.7 20.9 96 1.6
2018 06 28 2:00 Wet 347.9 0.0 0.00 69.6 20.9 95.7 2.1
2018 06 28 3:00 Wet 340.1 0.0 0.00 70.2 21.2 95.4 4.2
2018 06 28 4:00 Wet 322.3 0.0 0.00 70.1 21.2 96.1 2.0
2018 06 28 5:00 Wet 294.3 0.0 0.00 70.4 21.3 95.9 3.1
2018 06 28 6:00 278.8 0.0 0.00 71.2 21.8 94.3 4.1
2018 06 28 7:00 277.1 0.0 0.00 72.4 22.4 93 7.8
2018 06 28 8:00 270.4 0.0 0.00 73.6 23.1 92.1 6.4
2018 06 28 9:00 268.9 0.0 0.00 78.2 25.7 82.3 6.6
2018 06 28 10:00 267.4 0.0 0.00 83.5 28.6 72.15 9.1
2018 06 28 11:00 266.5 0.0 0.00 85.8 29.9 70.22 6.9
2018 06 28 12:00 265.1 0.0 0.00 88.2 31.2 67.55 5.2
2018 06 28 13:00 265.0 0.0 0.00 88.4 31.4 69.43 7.3
2018 06 28 14:00 Wet 293.1 0.3 6.86 80.7 27.1 78.48 9.0
2018 06 28 15:00 Wet 332.6 0.2 5.59 68.9 20.5 97.4 7.0
2018 06 28 16:00 277.7 0.0 0.00 68.7 20.4 96.5 5.0
2018 06 28 17:00 269.8 0.0 0.00 70.1 21.2 95.3 3.5
2018 06 28 18:00 268.7 0.0 0.00 73.6 23.1 91.2 3.9
2018 06 28 19:00 269.5 0.0 0.00 74.2 23.4 92 6.3
2018 06 28 20:00 270.3 0.0 0.00 73.1 22.8 93.5 5.1
2018 06 28 21:00 270.2 0.0 0.00 74.0 23.4 89.5 9.5
2018 06 28 22:00 269.5 0.0 0.00 76.4 24.6 83.6 9.3
2018 06 28 23:00 269.5 0.0 0.00 77.3 25.2 85.7 6.5
2018 06 28 24:00 270.1 0.0 0.00 77.5 25.3 87.8 6.2
2018 06 29 1:00 270.1 0.0 0.00 78.7 25.9 87.7 8.3
2018 06 29 2:00 270.7 0.0 0.00 77.6 25.3 90.3 7.5
2018 06 29 3:00 270.3 0.0 0.00 77.8 25.5 89 6.9
2018 06 29 4:00 271.9 0.0 0.00 76.2 24.5 93.1 4.7
2018 06 29 5:00 273.0 0.0 0.00 75.7 24.3 94.1 5.4
2018 06 29 6:00 271.2 0.0 0.00 75.6 24.2 95.3 6.0
2018 06 29 7:00 Wet 551.0 0.0 0.00 78.8 26.0 87.7 6.3
2018 06 29 8:00 Wet 368.3 0.0 0.00 81.7 27.6 79.45 8.0
2018 06 29 9:00 283.5 0.0 0.00 84.7 29.3 69.85 10.8
2018 06 29 10:00 268.7 0.0 0.00 86.8 30.5 64.18 11.2
2018 06 29 11:00 266.7 0.0 0.25 88.3 31.3 61.69 10.6
2018 06 29 12:00 267.7 0.0 0.00 90.0 32.2 60.01 10.0
2018 06 29 13:00 267.4 0.0 0.00 90.6 32.5 57.81 11.1
2018 06 29 14:00 266.7 0.0 0.00 91.7 33.1 56.73 10.7
2018 06 29 15:00 266.1 0.0 0.00 91.8 33.2 53.96 12.1
2018 06 29 16:00 266.0 0.0 0.00 91.7 33.2 55.18 11.6
2018 06 29 17:00 266.2 0.0 0.00 91.1 32.8 56.22 10.8
2018 06 29 18:00 266.5 0.0 0.00 89.9 32.1 58.96 9.5
2018 06 29 19:00 267.1 0.0 0.00 87.6 30.9 63.4 7.4
2018 06 29 20:00 275.7 0.0 0.00 83.5 28.6 74.27 4.7
2018 06 29 21:00 Wet 475.6 0.0 0.00 81.4 27.4 82.9 6.1
2018 06 29 22:00 Wet 480.5 0.0 0.00 80.4 26.9 84.8 7.2
2018 06 29 23:00 Wet 471.3 0.0 0.00 79.3 26.3 86.8 6.9
2018 06 29 24:00 Wet 479.1 0.0 0.00 78.3 25.7 89.2 7.6
2018 06 30 1:00 Wet 509.1 0.0 0.00 77.4 25.2 91.7 6.5
2018 06 30 2:00 Wet 531.8 0.0 0.00 76.6 24.8 93.7 5.9
2018 06 30 3:00 Wet 522.7 0.0 0.00 76.2 24.6 94.2 6.1
2018 06 30 4:00 Wet 527.5 0.0 0.00 75.7 24.3 95 6.2
2018 06 30 5:00 Wet 489.2 0.0 0.00 75.8 24.3 94.2 6.2
2018 06 30 6:00 Wet 556.9 0.0 0.00 76.6 24.8 92.6 5.3
2018 06 30 7:00 Wet 389.8 0.0 0.00 79.1 26.1 87.5 7.3
2018 06 30 8:00 Wet 291.8 0.0 0.00 81.7 27.6 80.2 7.1
2018 06 30 9:00 275.1 0.0 0.00 85.1 29.5 71.19 7.8
2018 06 30 10:00 268.0 0.0 0.00 87.4 30.8 65.56 7.5
2018 06 30 11:00 269.3 0.0 0.00 88.5 31.4 64.68 7.6
2018 06 30 12:00 269.9 0.0 0.00 89.7 32.1 61.32 8.1
2018 06 30 13:00 268.9 0.0 0.00 90.7 32.6 58.41 8.9
2018 06 30 14:00 268.2 0.0 0.00 91.3 33.0 57.66 10.2
2018 06 30 15:00 268.0 0.0 0.00 91.5 33.1 59.01 11.1
2018 06 30 16:00 268.2 0.0 0.00 90.8 32.7 60.07 11.9
2018 06 30 17:00 268.3 0.0 0.00 90.3 32.4 61.39 10.9
2018 06 30 18:00 269.1 0.0 0.00 88.9 31.6 64.02 10.8
2018 06 30 19:00 269.7 0.0 0.00 86.5 30.3 68.27 8.7
2018 06 30 20:00 270.3 0.0 0.00 83.6 28.7 73.14 6.8
2018 06 30 21:00 Wet 302.9 0.0 0.00 81.3 27.4 79.09 4.9
2018 06 30 22:00 Wet 377.2 0.0 0.00 80.2 26.8 82.1 4.9
2018 06 30 23:00 Wet 392.5 0.0 0.00 79.7 26.5 83.1 5.5
2018 06 30 24:00 Wet 341.9 0.0 0.00 79.8 26.5 81.4 7.7
2018 07 01 1:00 Wet 299.8 0.0 0.00 79.1 26.2 78.22 8.1
2018 07 01 2:00 Wet 294.6 0.0 0.00 78.3 25.7 77.82 7.6
2018 07 01 3:00 Wet 323.3 0.0 0.00 77.4 25.2 80.8 4.5
2018 07 01 4:00 Wet 521.9 0.0 0.00 75.0 23.9 87.9 1.2
2018 07 01 5:00 Wet 656.1 0.0 0.00 72.8 22.7 92.9 2.4
2018 07 01 6:00 Wet 432.8 0.0 0.00 73.7 23.2 92 5.7
2018 07 01 7:00 Wet 317.6 0.0 0.00 75.7 24.3 89.1 7.7
2018 07 01 8:00 272.3 0.0 0.00 78.9 26.0 81.2 12.0
2018 07 01 9:00 271.5 0.0 0.00 77.7 25.4 77.15 12.0
2018 07 01 10:00 271.3 0.0 0.00 77.3 25.2 76.98 11.8
2018 07 01 11:00 270.7 0.0 0.00 78.8 26.0 72.07 10.2
2018 07 01 12:00 270.4 0.0 0.00 80.5 26.9 68.97 10.2
2018 07 01 13:00 270.0 0.0 0.00 81.0 27.2 67.83 8.7
2018 07 01 14:00 270.4 0.0 0.00 80.6 27.0 70.38 9.4
2018 07 01 15:00 269.0 0.0 0.00 82.0 27.8 66.87 10.4
2018 07 01 16:00 268.3 0.0 0.00 83.0 28.4 64.85 8.9
2018 07 01 17:00 268.2 0.0 0.00 83.6 28.7 63.24 7.7
2018 07 01 18:00 268.4 0.0 0.00 83.2 28.4 60.64 8.1
2018 07 01 19:00 269.5 0.0 0.00 81.3 27.4 65.33 5.9
2018 07 01 20:00 269.7 0.0 0.00 78.2 25.7 69.6 5.7
2018 07 01 21:00 271.8 0.0 0.00 74.5 23.6 77.84 3.4
2018 07 01 22:00 Wet 285.9 0.0 0.00 72.8 22.7 79.47 3.6
2018 07 01 23:00 Wet 347.8 0.0 0.00 70.8 21.5 82.9 2.2
2018 07 01 24:00 Wet 514.4 0.0 0.00 69.2 20.6 87.1 1.1
2018 07 02 1:00 Wet 608.1 0.0 0.00 67.4 19.7 91.4 2.4
2018 07 02 2:00 Wet 581.5 0.0 0.00 67.2 19.6 91.1 3.1
2018 07 02 3:00 Wet 538.9 0.0 0.00 67.2 19.6 90.1 4.3
2018 07 02 4:00 Wet 603.3 0.0 0.00 66.2 19.0 92.6 3.9
2018 07 02 5:00 Wet 588.9 0.0 0.00 64.8 18.2 94.7 1.5
2018 07 02 6:00 Wet 447.2 0.0 0.00 65.3 18.5 94.2 3.2
2018 07 02 7:00 283.8 0.0 0.00 69.7 20.9 84.2 4.8
2018 07 02 8:00 272.0 0.0 0.00 73.3 22.9 74.28 6.0
2018 07 02 9:00 271.1 0.0 0.00 76.3 24.6 67.29 6.0
2018 07 02 10:00 270.3 0.0 0.00 78.4 25.8 63.37 4.5
2018 07 02 11:00 268.5 0.0 0.00 80.2 26.8 57.81 3.9
2018 07 02 12:00 266.8 0.0 0.00 80.9 27.2 54.59 3.7
2018 07 02 13:00 265.4 0.0 0.00 83.0 28.4 50.94 5.3
2018 07 02 14:00 264.5 0.0 0.00 84.0 28.9 50.17 5.8
2018 07 02 15:00 264.0 0.0 0.00 84.5 29.2 48.96 5.9
2018 07 02 16:00 264.0 0.0 0.00 84.6 29.2 49.27 5.9
2018 07 02 17:00 263.7 0.0 0.00 84.8 29.3 48.37 5.9
2018 07 02 18:00 264.5 0.0 0.00 83.8 28.8 51.19 5.9
2018 07 02 19:00 265.9 0.0 0.00 82.1 27.8 58.02 4.5
2018 07 02 20:00 270.6 0.0 0.00 77.1 25.1 71.67 3.2
2018 07 02 21:00 Wet 289.9 0.0 0.00 73.2 22.9 79.88 4.2
2018 07 02 22:00 Wet 328.3 0.0 0.00 71.5 22.0 83.6 4.3
2018 07 02 23:00 Wet 378.9 0.0 0.00 70.5 21.4 86.7 4.0
2018 07 02 24:00 Wet 369.3 0.0 0.00 71.2 21.8 86.9 4.2
2018 07 03 1:00 Wet 441.4 0.0 0.00 69.8 21.0 91.3 3.0
2018 07 03 2:00 Wet 549.6 0.0 0.00 68.7 20.4 94.4 3.1
2018 07 03 3:00 Wet 531.4 0.0 0.00 68.6 20.4 95.3 3.3
2018 07 03 4:00 Wet 477.6 0.0 0.00 68.6 20.3 96.1 4.1
2018 07 03 5:00 Wet 451.3 0.0 0.00 68.6 20.3 96.8 4.2
2018 07 03 6:00 Wet 359.6 0.0 0.00 69.6 20.9 96.1 3.8
2018 07 03 7:00 274.7 0.0 0.00 73.5 23.1 90.8 6.0
2018 07 03 8:00 272.3 0.0 0.00 77.9 25.5 83.3 9.7
2018 07 03 9:00 271.4 0.0 0.00 81.3 27.4 78.18 10.0
2018 07 03 10:00 270.5 0.0 0.00 84.3 29.1 73.42 9.1
2018 07 03 11:00 269.2 0.0 0.00 85.8 29.9 68.63 8.7
2018 07 03 12:00 267.2 0.0 0.00 88.2 31.2 60.03 9.8
2018 07 03 13:00 266.1 0.0 0.00 89.3 31.8 57.28 9.9
2018 07 03 14:00 265.4 0.0 0.00 89.6 32.0 53.69 8.9
2018 07 03 15:00 265.0 0.0 0.00 89.9 32.2 52.72 7.8
2018 07 03 16:00 264.1 0.0 0.00 91.1 32.9 49.12 8.1
2018 07 03 17:00 263.8 0.0 0.00 90.4 32.5 46.91 8.1
2018 07 03 18:00 265.3 0.0 0.00 87.2 30.6 54.78 4.8
2018 07 03 19:00 266.8 0.0 0.00 84.3 29.0 62.66 4.6
2018 07 03 20:00 268.5 0.0 0.00 82.3 27.9 70.72 4.1
2018 07 03 21:00 271.1 0.0 0.00 79.7 26.5 78.44 3.2
2018 07 03 22:00 272.7 0.0 0.00 77.9 25.5 83 2.7
2018 07 03 23:00 273.5 0.0 0.00 76.4 24.7 87.1 3.6
2018 07 03 24:00 274.4 0.0 0.00 76.0 24.4 88.1 5.9
2018 07 04 1:00 269.6 0.0 0.00 75.1 23.9 91 3.9
2018 07 04 2:00 Wet 286.1 0.0 0.00 74.2 23.5 93.3 1.4
2018 07 04 3:00 Wet 377.1 0.0 0.00 72.9 22.7 96.1 2.3
2018 07 04 4:00 Wet 395.5 0.0 0.00 72.3 22.4 97.4 2.9
2018 07 04 5:00 Wet 427.9 0.0 0.00 71.9 22.2 98.3 2.4
2018 07 04 6:00 Wet 362.8 0.0 0.00 72.8 22.7 98 4.5
2018 07 04 7:00 275.9 0.0 0.00 76.3 24.6 91.8 6.6
2018 07 04 8:00 271.3 0.0 0.00 80.0 26.7 82 8.2
2018 07 04 9:00 269.9 0.0 0.00 83.5 28.6 73.82 7.4
2018 07 04 10:00 268.7 0.0 0.00 86.3 30.2 67.82 6.7
2018 07 04 11:00 267.9 0.0 0.00 87.1 30.6 64.96 7.0
2018 07 04 12:00 266.7 0.0 0.00 88.9 31.6 60.59 7.2
2018 07 04 13:00 266.0 0.0 0.00 89.5 32.0 58.91 8.8
2018 07 04 14:00 265.5 0.0 0.00 90.3 32.4 56.32 10.3
2018 07 04 15:00 264.9 0.0 0.00 90.9 32.7 54.83 9.4
2018 07 04 16:00 264.6 0.0 0.00 91.4 33.0 52.95 8.4
2018 07 04 17:00 264.4 0.0 0.00 91.3 33.0 53.14 8.2
2018 07 04 18:00 265.0 0.0 0.00 90.2 32.4 54.89 6.1
2018 07 04 19:00 265.2 0.0 0.00 90.0 32.2 58.38 2.5
2018 07 04 20:00 266.8 0.0 0.00 86.4 30.2 64.82 4.6
2018 07 04 21:00 268.1 0.0 0.00 81.8 27.7 72.65 3.4
2018 07 04 22:00 270.2 0.0 0.00 79.1 26.2 81.1 1.6
2018 07 04 23:00 271.2 0.0 0.00 78.0 25.6 82.7 0.3
2018 07 04 24:00 271.7 0.0 0.00 76.8 24.9 83.8 0.0
2018 07 05 1:00 271.5 0.0 0.00 75.1 24.0 88.2 0.5
2018 07 05 2:00 270.6 0.0 0.00 74.7 23.7 91.1 0.1
2018 07 05 3:00 270.0 0.0 0.00 74.4 23.6 91.9 0.9
2018 07 05 4:00 273.0 0.0 0.00 76.5 24.7 84.8 4.0
2018 07 05 5:00 272.8 0.0 0.00 76.0 24.5 85.5 4.4
2018 07 05 6:00 272.9 0.0 0.00 75.6 24.2 87.1 2.3
2018 07 05 7:00 271.2 0.0 0.00 76.8 24.9 84.7 3.5
2018 07 05 8:00 269.5 0.0 0.00 80.5 26.9 76.93 4.5
2018 07 05 9:00 268.7 0.0 0.00 84.4 29.1 69.66 3.9
2018 07 05 10:00 267.8 0.0 0.00 87.5 30.8 62.3 4.2
2018 07 05 11:00 267.1 0.0 0.00 88.4 31.4 61.16 5.8
2018 07 05 12:00 265.7 0.0 0.00 90.4 32.5 57.31 5.6
2018 07 05 13:00 280.6 0.0 0.25 88.4 31.4 59.3 10.6
2018 07 05 14:00 Wet 297.6 0.0 0.51 74.9 23.9 88.6 6.7
2018 07 05 15:00 271.8 0.0 0.00 74.9 23.8 91.8 4.1
2018 07 05 16:00 270.3 0.0 0.00 76.6 24.8 86.9 3.3
2018 07 05 17:00 270.0 0.0 0.00 77.5 25.3 84.9 3.1
2018 07 05 18:00 270.2 0.0 0.00 77.9 25.5 83.9 2.4
2018 07 05 19:00 270.0 0.0 0.00 78.7 26.0 82.6 4.1
2018 07 05 20:00 270.8 0.0 0.00 78.3 25.7 84.7 2.7
2018 07 05 21:00 271.4 0.0 0.00 75.2 24.0 94.5 3.1
2018 07 05 22:00 Wet 288.9 0.0 0.00 73.7 23.2 97 3.3
2018 07 05 23:00 Wet 314.3 0.0 0.00 72.8 22.7 97.5 3.4
2018 07 05 24:00 Wet 324.8 0.0 0.00 72.4 22.5 96.6 3.9
2018 07 06 1:00 Wet 295.4 0.0 0.00 73.5 23.1 90.8 5.6
2018 07 06 2:00 273.2 0.0 0.00 72.4 22.4 85.3 5.6
2018 07 06 3:00 272.9 0.0 0.00 70.8 21.5 83.5 5.1
2018 07 06 4:00 272.4 0.0 0.00 69.5 20.8 83.1 4.4
2018 07 06 5:00 272.3 0.0 0.00 68.8 20.4 82.3 3.7
2018 07 06 6:00 271.8 0.0 0.00 68.6 20.3 82.7 3.4
2018 07 06 7:00 270.1 0.0 0.00 70.6 21.4 78.64 5.3
2018 07 06 8:00 269.6 0.0 0.00 71.9 22.2 74.98 6.1
2018 07 06 9:00 269.4 0.0 0.00 73.9 23.3 71.15 7.3
2018 07 06 10:00 268.8 0.0 0.00 76.9 24.9 66.68 7.4
2018 07 06 11:00 268.0 0.0 0.00 79.6 26.4 63.9 7.0
2018 07 06 12:00 266.9 0.0 0.00 81.4 27.4 61.22 7.7
2018 07 06 13:00 265.7 0.0 0.00 83.0 28.3 57.22 7.7
2018 07 06 14:00 264.7 0.0 0.00 84.0 28.9 52.35 7.8
2018 07 06 15:00 264.3 0.0 0.00 84.6 29.2 50.97 8.5
2018 07 06 16:00 264.1 0.0 0.00 84.1 28.9 50.15 8.9
2018 07 06 17:00 264.3 0.0 0.00 83.5 28.6 51.1 8.7
2018 07 06 18:00 264.7 0.0 0.00 81.5 27.5 53.96 8.9
2018 07 06 19:00 265.7 0.0 0.00 78.9 26.0 60.48 7.3
2018 07 06 20:00 267.4 0.0 0.00 74.5 23.6 70.01 5.6
2018 07 06 21:00 269.6 0.0 0.00 70.0 21.1 80.5 4.1
2018 07 06 22:00 270.3 0.0 0.00 68.9 20.5 82.1 5.5
2018 07 06 23:00 270.5 0.0 0.00 67.7 19.9 82.2 5.5
2018 07 06 24:00 270.3 0.0 0.00 64.7 18.2 88.7 4.3
2018 07 07 1:00 273.5 0.0 0.00 62.4 16.9 92.8 3.6
2018 07 07 2:00 Wet 292.3 0.0 0.00 60.9 16.1 92.7 3.3
2018 07 07 3:00 Wet 315.8 0.0 0.00 59.4 15.2 93.1 1.8
2018 07 07 4:00 Wet 335.2 0.0 0.00 58.2 14.6 95 4.2
2018 07 07 5:00 Wet 340.1 0.0 0.00 57.0 13.9 95 3.6
2018 07 07 6:00 Wet 312.5 0.0 0.00 57.7 14.3 93.4 3.8
2018 07 07 7:00 271.9 0.0 0.00 61.4 16.3 86.6 4.3
2018 07 07 8:00 269.9 0.0 0.00 65.1 18.4 78.08 6.2
2018 07 07 9:00 268.9 0.0 0.00 69.5 20.9 68.8 5.7
2018 07 07 10:00 267.9 0.0 0.00 73.1 22.9 59.97 5.7
2018 07 07 11:00 266.6 0.0 0.00 76.2 24.6 53.39 6.7
2018 07 07 12:00 263.5 0.0 0.00 78.0 25.6 47.51 7.3
2018 07 07 13:00 262.4 0.0 0.00 79.5 26.4 46.07 6.4
2018 07 07 14:00 261.8 0.0 0.00 80.8 27.1 43.61 6.6
2018 07 07 15:00 261.3 0.0 0.00 81.2 27.4 43.58 7.0
2018 07 07 16:00 260.9 0.0 0.00 81.5 27.5 40.4 7.0
2018 07 07 17:00 261.1 0.0 0.00 80.9 27.2 45.25 6.7
2018 07 07 18:00 261.6 0.0 0.00 80.0 26.7 49.59 6.2
2018 07 07 19:00 262.7 0.0 0.00 77.6 25.3 53.12 5.6
2018 07 07 20:00 264.5 0.0 0.00 71.7 22.0 65.42 4.6
2018 07 07 21:00 266.2 0.0 0.00 68.6 20.3 69.87 4.4
2018 07 07 22:00 266.6 0.0 0.00 67.0 19.5 72.55 4.6
2018 07 07 23:00 268.4 0.0 0.00 64.7 18.1 79.31 2.5
2018 07 07 24:00 273.7 0.0 0.00 62.9 17.1 83.8 0.9
2018 07 08 1:00 Wet 299.9 0.0 0.00 61.3 16.3 87.8 0.0
2018 07 08 2:00 Wet 337.4 0.0 0.00 59.1 15.0 92.2 0.4
2018 07 08 3:00 Wet 369.0 0.0 0.00 55.8 13.2 96.7 0.0
2018 07 08 4:00 Wet 350.5 0.0 0.00 56.3 13.5 98.6 0.0
2018 07 08 5:00 Wet 352.7 0.0 0.00 55.9 13.3 98.9 0.0
2018 07 08 6:00 Wet 315.9 0.0 0.00 57.5 14.1 98.8 0.0
2018 07 08 7:00 273.2 0.0 0.00 62.9 17.1 86.4 0.8
2018 07 08 8:00 267.0 0.0 0.00 68.8 20.4 72.65 4.6
2018 07 08 9:00 276.0 0.0 0.00 73.7 23.2 58.12 6.1
2018 07 08 10:00 268.9 0.0 0.00 76.0 24.4 50.87 5.8
2018 07 08 11:00 264.3 0.0 0.00 78.2 25.7 46.54 5.1
2018 07 08 12:00 263.2 0.0 0.00 80.2 26.8 42.85 6.3
2018 07 08 13:00 262.1 0.0 0.00 82.3 28.0 41.21 5.9
2018 07 08 14:00 261.4 0.0 0.00 83.7 28.7 37.35 7.4
2018 07 08 15:00 260.8 0.0 0.00 84.9 29.4 36.75 6.6
2018 07 08 16:00 260.8 0.0 0.00 84.9 29.4 39.56 7.6
2018 07 08 17:00 260.7 0.0 0.00 84.8 29.3 40.5 6.6
2018 07 08 18:00 261.1 0.0 0.00 84.1 28.9 42.86 6.3
2018 07 08 19:00 262.1 0.0 0.00 82.1 27.9 51.25 4.1
2018 07 08 20:00 263.7 0.0 0.00 77.4 25.2 62.48 4.1
2018 07 08 21:00 271.4 0.0 0.00 73.9 23.3 71.19 4.3
2018 07 08 22:00 Wet 304.3 0.0 0.00 71.2 21.8 78.81 2.5
2018 07 08 23:00 Wet 321.8 0.0 0.00 69.4 20.8 84.7 0.8
2018 07 08 24:00 Wet 315.5 0.0 0.00 68.6 20.4 87.8 0.0
2018 07 09 1:00 Wet 307.9 0.0 0.00 68.2 20.1 89.2 0.0
2018 07 09 2:00 Wet 323.3 0.0 0.00 66.2 19.0 94.2 0.0
2018 07 09 3:00 Wet 350.6 0.0 0.00 65.3 18.5 96 0.2
2018 07 09 4:00 Wet 387.7 0.0 0.00 65.1 18.4 97.5 0.1
2018 07 09 5:00 Wet 414.7 0.0 0.00 64.0 17.8 97.9 0.0
2018 07 09 6:00 Wet 378.8 0.0 0.00 65.5 18.6 97.6 0.0
2018 07 09 7:00 281.0 0.0 0.00 71.5 21.9 88 3.6
2018 07 09 8:00 268.0 0.0 0.00 77.8 25.4 77.78 6.0
2018 07 09 9:00 267.4 0.0 0.00 81.5 27.5 70.91 6.7
2018 07 09 10:00 266.8 0.0 0.00 84.8 29.3 64.53 6.5
2018 07 09 11:00 265.3 0.0 0.00 87.3 30.7 56.99 6.8
2018 07 09 12:00 263.6 0.0 0.00 88.8 31.6 51.56 6.4
2018 07 09 13:00 262.9 0.0 0.00 90.0 32.2 48.83 5.5
2018 07 09 14:00 262.1 0.0 0.00 91.1 32.8 46.18 5.8
2018 07 09 15:00 261.6 0.0 0.00 92.2 33.4 43.18 6.1
2018 07 09 16:00 261.6 0.0 0.00 92.5 33.6 41.25 6.1
2018 07 09 17:00 261.3 0.0 0.00 92.8 33.8 39.91 4.9
2018 07 09 18:00 261.4 0.0 0.00 92.1 33.4 39.87 4.2
2018 07 09 19:00 262.7 0.0 0.00 89.5 31.9 50.91 3.0
2018 07 09 20:00 265.7 0.0 0.00 83.1 28.4 70.82 3.2
2018 07 09 21:00 267.7 0.0 0.00 79.2 26.2 78.17 3.7
2018 07 09 22:00 268.1 0.0 0.00 77.9 25.5 78.72 3.8
2018 07 09 23:00 268.8 0.0 0.00 75.4 24.1 83.1 3.6
2018 07 09 24:00 269.6 0.0 0.00 74.8 23.8 84.5 3.8
2018 07 10 1:00 273.0 0.0 0.00 73.0 22.8 88.5 1.9
2018 07 10 2:00 Wet 295.9 0.0 0.00 71.6 22.0 92.5 0.7
2018 07 10 3:00 Wet 319.4 0.0 0.00 71.2 21.8 93.6 1.6
2018 07 10 4:00 Wet 345.4 0.0 0.00 70.8 21.6 94.4 1.3
2018 07 10 5:00 Wet 384.6 0.0 0.00 69.8 21.0 95.3 0.6
2018 07 10 6:00 Wet 376.1 0.0 0.00 69.5 20.8 96 0.7
2018 07 10 7:00 279.8 0.0 0.00 75.5 24.2 87 2.7
2018 07 10 8:00 268.3 0.0 0.00 80.1 26.7 73.45 4.3
2018 07 10 9:00 267.3 0.0 0.00 84.4 29.1 65.47 4.6
2018 07 10 10:00 266.4 0.0 0.00 87.9 31.1 55.16 5.6
2018 07 10 11:00 265.1 0.0 0.00 90.0 32.2 48.93 5.6
2018 07 10 12:00 263.5 0.0 0.00 91.3 32.9 44.99 7.4
2018 07 10 13:00 263.0 0.0 0.00 92.6 33.6 44.61 6.5
2018 07 10 14:00 263.0 0.0 0.00 92.1 33.4 47.55 6.4
2018 07 10 15:00 263.2 0.0 0.00 91.7 33.2 52.11 6.0
2018 07 10 16:00 263.1 0.0 0.00 91.8 33.2 51.8 6.6
2018 07 10 17:00 263.0 0.0 0.00 91.0 32.8 51.86 6.6
2018 07 10 18:00 263.1 0.0 0.00 90.2 32.3 51.8 5.1
2018 07 10 19:00 263.5 0.0 0.00 88.5 31.4 55.52 3.5
2018 07 10 20:00 265.7 0.0 0.00 82.5 28.1 68.99 4.2
2018 07 10 21:00 267.2 0.0 0.00 78.7 26.0 77.27 4.4
2018 07 10 22:00 268.1 0.0 0.00 76.9 24.9 80.5 4.0
2018 07 10 23:00 269.0 0.0 0.00 74.9 23.9 83.1 3.3
2018 07 10 24:00 269.7 0.0 0.00 73.6 23.1 85.5 2.9
2018 07 11 1:00 270.5 0.0 0.00 72.7 22.6 86.8 2.3
2018 07 11 2:00 271.6 0.0 0.00 71.9 22.1 88.8 0.9
2018 07 11 3:00 273.1 0.0 0.00 70.7 21.5 91.3 2.6
2018 07 11 4:00 276.8 0.0 0.00 69.7 21.0 94 2.9
2018 07 11 5:00 Wet 295.6 0.0 0.00 68.8 20.4 96.2 2.9
2018 07 11 6:00 Wet 295.4 0.0 0.00 70.0 21.1 95.6 3.9
2018 07 11 7:00 269.9 0.0 0.00 73.1 22.9 87.2 6.3
2018 07 11 8:00 268.1 0.0 0.00 76.9 24.9 73.6 7.6
2018 07 11 9:00 267.4 0.0 0.00 80.1 26.7 66.61 8.2
2018 07 11 10:00 266.8 0.0 0.00 82.8 28.2 62.16 7.7
2018 07 11 11:00 265.9 0.0 0.00 84.7 29.3 57.59 7.7
2018 07 11 12:00 264.2 0.0 0.00 86.6 30.3 52.74 6.9
2018 07 11 13:00 263.2 0.0 0.00 88.5 31.4 47.4 6.7
2018 07 11 14:00 262.6 0.0 0.00 89.7 32.1 44.98 6.8
2018 07 11 15:00 261.7 0.0 0.00 90.6 32.5 41.88 6.6
2018 07 11 16:00 261.2 0.0 0.00 91.2 32.9 36.33 6.8
2018 07 11 17:00 261.0 0.0 0.00 90.7 32.6 38.91 6.8
2018 07 11 18:00 261.9 0.0 0.00 88.6 31.4 45.61 8.0
2018 07 11 19:00 262.9 0.0 0.00 85.8 29.9 50.96 6.3
2018 07 11 20:00 264.1 0.0 0.00 81.3 27.4 52.96 5.6
2018 07 11 21:00 265.0 0.0 0.00 77.6 25.3 59.47 4.9
2018 07 11 22:00 266.1 0.0 0.00 74.2 23.4 67.41 4.3
2018 07 11 23:00 266.7 0.0 0.00 72.2 22.4 68.28 4.5
2018 07 11 24:00 266.8 0.0 0.00 71.1 21.7 65.66 4.1
2018 07 12 1:00 267.2 0.0 0.00 70.4 21.4 70.78 3.8
2018 07 12 2:00 267.8 0.0 0.00 69.3 20.7 76.64 4.1
2018 07 12 3:00 269.2 0.0 0.00 68.0 20.0 81.2 2.6
2018 07 12 4:00 270.6 0.0 0.00 66.5 19.2 85.9 3.3
2018 07 12 5:00 273.5 0.0 0.00 65.5 18.6 89 1.6
2018 07 12 6:00 271.2 0.0 0.00 66.4 19.1 88.5 2.8
2018 07 12 7:00 268.7 0.0 0.00 70.9 21.6 83.6 4.8
2018 07 12 8:00 267.6 0.0 0.00 76.2 24.6 72.94 7.0
2018 07 12 9:00 266.8 0.0 0.00 80.0 26.6 64.37 8.5
2018 07 12 10:00 266.2 0.0 0.00 83.4 28.5 59.34 8.5
2018 07 12 11:00 265.4 0.0 0.00 86.6 30.4 56.46 7.1
2018 07 12 12:00 264.2 0.0 0.00 89.2 31.8 53.85 6.3
2018 07 12 13:00 263.1 0.0 0.00 91.7 33.1 46.98 6.1
2018 07 12 14:00 262.5 0.0 0.00 93.2 34.0 45.05 7.4
2018 07 12 15:00 262.2 0.0 0.00 93.4 34.1 45.78 8.1
2018 07 12 16:00 261.8 0.0 0.00 93.1 34.0 45.26 8.4
2018 07 12 17:00 261.7 0.0 0.00 92.4 33.5 44.51 9.5
2018 07 12 18:00 261.9 0.0 0.00 91.0 32.8 44.81 8.3
2018 07 12 19:00 262.8 0.0 0.00 88.3 31.3 49.08 7.7
2018 07 12 20:00 264.5 0.0 0.00 83.9 28.8 58.59 5.2
2018 07 12 21:00 265.9 0.0 0.00 80.0 26.7 68.16 5.5
2018 07 12 22:00 266.7 0.0 0.00 77.4 25.2 70.85 4.2
2018 07 12 23:00 267.8 0.0 0.00 74.7 23.7 76.41 3.2
2018 07 12 24:00 270.4 0.0 0.00 72.6 22.6 83.7 0.7
2018 07 13 1:00 273.8 0.0 0.00 70.2 21.2 89.4 1.3
2018 07 13 2:00 281.5 0.0 0.00 69.6 20.9 91.3 2.8
2018 07 13 3:00 279.2 0.0 0.00 68.9 20.5 92.4 3.2
2018 07 13 4:00 281.1 0.0 0.00 69.7 20.9 91.6 4.0
2018 07 13 5:00 272.2 0.0 0.00 70.1 21.2 90.9 4.1
2018 07 13 6:00 271.4 0.0 0.00 70.7 21.5 90.5 4.9
2018 07 13 7:00 269.5 0.0 0.00 73.6 23.1 84.5 6.0
2018 07 13 8:00 268.3 0.0 0.00 78.2 25.6 74.63 8.4
2018 07 13 9:00 267.3 0.0 0.00 82.8 28.2 66.18 8.1
2018 07 13 10:00 266.4 0.0 0.00 86.9 30.5 59.72 8.3
2018 07 13 11:00 265.3 0.0 0.00 90.3 32.4 53.4 8.2
2018 07 13 12:00 263.9 0.0 0.00 93.3 34.0 47.28 8.9
2018 07 13 13:00 267.3 0.0 0.00 94.4 34.7 44.38 9.1
2018 07 13 14:00 276.4 0.0 0.00 91.1 32.9 49.16 7.4
2018 07 13 15:00 263.4 0.0 0.00 92.9 33.9 46.6 5.8
2018 07 13 16:00 262.7 0.0 0.00 95.4 35.2 40.09 10.6
2018 07 13 17:00 265.9 0.0 0.00 94.3 34.6 41.44 9.1
2018 07 13 18:00 272.7 0.0 0.00 81.4 27.5 72.49 6.5
2018 07 13 19:00 266.9 0.0 0.00 78.4 25.8 79.02 4.0
2018 07 13 20:00 272.7 0.0 0.00 76.2 24.5 87 2.9
2018 07 13 21:00 271.3 0.0 0.00 75.1 24.0 86.7 5.3
2018 07 13 22:00 272.4 0.0 0.00 73.4 23.0 90.8 3.3
2018 07 13 23:00 272.9 0.0 0.00 73.0 22.8 91.5 4.0
2018 07 13 24:00 273.3 0.0 0.00 72.1 22.3 93 1.9
2018 07 14 1:00 276.4 0.0 0.00 71.4 21.9 94.3 5.2
2018 07 14 2:00 274.4 0.0 0.00 71.2 21.8 93.7 2.7
2018 07 14 3:00 Wet 290.0 0.0 0.00 70.0 21.1 96.1 1.7
2018 07 14 4:00 Wet 332.8 0.0 0.00 68.8 20.5 97.8 0.6
2018 07 14 5:00 Wet 355.2 0.0 0.00 67.8 19.9 98.6 1.1
2018 07 14 6:00 Wet 353.2 0.0 0.00 68.5 20.3 99.1 0.9
2018 07 14 7:00 Wet 300.6 0.0 0.00 72.4 22.4 93.9 4.5
2018 07 14 8:00 282.0 0.0 0.00 76.2 24.6 85.2 4.1
2018 07 14 9:00 268.0 0.0 0.00 81.0 27.2 72.7 3.2
2018 07 14 10:00 266.8 0.0 0.00 84.8 29.3 64.21 4.3
2018 07 14 11:00 265.5 0.0 0.00 87.7 31.0 57.24 3.4
2018 07 14 12:00 264.4 0.0 0.00 88.9 31.6 55.01 5.0
2018 07 14 13:00 264.1 0.0 0.00 89.5 32.0 54.24 6.1
2018 07 14 14:00 264.5 0.0 0.00 87.6 30.9 57.41 6.8
2018 07 14 15:00 266.4 0.0 0.00 76.6 24.8 83 12.4
2018 07 14 16:00 Wet 299.1 0.0 0.51 74.6 23.7 90.1 8.5
2018 07 14 17:00 Wet 321.4 0.1 2.79 76.1 24.5 91.8 5.7
2018 07 14 18:00 269.0 0.0 0.00 78.2 25.6 87.7 3.7
2018 07 14 19:00 269.2 0.0 0.00 77.4 25.2 86.2 4.2
2018 07 14 20:00 269.3 0.0 0.00 76.0 24.4 89.2 3.8
2018 07 14 21:00 272.0 0.0 0.00 73.8 23.2 95.4 4.6
2018 07 14 22:00 Wet 289.4 0.0 0.00 73.2 22.9 98.3 5.1
2018 07 14 23:00 Wet 309.2 0.0 0.00 72.9 22.7 98.7 5.1
2018 07 14 24:00 Wet 337.4 0.0 0.00 72.1 22.3 99 2.5
2018 07 15 1:00 Wet 366.7 0.0 0.00 71.5 21.9 99.3 0.2
2018 07 15 2:00 Wet 392.8 0.0 0.00 70.1 21.2 99.6 0.6
2018 07 15 3:00 Wet 384.0 0.0 0.00 69.8 21.0 99.9 1.7
2018 07 15 4:00 Wet 356.4 0.0 0.00 69.7 20.9 99.9 1.3
2018 07 15 5:00 Wet 357.0 0.0 0.00 69.4 20.8 99.9 3.0
2018 07 15 6:00 Wet 344.7 0.0 0.00 69.2 20.7 99.9 2.4
2018 07 15 7:00 Wet 295.9 0.0 0.00 71.2 21.8 99.9 1.1
2018 07 15 8:00 271.4 0.0 0.00 73.7 23.2 98.4 1.5
2018 07 15 9:00 269.7 0.0 0.00 78.1 25.6 87 1.6
2018 07 15 10:00 268.5 0.0 0.00 82.8 28.2 74.01 2.1
2018 07 15 11:00 267.4 0.0 0.00 82.9 28.3 71.56 4.0
2018 07 15 12:00 Wet 295.2 0.0 0.25 82.9 28.3 72.26 6.1
2018 07 15 13:00 276.6 0.0 0.00 83.4 28.6 72.94 5.3
2018 07 15 14:00 264.5 0.0 0.00 86.6 30.4 64.07 6.3
2018 07 15 15:00 264.5 0.0 0.00 86.6 30.3 63.97 6.7
2018 07 15 16:00 263.3 0.0 0.00 88.1 31.2 59.5 5.6
2018 07 15 17:00 263.1 0.0 0.00 89.0 31.7 54.97 3.2
2018 07 15 18:00 264.4 0.0 0.00 86.3 30.1 64.32 7.0
2018 07 15 19:00 265.3 0.0 0.00 84.1 28.9 69.69 4.6
2018 07 15 20:00 267.9 0.0 0.00 80.2 26.8 80.6 2.3
2018 07 15 21:00 269.4 0.0 0.00 77.8 25.4 86 2.5
2018 07 15 22:00 270.8 0.0 0.00 76.3 24.6 88.1 0.9
2018 07 15 23:00 Wet 284.1 0.0 0.00 74.6 23.7 93.2 0.9
2018 07 15 24:00 Wet 315.3 0.0 0.00 72.8 22.7 95.6 1.1
2018 07 16 1:00 Wet 348.5 0.0 0.00 71.8 22.1 96.3 2.1
2018 07 16 2:00 Wet 379.0 0.0 0.00 71.4 21.9 96.1 1.6
2018 07 16 3:00 Wet 430.4 0.0 0.00 70.5 21.4 97.7 1.7
2018 07 16 4:00 Wet 485.5 0.0 0.00 69.8 21.0 98.1 2.1
2018 07 16 5:00 Wet 500.9 0.0 0.00 69.0 20.6 98.4 1.2
2018 07 16 6:00 Wet 457.8 0.0 0.00 70.1 21.2 95.3 2.4
2018 07 16 7:00 Wet 322.7 0.0 0.00 74.2 23.5 89.1 4.4
2018 07 16 8:00 269.1 0.0 0.00 79.5 26.4 78.25 4.2
2018 07 16 9:00 268.0 0.0 0.00 83.4 28.5 68.81 4.1
2018 07 16 10:00 266.8 0.0 0.00 85.4 29.6 62.15 5.5
2018 07 16 11:00 266.5 0.0 0.00 86.4 30.2 59.93 7.0
2018 07 16 12:00 265.5 0.0 0.00 86.6 30.4 59.42 7.5
2018 07 16 13:00 264.6 0.0 0.00 88.3 31.3 53.24 7.2
2018 07 16 14:00 263.8 0.0 0.00 89.9 32.2 49.31 9.0
2018 07 16 15:00 262.9 0.0 0.00 90.8 32.7 43.94 8.9
2018 07 16 16:00 263.1 0.0 0.00 89.3 31.8 49.67 9.0
2018 07 16 17:00 263.2 0.0 0.00 88.3 31.3 52.01 8.5
2018 07 16 18:00 263.3 0.0 0.00 87.1 30.6 55.74 7.6
2018 07 16 19:00 264.1 0.0 0.00 84.9 29.4 60.35 6.5
2018 07 16 20:00 265.8 0.0 0.00 80.7 27.1 68.11 4.8
2018 07 16 21:00 266.6 0.0 0.00 77.0 25.0 68.74 4.5
2018 07 16 22:00 266.8 0.0 0.00 73.3 23.0 68.63 3.1
2018 07 16 23:00 268.5 0.0 0.00 69.5 20.8 76.37 1.5
2018 07 16 24:00 269.4 0.0 0.00 67.9 19.9 79.91 0.9
2018 07 17 1:00 271.1 0.0 0.00 66.0 18.9 84.7 1.0
2018 07 17 2:00 283.7 0.0 0.00 64.8 18.2 90.6 0.0
2018 07 17 3:00 278.4 0.0 0.00 64.2 17.9 89.2 1.5
2018 07 17 4:00 275.0 0.0 0.00 63.7 17.6 89.3 2.6
2018 07 17 5:00 282.4 0.0 0.00 62.8 17.1 91 0.3
2018 07 17 6:00 Wet 286.5 0.0 0.00 63.0 17.2 92.3 0.5
2018 07 17 7:00 268.9 0.0 0.00 68.1 20.0 82.8 3.7
2018 07 17 8:00 267.5 0.0 0.00 72.8 22.7 68.65 6.0
2018 07 17 9:00 266.1 0.0 0.00 77.0 25.0 56.64 8.1
2018 07 17 10:00 264.9 0.0 0.00 79.4 26.3 50.93 7.0
2018 07 17 11:00 264.0 0.0 0.00 80.6 27.0 49.12 6.6
2018 07 17 12:00 263.4 0.0 0.00 81.0 27.2 48.83 6.2
2018 07 17 13:00 263.3 0.0 0.00 81.5 27.5 48.05 6.5
2018 07 17 14:00 262.9 0.0 0.00 82.3 28.0 49.09 6.3
2018 07 17 15:00 262.0 0.0 0.00 83.3 28.5 43.65 6.6
2018 07 17 16:00 262.4 0.0 0.00 83.0 28.3 44.07 6.4
2018 07 17 17:00 263.2 0.0 0.00 81.9 27.7 48.21 5.6
2018 07 17 18:00 263.4 0.0 0.00 81.0 27.2 49.53 5.0
2018 07 17 19:00 264.6 0.0 0.00 78.5 25.8 58.3 2.1
2018 07 17 20:00 265.8 0.0 0.00 75.9 24.4 64.36 2.2
2018 07 17 21:00 267.1 0.0 0.00 72.5 22.5 73.78 1.4
2018 07 17 22:00 267.8 0.0 0.00 70.9 21.6 73.72 2.9
2018 07 17 23:00 268.3 0.0 0.00 69.2 20.6 75.92 2.6
2018 07 17 24:00 268.6 0.0 0.00 68.7 20.4 80.2 1.1
2018 07 18 1:00 269.2 0.0 0.00 68.0 20.0 83.1 2.3
2018 07 18 2:00 269.6 0.0 0.00 67.4 19.7 85.7 1.9
2018 07 18 3:00 270.3 0.0 0.00 67.1 19.5 88 3.3
2018 07 18 4:00 276.1 0.0 0.00 66.0 18.9 90.5 1.2
2018 07 18 5:00 Wet 300.7 0.0 0.00 64.3 17.9 94.4 0.2
2018 07 18 6:00 Wet 324.6 0.0 0.00 63.6 17.6 96.2 1.8
2018 07 18 7:00 Wet 289.6 0.0 0.00 67.9 19.9 89 4.9
2018 07 18 8:00 267.6 0.0 0.00 74.1 23.4 71.28 7.1
2018 07 18 9:00 266.6 0.0 0.00 78.5 25.9 60.32 8.0
2018 07 18 10:00 265.7 0.0 0.00 81.5 27.5 54.97 8.0
2018 07 18 11:00 264.7 0.0 0.00 82.4 28.0 52.68 9.1
2018 07 18 12:00 263.8 0.0 0.00 83.2 28.4 51.6 9.1
2018 07 18 13:00 263.4 0.0 0.00 84.1 28.9 50.37 9.4
2018 07 18 14:00 263.0 0.0 0.00 85.1 29.5 44.26 10.3
2018 07 18 15:00 262.5 0.0 0.00 85.0 29.5 44.14 8.5
2018 07 18 16:00 263.2 0.0 0.00 83.7 28.7 46.36 8.2
2018 07 18 17:00 263.5 0.0 0.00 82.7 28.2 51.18 8.4
2018 07 18 18:00 264.1 0.0 0.00 81.4 27.4 54.44 8.1
2018 07 18 19:00 264.6 0.0 0.00 80.2 26.8 58.25 7.7
2018 07 18 20:00 265.3 0.0 0.00 78.6 25.9 61.01 8.2
2018 07 18 21:00 265.8 0.0 0.00 76.6 24.8 68.27 8.5
2018 07 18 22:00 266.3 0.0 0.00 75.0 23.9 72.53 8.2
2018 07 18 23:00 266.8 0.0 0.00 74.5 23.6 73.21 9.3
2018 07 18 24:00 267.2 0.0 0.00 72.4 22.4 79.56 8.1
2018 07 19 1:00 267.5 0.0 0.00 71.1 21.7 81.6 7.3
2018 07 19 2:00 267.6 0.0 0.00 71.0 21.6 78.06 7.3
2018 07 19 3:00 267.6 0.0 0.00 69.9 21.0 79.32 5.7
2018 07 19 4:00 267.9 0.0 0.00 69.4 20.8 80.1 5.2
2018 07 19 5:00 267.7 0.0 0.00 69.0 20.6 80.1 5.5
2018 07 19 6:00 283.4 0.0 0.25 68.8 20.5 79.23 7.5
2018 07 19 7:00 270.8 0.0 0.00 67.4 19.7 86.3 8.5
2018 07 19 8:00 268.2 0.0 0.00 69.0 20.6 83 8.6
2018 07 19 9:00 Wet 371.1 0.3 8.64 68.1 20.1 89.6 4.2
2018 07 19 10:00 Wet 285.4 0.0 0.00 70.5 21.4 94.7 7.5
2018 07 19 11:00 268.2 0.0 0.00 75.1 23.9 84.1 11.3
2018 07 19 12:00 267.4 0.0 0.00 77.3 25.2 78.35 11.7
2018 07 19 13:00 265.8 0.0 0.00 82.3 28.0 63.77 14.2
2018 07 19 14:00 265.9 0.0 0.00 81.5 27.5 64.81 12.3
2018 07 19 15:00 264.9 0.0 0.00 84.9 29.4 63.48 10.4
2018 07 19 16:00 264.7 0.0 0.00 86.3 30.1 62.22 11.1
2018 07 19 17:00 264.5 0.0 0.00 86.8 30.5 61.25 11.3
2018 07 19 18:00 265.0 0.0 0.00 85.2 29.5 64.17 12.6
2018 07 19 19:00 265.7 0.0 0.00 82.3 27.9 66.32 13.8
2018 07 19 20:00 266.5 0.0 0.00 79.1 26.1 71.65 10.2
2018 07 19 21:00 267.7 0.0 0.00 75.2 24.0 81 6.2
2018 07 19 22:00 268.6 0.0 0.00 72.6 22.5 85.2 7.2
2018 07 19 23:00 269.2 0.0 0.00 68.7 20.4 87.3 6.2
2018 07 19 24:00 270.4 0.0 0.00 67.5 19.7 91.1 5.6
2018 07 20 1:00 283.0 0.0 0.00 67.2 19.5 95.7 5.8
2018 07 20 2:00 282.8 0.0 0.00 69.0 20.5 94.4 8.1
2018 07 20 3:00 282.9 0.0 0.00 69.0 20.6 94.6 8.7
2018 07 20 4:00 276.8 0.0 0.00 69.3 20.7 91.7 8.8
2018 07 20 5:00 270.8 0.0 0.00 69.0 20.6 87.7 9.0
2018 07 20 6:00 269.8 0.0 0.00 68.9 20.5 82.4 9.0
2018 07 20 7:00 268.4 0.0 0.00 70.5 21.4 75.49 9.3
2018 07 20 8:00 267.5 0.0 0.00 73.5 23.1 65.77 12.3
2018 07 20 9:00 266.8 0.0 0.00 77.2 25.1 58.89 13.0
2018 07 20 10:00 266.2 0.0 0.00 80.0 26.6 53.54 14.4
2018 07 20 11:00 265.3 0.0 0.00 82.2 27.9 49.35 15.4
2018 07 20 12:00 264.0 0.0 0.00 84.0 28.9 45.38 16.5
2018 07 20 13:00 263.4 0.0 0.00 84.9 29.4 43.84 17.2
2018 07 20 14:00 263.1 0.0 0.00 85.7 29.9 43.8 14.7
2018 07 20 15:00 263.1 0.0 0.00 86.1 30.0 43.08 16.6
2018 07 20 16:00 262.6 0.0 0.00 85.9 29.9 42.39 16.9
2018 07 20 17:00 262.5 0.0 0.00 85.5 29.7 45.57 15.3
2018 07 20 18:00 262.9 0.0 0.00 83.7 28.7 48.37 14.7
2018 07 20 19:00 263.3 0.0 0.00 80.9 27.1 53.94 11.7
2018 07 20 20:00 264.5 0.0 0.00 76.5 24.7 61.58 8.3
2018 07 20 21:00 266.7 0.0 0.00 70.7 21.5 76.12 4.4
2018 07 20 22:00 269.0 0.0 0.00 67.8 19.9 84.7 3.3
2018 07 20 23:00 270.3 0.0 0.00 67.4 19.6 87 4.6
2018 07 20 24:00 269.7 0.0 0.00 67.7 19.8 86.1 5.6
2018 07 21 1:00 269.7 0.0 0.00 67.2 19.6 86.9 6.2
2018 07 21 2:00 269.7 0.0 0.00 66.7 19.3 88.2 6.8
2018 07 21 3:00 269.7 0.0 0.00 66.8 19.3 87.7 7.2
2018 07 21 4:00 269.8 0.0 0.00 66.5 19.2 87.8 7.2
2018 07 21 5:00 270.0 0.0 0.00 65.8 18.8 89.9 7.9
2018 07 21 6:00 269.5 0.0 0.00 65.9 18.9 89.3 7.9
2018 07 21 7:00 268.6 0.0 0.00 68.4 20.2 83.4 10.0
2018 07 21 8:00 267.8 0.0 0.00 71.2 21.8 76.19 11.5
2018 07 21 9:00 266.9 0.0 0.00 74.2 23.4 68.8 11.4
2018 07 21 10:00 266.2 0.0 0.00 76.9 25.0 61.58 12.4
2018 07 21 11:00 265.3 0.0 0.00 79.3 26.3 56 13.1
2018 07 21 12:00 264.4 0.0 0.00 80.4 26.9 54.7 11.4
2018 07 21 13:00 264.1 0.0 0.00 80.3 26.9 57.08 9.7
2018 07 21 14:00 263.8 0.0 0.00 81.1 27.3 56.31 11.1
2018 07 21 15:00 263.3 0.0 0.00 82.2 27.9 54.09 10.1
2018 07 21 16:00 263.1 0.0 0.00 83.5 28.6 50.18 10.5
2018 07 21 17:00 263.4 0.0 0.00 82.7 28.2 50.51 9.7
2018 07 21 18:00 263.3 0.0 0.00 82.8 28.2 49.67 11.0
2018 07 21 19:00 263.6 0.0 0.00 80.7 27.1 53.28 8.7
2018 07 21 20:00 264.9 0.0 0.00 77.3 25.2 62.5 5.8
2018 07 21 21:00 266.5 0.0 0.00 73.0 22.8 73.7 4.0
2018 07 21 22:00 267.6 0.0 0.00 70.7 21.5 79.58 5.2
2018 07 21 23:00 267.9 0.0 0.00 69.8 21.0 82.1 5.4
2018 07 21 24:00 268.6 0.0 0.00 68.6 20.3 85.1 5.5
2018 07 22 1:00 268.8 0.0 0.00 68.2 20.1 85.6 6.1
2018 07 22 2:00 269.0 0.0 0.00 67.8 19.9 85.9 6.6
2018 07 22 3:00 269.2 0.0 0.00 66.8 19.4 88.3 6.6
2018 07 22 4:00 271.1 0.0 0.00 65.2 18.4 91.9 5.6
2018 07 22 5:00 281.9 0.0 0.00 63.4 17.5 95.2 4.9
2018 07 22 6:00 Wet 285.1 0.0 0.00 64.0 17.8 94.3 6.4
2018 07 22 7:00 269.5 0.0 0.00 66.2 19.0 88.4 8.2
2018 07 22 8:00 268.3 0.0 0.00 69.2 20.6 80.4 8.3
2018 07 22 9:00 267.6 0.0 0.00 70.9 21.6 76.01 8.9
2018 07 22 10:00 266.9 0.0 0.00 73.5 23.1 68.56 9.6
2018 07 22 11:00 266.0 0.0 0.00 75.8 24.3 63.18 9.1
2018 07 22 12:00 265.0 0.0 0.00 76.6 24.8 62.12 9.2
2018 07 22 13:00 264.5 0.0 0.00 77.4 25.2 61.3 8.6
2018 07 22 14:00 264.0 0.0 0.00 76.9 24.9 62.3 9.7
2018 07 22 15:00 263.6 0.0 0.00 77.6 25.3 58.52 8.2
2018 07 22 16:00 263.9 0.0 0.00 78.0 25.6 58.43 8.5
2018 07 22 17:00 264.2 0.0 0.00 77.7 25.4 58.9 7.7
2018 07 22 18:00 264.2 0.0 0.00 77.5 25.3 58.27 7.8
2018 07 22 19:00 265.3 0.0 0.00 75.9 24.4 63.46 7.9
2018 07 22 20:00 266.1 0.0 0.00 74.0 23.4 70.18 7.5
2018 07 22 21:00 266.3 0.0 0.00 72.4 22.5 73.53 6.3
2018 07 22 22:00 267.0 0.0 0.00 71.2 21.8 77.71 5.0
2018 07 22 23:00 267.6 0.0 0.00 70.1 21.2 81.6 3.7
2018 07 22 24:00 268.5 0.0 0.00 68.6 20.4 85.8 3.8
2018 07 23 1:00 270.1 0.0 0.00 66.8 19.3 90.9 4.2
2018 07 23 2:00 278.4 0.0 0.00 65.4 18.6 93.8 2.7
2018 07 23 3:00 Wet 310.7 0.0 0.00 63.2 17.3 96.9 3.5
2018 07 23 4:00 Wet 350.5 0.0 0.00 62.5 17.0 98.7 4.2
2018 07 23 5:00 Wet 389.7 0.0 0.00 62.3 16.8 98.7 3.8
2018 07 23 6:00 Wet 409.5 0.0 0.00 62.5 16.9 99 3.8
2018 07 23 7:00 Wet 364.0 0.0 0.00 66.0 18.9 94 4.6
2018 07 23 8:00 278.3 0.0 0.00 70.2 21.2 85.1 5.4
2018 07 23 9:00 267.9 0.0 0.00 74.6 23.7 72.61 5.5
2018 07 23 10:00 266.6 0.0 0.00 78.1 25.6 61.49 6.7
2018 07 23 11:00 265.0 0.0 0.00 81.0 27.2 52.65 7.8
2018 07 23 12:00 264.1 0.0 0.00 81.8 27.6 51.94 8.4
2018 07 23 13:00 263.6 0.0 0.00 83.1 28.4 50.57 7.5
2018 07 23 14:00 262.8 0.0 0.00 85.3 29.6 44.43 7.9
2018 07 23 15:00 262.1 0.0 0.00 85.9 30.0 42.22 7.6
2018 07 23 16:00 261.5 0.0 0.00 87.1 30.6 39.57 8.1
2018 07 23 17:00 261.4 0.0 0.00 86.7 30.4 40.22 8.5
2018 07 23 18:00 262.4 0.0 0.00 84.3 29.1 45.06 6.3
2018 07 23 19:00 262.8 0.0 0.00 82.4 28.0 50.21 4.9
2018 07 23 20:00 264.3 0.0 0.00 78.2 25.7 58.28 3.1
2018 07 23 21:00 265.5 0.0 0.00 74.8 23.8 64.66 3.7
2018 07 23 22:00 266.8 0.0 0.00 70.3 21.3 75.42 1.1
2018 07 23 23:00 269.1 0.0 0.00 66.9 19.4 88.6 0.2
2018 07 23 24:00 270.4 0.0 0.00 65.8 18.8 88.9 0.5
2018 07 24 1:00 270.0 0.0 0.00 65.2 18.4 86.6 1.6
2018 07 24 2:00 270.1 0.0 0.00 65.1 18.4 87.9 0.4
2018 07 24 3:00 280.9 0.0 0.00 63.9 17.7 92.4 0.9
2018 07 24 4:00 283.7 0.0 0.00 64.0 17.8 91.6 1.1
2018 07 24 5:00 Wet 284.4 0.0 0.00 63.8 17.7 92.8 2.8
2018 07 24 6:00 Wet 286.8 0.0 0.00 64.6 18.1 94 2.8
2018 07 24 7:00 271.7 0.0 0.00 69.2 20.6 90.1 3.7
2018 07 24 8:00 268.6 0.0 0.00 73.3 22.9 82.5 7.4
2018 07 24 9:00 267.6 0.0 0.00 77.1 25.0 73.04 5.6
2018 07 24 10:00 266.3 0.0 0.00 80.3 26.9 64.31 4.6
2018 07 24 11:00 265.6 0.0 0.00 82.1 27.8 62.25 7.4
2018 07 24 12:00 264.3 0.0 0.00 83.6 28.7 57.4 7.3
2018 07 24 13:00 263.4 0.0 0.00 85.5 29.7 49.77 6.7
2018 07 24 14:00 262.8 0.0 0.00 86.6 30.3 42.82 7.6
2018 07 24 15:00 261.5 0.0 0.00 88.1 31.2 36.32 8.9
2018 07 24 16:00 260.9 0.0 0.00 88.3 31.3 33.42 8.5
2018 07 24 17:00 260.4 0.0 0.00 88.5 31.4 31.12 8.7
2018 07 24 18:00 260.5 0.0 0.00 86.3 30.2 33.06 8.9
2018 07 24 19:00 261.4 0.0 0.00 82.5 28.1 38.4 7.0
2018 07 24 20:00 262.9 0.0 0.00 76.8 24.9 46.41 4.4
2018 07 24 21:00 264.2 0.0 0.00 72.4 22.4 57.32 3.7
2018 07 24 22:00 266.2 0.0 0.00 68.1 20.1 68.88 3.1
2018 07 24 23:00 267.3 0.0 0.00 64.0 17.8 79.12 1.7
2018 07 24 24:00 268.2 0.0 0.00 63.2 17.3 79.76 1.9
2018 07 25 1:00 269.1 0.0 0.00 61.9 16.6 81.8 1.8
2018 07 25 2:00 269.7 0.0 0.00 61.5 16.4 85.3 0.1
2018 07 25 3:00 Wet 285.9 0.0 0.00 60.3 15.7 92.6 0.2
2018 07 25 4:00 Wet 320.5 0.0 0.00 59.6 15.3 93.6 0.3
2018 07 25 5:00 Wet 341.6 0.0 0.00 58.8 14.9 92.4 0.3
2018 07 25 6:00 Wet 345.1 0.0 0.00 58.9 14.9 91.4 2.1
2018 07 25 7:00 278.2 0.0 0.00 65.8 18.8 80.9 3.2
2018 07 25 8:00 266.8 0.0 0.00 72.0 22.2 68.88 4.2
2018 07 25 9:00 265.1 0.0 0.00 77.7 25.4 54.87 5.2
2018 07 25 10:00 263.9 0.0 0.00 80.2 26.8 47.99 4.0
2018 07 25 11:00 263.5 0.0 0.00 81.5 27.5 49.35 5.2
2018 07 25 12:00 263.0 0.0 0.00 82.3 27.9 48.74 5.2
2018 07 25 13:00 261.8 0.0 0.00 84.7 29.3 44.25 4.8
2018 07 25 14:00 261.5 0.0 0.00 85.8 29.9 42.31 5.8
2018 07 25 15:00 261.9 0.0 0.00 85.3 29.6 42.35 6.0
2018 07 25 16:00 262.3 0.0 0.00 84.5 29.1 41.82 6.2
2018 07 25 17:00 262.0 0.0 0.00 84.6 29.2 40.3 6.1
2018 07 25 18:00 262.9 0.0 0.00 83.7 28.7 49.19 4.1
2018 07 25 19:00 263.3 0.0 0.00 82.9 28.3 46.79 3.6
2018 07 25 20:00 264.2 0.0 0.00 77.7 25.4 58.8 3.4
2018 07 25 21:00 265.2 0.0 0.00 74.7 23.7 63.06 3.6
2018 07 25 22:00 266.3 0.0 0.00 71.3 21.8 70.81 1.4
2018 07 25 23:00 268.1 0.0 0.00 69.0 20.6 77.79 3.0
2018 07 25 24:00 267.7 0.0 0.00 68.7 20.4 75.18 4.7
2018 07 26 1:00 267.7 0.0 0.00 68.2 20.1 76.5 4.4
2018 07 26 2:00 268.1 0.0 0.00 67.7 19.8 78.05 4.8
2018 07 26 3:00 267.5 0.0 0.00 69.7 20.9 71.97 6.1
2018 07 26 4:00 267.8 0.0 0.00 66.8 19.3 78.88 5.1
2018 07 26 5:00 268.0 0.0 0.00 66.4 19.1 81.2 6.3
2018 07 26 6:00 268.2 0.0 0.00 66.7 19.3 82.7 7.6
2018 07 26 7:00 267.1 0.0 0.00 68.7 20.4 73.15 8.0
2018 07 26 8:00 266.2 0.0 0.00 70.6 21.5 64.35 7.3
2018 07 26 9:00 265.4 0.0 0.00 73.1 22.9 56.96 8.0
2018 07 26 10:00 264.4 0.0 0.00 75.4 24.1 48.84 8.3
2018 07 26 11:00 263.6 0.0 0.00 77.9 25.5 41.76 8.6
2018 07 26 12:00 262.5 0.0 0.00 79.9 26.6 39.42 9.8
2018 07 26 13:00 261.2 0.0 0.00 82.7 28.2 31.26 11.5
2018 07 26 14:00 260.7 0.0 0.00 82.6 28.1 32.59 10.3
2018 07 26 15:00 260.2 0.0 0.00 84.1 28.9 31.17 9.9
2018 07 26 16:00 260.1 0.0 0.00 84.0 28.9 31.55 11.2
2018 07 26 17:00 260.2 0.0 0.00 83.3 28.5 33.1 11.2
2018 07 26 18:00 260.5 0.0 0.00 82.0 27.8 35.2 9.0
2018 07 26 19:00 261.3 0.0 0.00 79.1 26.1 41.37 5.1
2018 07 26 20:00 263.4 0.0 0.00 73.3 22.9 51.89 3.6
2018 07 26 21:00 264.2 0.0 0.00 70.6 21.5 55.3 2.7
2018 07 26 22:00 264.8 0.0 0.00 68.0 20.0 62.08 3.5
2018 07 26 23:00 266.1 0.0 0.00 65.5 18.6 69.79 1.3
2018 07 26 24:00 266.8 0.0 0.00 64.1 17.9 74.41 3.8
2018 07 27 1:00 266.7 0.0 0.00 64.1 17.9 75.58 4.8
2018 07 27 2:00 267.6 0.0 0.00 62.1 16.7 82 3.2
2018 07 27 3:00 281.9 0.0 0.00 59.6 15.3 88.5 0.8
2018 07 27 4:00 Wet 315.1 0.0 0.00 57.4 14.1 93 1.5
2018 07 27 5:00 Wet 335.8 0.0 0.00 56.4 13.6 93 2.8
2018 07 27 6:00 Wet 346.3 0.0 0.00 56.3 13.5 91.7 3.1
2018 07 27 7:00 Wet 292.9 0.0 0.00 60.5 15.8 85.4 4.8
2018 07 27 8:00 267.1 0.0 0.00 65.7 18.7 71.02 6.8
2018 07 27 9:00 266.1 0.0 0.00 69.0 20.6 61.96 6.4
2018 07 27 10:00 265.0 0.0 0.00 72.2 22.4 54.58 8.5
2018 07 27 11:00 263.9 0.0 0.00 74.8 23.8 48.88 10.6
2018 07 27 12:00 262.9 0.0 0.00 76.9 24.9 44.64 9.7
2018 07 27 13:00 261.7 0.0 0.00 78.6 25.9 40.89 8.7
2018 07 27 14:00 260.9 0.0 0.00 80.5 27.0 37.38 9.2
2018 07 27 15:00 260.5 0.0 0.00 81.3 27.4 35.33 8.6
2018 07 27 16:00 260.6 0.0 0.00 80.6 27.0 35.45 7.2
2018 07 27 17:00 260.5 0.0 0.00 80.9 27.2 34.46 7.7
2018 07 27 18:00 260.2 0.0 0.00 80.7 27.0 35.39 6.0
2018 07 27 19:00 261.8 0.0 0.00 75.7 24.3 47.95 4.3
2018 07 27 20:00 263.9 0.0 0.00 71.2 21.8 56.76 3.3
2018 07 27 21:00 265.1 0.0 0.00 66.6 19.2 67.43 3.8
2018 07 27 22:00 265.7 0.0 0.00 66.1 18.9 67.37 2.3
2018 07 27 23:00 267.4 0.0 0.00 62.8 17.1 77.99 0.1
2018 07 27 24:00 268.9 0.0 0.00 60.7 16.0 84.6 0.0
2018 07 28 1:00 269.1 0.0 0.00 59.0 15.0 87.5 0.0
2018 07 28 2:00 272.4 0.0 0.00 57.9 14.4 92 0.5
2018 07 28 3:00 271.9 0.0 0.00 57.5 14.2 90.2 0.3
2018 07 28 4:00 274.5 0.0 0.00 56.5 13.6 92.4 0.0
2018 07 28 5:00 279.1 0.0 0.00 56.6 13.7 93.1 0.3
2018 07 28 6:00 276.6 0.0 0.00 58.2 14.5 92.1 0.4
2018 07 28 7:00 268.0 0.0 0.00 63.4 17.5 81.1 0.2
2018 07 28 8:00 275.6 0.0 0.00 65.6 18.7 75.57 2.3
2018 07 28 9:00 266.3 0.0 0.00 68.5 20.3 68.49 3.9
2018 07 28 10:00 264.7 0.0 0.00 73.3 22.9 55.24 4.5
2018 07 28 11:00 271.8 0.0 0.00 75.6 24.2 48.98 4.1
2018 07 28 12:00 269.8 0.0 0.00 74.4 23.5 55.49 5.2
2018 07 28 13:00 263.3 0.0 0.00 76.6 24.8 50.62 4.2
2018 07 28 14:00 264.2 0.0 0.00 74.9 23.9 53.68 5.6
2018 07 28 15:00 275.4 0.0 0.00 73.0 22.8 64.34 6.5
2018 07 28 16:00 267.5 0.0 0.00 70.7 21.5 74.35 6.4
2018 07 28 17:00 265.5 0.0 0.00 71.3 21.8 68.52 5.1
2018 07 28 18:00 266.2 0.0 0.00 70.4 21.4 72.68 3.1
2018 07 28 19:00 278.8 0.0 0.00 68.8 20.5 81.1 3.6
2018 07 28 20:00 Wet 311.5 0.0 0.00 67.0 19.4 88.1 1.8
2018 07 28 21:00 Wet 297.7 0.0 0.00 65.1 18.4 93.1 1.5
2018 07 28 22:00 Wet 291.9 0.0 0.00 64.9 18.3 94.8 1.2
2018 07 28 23:00 Wet 284.8 0.0 0.00 64.8 18.2 93.8 2.3
2018 07 28 24:00 282.2 0.0 0.00 64.5 18.1 93.5 2.3
2018 07 29 1:00 273.4 0.0 0.00 64.3 17.9 95.7 3.1
2018 07 29 2:00 Wet 305.6 0.0 0.51 64.4 18.0 96.2 3.4
2018 07 29 3:00 Wet 314.4 0.0 0.76 64.5 18.0 95.8 5.0
2018 07 29 4:00 Wet 357.4 0.0 1.02 63.4 17.4 96.6 7.2
2018 07 29 5:00 Wet 422.1 0.2 3.81 62.1 16.7 98.2 8.0
2018 07 29 6:00 Wet 438.6 0.3 6.86 61.8 16.5 99.1 9.0
2018 07 29 7:00 Wet 425.0 0.1 2.79 61.9 16.6 99.5 7.3
2018 07 29 8:00 Wet 368.6 0.1 1.27 62.1 16.7 99.6 7.7
2018 07 29 9:00 Wet 329.9 0.0 0.76 62.3 16.9 99.2 8.8
2018 07 29 10:00 Wet 331.9 0.0 0.25 62.7 17.0 98.4 5.7
2018 07 29 11:00 Wet 285.7 0.0 0.00 63.9 17.7 96.5 7.4
2018 07 29 12:00 278.4 0.0 0.00 64.4 18.0 94 5.4
2018 07 29 13:00 Wet 370.9 0.1 1.27 64.6 18.1 94.2 6.3
2018 07 29 14:00 269.0 0.0 0.00 66.2 19.0 91.1 7.2
2018 07 29 15:00 268.4 0.0 0.00 66.9 19.4 87.4 6.9
2018 07 29 16:00 269.0 0.0 0.00 66.5 19.2 85.5 5.4
2018 07 29 17:00 267.5 0.0 0.00 67.7 19.8 82.8 5.7
2018 07 29 18:00 266.7 0.0 0.00 68.1 20.1 81.5 6.6
2018 07 29 19:00 269.0 0.0 0.00 65.4 18.6 87.1 4.2
2018 07 29 20:00 274.3 0.0 0.00 63.5 17.5 93.7 0.7
2018 07 29 21:00 Wet 284.2 0.0 0.00 63.2 17.3 95.4 0.0
2018 07 29 22:00 Wet 294.7 0.0 0.00 62.9 17.2 95.9 1.7
2018 07 29 23:00 Wet 332.3 0.0 0.00 60.9 16.1 97.8 1.9
2018 07 29 24:00 Wet 394.2 0.0 0.00 60.0 15.5 98.7 0.8
2018 07 30 1:00 Wet 470.2 0.0 0.00 58.7 14.8 99.5 1.2
2018 07 30 2:00 Wet 506.2 0.0 0.00 57.2 14.0 99.8 1.9
2018 07 30 3:00 Wet 488.3 0.0 0.00 56.9 13.8 99.9 2.1
2018 07 30 4:00 Wet 470.1 0.0 0.00 56.8 13.8 99.9 3.0
2018 07 30 5:00 Wet 411.5 0.0 0.00 56.3 13.5 99.9 3.4
2018 07 30 6:00 Wet 377.5 0.0 0.00 56.9 13.8 99.9 3.1
2018 07 30 7:00 Wet 328.6 0.0 0.00 59.5 15.3 99.9 3.3
2018 07 30 8:00 280.1 0.0 0.00 64.5 18.1 93.2 5.5
2018 07 30 9:00 269.3 0.0 0.00 67.8 19.9 80.6 6.8
2018 07 30 10:00 267.9 0.0 0.00 70.7 21.5 71.27 8.3
2018 07 30 11:00 266.8 0.0 0.00 72.2 22.3 67.64 7.1
2018 07 30 12:00 265.6 0.0 0.00 73.8 23.2 62.76 7.0
2018 07 30 13:00 264.7 0.0 0.00 75.2 24.0 58.91 6.6
2018 07 30 14:00 263.9 0.0 0.00 76.7 24.8 55.1 7.5
2018 07 30 15:00 263.2 0.0 0.00 77.9 25.5 49.28 7.4
2018 07 30 16:00 262.5 0.0 0.00 78.7 25.9 45.46 8.8
2018 07 30 17:00 263.0 0.0 0.00 77.5 25.3 46.14 8.3
2018 07 30 18:00 263.9 0.0 0.00 75.1 23.9 53.96 5.3
2018 07 30 19:00 265.3 0.0 0.00 72.6 22.6 65.21 1.9
2018 07 30 20:00 266.7 0.0 0.00 70.3 21.3 73.73 3.0
2018 07 30 21:00 267.9 0.0 0.00 68.5 20.3 83.2 4.0
2018 07 30 22:00 270.4 0.0 0.00 66.9 19.4 88.5 0.4
2018 07 30 23:00 Wet 284.4 0.0 0.00 64.7 18.2 94 0.1
2018 07 30 24:00 Wet 314.0 0.0 0.00 63.2 17.3 96.2 0.4
2018 07 31 1:00 Wet 344.0 0.0 0.00 63.5 17.5 94.8 5.1
2018 07 31 2:00 Wet 334.9 0.0 0.00 63.1 17.3 94.1 3.9
2018 07 31 3:00 Wet 362.2 0.0 0.00 61.1 16.2 97.2 2.6
2018 07 31 4:00 Wet 418.9 0.0 0.00 60.7 16.0 98 4.5
2018 07 31 5:00 Wet 456.4 0.0 0.00 59.8 15.4 97.7 4.7
2018 07 31 6:00 Wet 472.4 0.0 0.00 59.8 15.4 97.2 4.3
2018 07 31 7:00 Wet 440.2 0.0 0.00 61.3 16.3 94.1 5.4
2018 07 31 8:00 Wet 297.9 0.0 0.00 66.0 18.9 84.1 5.6
2018 07 31 9:00 268.1 0.0 0.00 71.3 21.8 70.51 5.4
2018 07 31 10:00 266.9 0.0 0.00 74.8 23.8 61.31 6.7
2018 07 31 11:00 265.7 0.0 0.00 76.9 24.9 56.6 7.5
2018 07 31 12:00 264.5 0.0 0.00 77.6 25.3 53.55 7.8
2018 07 31 13:00 263.4 0.0 0.00 79.3 26.3 49.15 7.7
2018 07 31 14:00 262.5 0.0 0.00 80.8 27.1 45.43 8.0
2018 07 31 15:00 261.9 0.0 0.00 81.2 27.3 43.43 7.6
2018 07 31 16:00 261.6 0.0 0.00 81.5 27.5 40.8 8.3
2018 07 31 17:00 261.4 0.0 0.00 81.4 27.4 41.24 8.0
2018 07 31 18:00 261.9 0.0 0.00 80.3 26.8 44.36 6.4
2018 07 31 19:00 262.5 0.0 0.00 77.6 25.3 49.17 3.6
2018 07 31 20:00 264.9 0.0 0.00 73.1 22.9 58.56 0.2
2018 07 31 21:00 266.8 0.0 0.00 68.6 20.3 72.91 0.7
2018 07 31 22:00 269.3 0.0 0.00 64.7 18.1 84.5 0.7
2018 07 31 23:00 269.5 0.0 0.00 64.0 17.8 82.3 1.7
2018 07 31 24:00 270.1 0.0 0.00 63.0 17.2 87.7 3.1
2018 08 01 1:00 277.4 0.0 0.00 62.2 16.8 90.4 1.6
2018 08 01 2:00 Wet 286.0 0.0 0.00 61.0 16.1 91.7 2.8
2018 08 01 3:00 Wet 300.8 0.0 0.00 61.0 16.1 93.8 2.4
2018 08 01 4:00 Wet 329.0 0.0 0.00 60.6 15.9 93.9 1.4
2018 08 01 5:00 Wet 345.7 0.0 0.00 60.5 15.8 93.8 3.1
2018 08 01 6:00 Wet 356.1 0.0 0.00 60.5 15.8 92.6 2.4
2018 08 01 7:00 Wet 290.3 0.0 0.00 64.5 18.0 83.6 2.6
2018 08 01 8:00 267.8 0.0 0.00 70.9 21.6 71.21 4.1
2018 08 01 9:00 266.3 0.0 0.00 76.6 24.8 57.11 6.3
2018 08 01 10:00 265.2 0.0 0.00 80.3 26.8 50.06 5.7
2018 08 01 11:00 263.8 0.0 0.00 82.5 28.1 43.48 6.2
2018 08 01 12:00 262.9 0.0 0.00 82.4 28.0 41.87 6.5
2018 08 01 13:00 262.0 0.0 0.00 83.8 28.8 38.64 5.4
2018 08 01 14:00 261.7 0.0 0.00 84.3 29.0 38.33 5.2
2018 08 01 15:00 260.9 0.0 0.00 85.6 29.8 34.31 6.1
2018 08 01 16:00 260.2 0.0 0.00 86.8 30.4 32.15 7.0
2018 08 01 17:00 259.8 0.0 0.00 87.0 30.6 30.84 6.1
2018 08 01 18:00 260.6 0.0 0.00 85.3 29.6 36.8 7.2
2018 08 01 19:00 261.9 0.0 0.00 81.4 27.5 45.53 6.5
2018 08 01 20:00 263.8 0.0 0.00 75.6 24.2 58.7 5.5
2018 08 01 21:00 265.1 0.0 0.00 71.9 22.2 68.14 3.9
2018 08 01 22:00 266.0 0.0 0.00 69.6 20.9 74.4 4.1
2018 08 01 23:00 266.7 0.0 0.00 67.7 19.8 78.74 3.7
2018 08 01 24:00 267.0 0.0 0.00 67.2 19.6 77.92 4.8
2018 08 02 1:00 267.3 0.0 0.00 66.3 19.0 78.31 4.8
2018 08 02 2:00 267.7 0.0 0.00 65.4 18.6 79 4.4
2018 08 02 3:00 267.7 0.0 0.00 65.2 18.4 80.5 5.1
2018 08 02 4:00 267.5 0.0 0.00 67.3 19.6 75.9 6.7
2018 08 02 5:00 267.7 0.0 0.00 65.4 18.6 81.8 5.0
2018 08 02 6:00 267.7 0.0 0.00 66.0 18.9 80 6.0
2018 08 02 7:00 267.2 0.0 0.00 67.7 19.8 78.03 7.6
2018 08 02 8:00 266.6 0.0 0.00 70.1 21.2 73.82 7.3
2018 08 02 9:00 266.5 0.0 0.00 71.6 22.0 73.02 7.4
2018 08 02 10:00 266.3 0.0 0.00 73.0 22.8 74.25 5.8
2018 08 02 11:00 267.5 0.0 0.00 76.9 24.9 67.87 5.9
2018 08 02 12:00 264.8 0.0 0.00 77.9 25.5 65.41 5.3
2018 08 02 13:00 264.1 0.0 0.00 80.4 26.9 62.17 5.7
2018 08 02 14:00 263.5 0.0 0.00 82.6 28.1 58.87 6.3
2018 08 02 15:00 263.0 0.0 0.00 84.2 29.0 56.15 5.4
2018 08 02 16:00 263.2 0.0 0.00 84.5 29.2 55.66 3.7
2018 08 02 17:00 262.6 0.0 0.00 86.1 30.0 53.03 2.9
2018 08 02 18:00 263.1 0.0 0.00 85.7 29.8 50.29 4.5
2018 08 02 19:00 264.0 0.0 0.00 82.7 28.1 56.19 3.8
2018 08 02 20:00 276.5 0.0 0.00 79.7 26.5 62.69 5.5
2018 08 02 21:00 267.4 0.0 0.00 74.4 23.5 75.56 1.2
2018 08 02 22:00 269.6 0.0 0.00 70.7 21.5 85.5 0.8
2018 08 02 23:00 270.0 0.0 0.00 70.1 21.1 84.3 1.4
2018 08 02 24:00 270.5 0.0 0.00 68.6 20.3 86.7 0.2
2018 08 03 1:00 270.1 0.0 0.00 68.6 20.3 85.1 1.1
2018 08 03 2:00 275.1 0.0 0.00 66.7 19.3 89.8 0.5
2018 08 03 3:00 Wet 294.4 0.0 0.00 64.5 18.0 94.9 0.2
2018 08 03 4:00 Wet 309.8 0.0 0.00 64.1 17.8 92.9 2.9
2018 08 03 5:00 271.5 0.0 0.00 68.0 20.0 81.1 5.2
2018 08 03 6:00 269.6 0.0 0.00 67.7 19.8 82.1 4.3
2018 08 03 7:00 268.7 0.0 0.00 69.2 20.6 81.2 4.7
2018 08 03 8:00 267.6 0.0 0.00 73.7 23.2 71.33 6.2
2018 08 03 9:00 266.0 0.0 0.00 79.6 26.4 57.03 8.6
2018 08 03 10:00 264.7 0.0 0.00 84.5 29.2 47.02 8.7
2018 08 03 11:00 263.5 0.0 0.00 87.5 30.9 41.09 9.1
2018 08 03 12:00 262.2 0.0 0.00 89.7 32.0 36.27 8.4
2018 08 03 13:00 261.5 0.0 0.00 91.1 32.9 35.85 9.2
2018 08 03 14:00 260.8 0.0 0.00 92.0 33.4 32.71 11.0
2018 08 03 15:00 260.3 0.0 0.00 92.3 33.5 31.07 11.3
2018 08 03 16:00 260.4 0.0 0.00 91.9 33.3 33.89 11.4
2018 08 03 17:00 260.4 0.0 0.00 91.0 32.8 36.08 9.7
2018 08 03 18:00 260.7 0.0 0.00 89.0 31.7 38.75 7.6
2018 08 03 19:00 261.9 0.0 0.00 84.7 29.3 47.84 4.5
2018 08 03 20:00 264.0 0.0 0.00 79.4 26.3 58.02 2.6
2018 08 03 21:00 265.9 0.0 0.00 75.4 24.1 68.24 0.7
2018 08 03 22:00 267.9 0.0 0.00 71.4 21.9 77.66 0.5
2018 08 03 23:00 268.3 0.0 0.00 71.0 21.6 77.21 2.4
2018 08 03 24:00 267.6 0.0 0.00 71.5 21.9 73.32 4.1
2018 08 04 1:00 266.9 0.0 0.00 72.5 22.5 69.7 4.4
2018 08 04 2:00 267.4 0.0 0.00 70.5 21.4 75.75 4.4
2018 08 04 3:00 267.6 0.0 0.00 69.7 20.9 78.02 4.6
2018 08 04 4:00 267.7 0.0 0.00 68.4 20.2 81.3 4.4
2018 08 04 5:00 268.3 0.0 0.00 67.6 19.8 83.4 4.3
2018 08 04 6:00 268.3 0.0 0.00 67.3 19.6 84.2 4.8
2018 08 04 7:00 267.3 0.0 0.00 71.3 21.9 75.96 6.5
2018 08 04 8:00 266.5 0.0 0.00 75.3 24.1 67.4 8.1
2018 08 04 9:00 265.4 0.0 0.00 79.3 26.3 59.67 8.4
2018 08 04 10:00 264.7 0.0 0.00 81.8 27.7 55.95 9.3
2018 08 04 11:00 264.0 0.0 0.00 84.1 29.0 50.43 10.0
2018 08 04 12:00 263.1 0.0 0.00 87.1 30.6 43.91 11.0
2018 08 04 13:00 262.5 0.0 0.00 86.8 30.5 42.77 11.3
2018 08 04 14:00 262.0 0.0 0.00 87.5 30.8 45.59 12.5
2018 08 04 15:00 262.1 0.0 0.00 87.7 31.0 43.63 12.9
2018 08 04 16:00 261.0 0.0 0.00 89.7 32.1 32.31 13.0
2018 08 04 17:00 261.0 0.0 0.00 89.3 31.8 35.13 11.6
2018 08 04 18:00 261.5 0.0 0.00 88.0 31.1 38.99 9.5
2018 08 04 19:00 262.9 0.0 0.00 83.3 28.5 46.91 3.1
2018 08 04 20:00 263.8 0.0 0.00 79.3 26.3 55.98 1.8
2018 08 04 21:00 264.7 0.0 0.00 76.6 24.8 61.32 3.2
2018 08 04 22:00 264.8 0.0 0.00 76.6 24.8 61.1 3.9
2018 08 04 23:00 264.2 0.0 0.00 78.0 25.5 55.06 5.1
2018 08 04 24:00 264.5 0.0 0.00 75.9 24.4 59.32 4.1
2018 08 05 1:00 264.8 0.0 0.00 74.1 23.4 62.48 4.0
2018 08 05 2:00 265.4 0.0 0.00 72.1 22.3 66.9 4.7
2018 08 05 3:00 265.1 0.0 0.00 73.0 22.8